Darstellungsparameter: Aktuell verwendete Einstellungen:
Skalierung der Graphiken ... ?
xyx+y,   Skalierungsfaktor:      Skalierung: Modus: x, Faktor: 1
Darstellungszeitraum ... ?
Vom - - bis: - -   Zeitraum: 27.08.2005 - 26.09.2005
Min/Max/Avg-Anzeige ... ?
Zeige MMA aktuell
Zeige MMA Monat
Zeige MMA alles
Zeige --A aktuell
Zeige --A Monat
Zeige --A alles
Keine MMA-Anzeige
MMA:
Average (ber die Originaldaten)
MMA-Basis: 27.08.2005 - 26.09.2005
Quicknavigation für Darstellung... ?
Tage:      1T, 2T, 3T, 5T -1T -2T -3T -5T +1T +2T +3T +5T
Wochen: 1W, 2W, 3W -1W -2W -3W +1W +2W +3W
Monate: 1M, 3M, 6M -1M -3M -6M +1M +3M +6M
Jahre:    1J, 3J, 5J, 10J -1J -3J -5J -10J +1J +3J +5J +10J
Nutze für die Darstellung ... ?
Originaldaten oder Mittelwerte auf ...
Stundenbasis Tagesbasis Wochenbasis
Monatsbasis Jahresbasis      Datenbasis: Original-Daten
Darstellen als:
Statistik (Auto) Statistik J:M      Darstellung:
Zur Graphik,    zurück zur Übersicht aller Sensoren.
 
Tabellarische Datenbersicht: ?
 
Sensor: Nr:Datum:Temp:Abs-Feuchte:Windchill:Wind:
Aussen-T/F 1 27-08-2005 00:07:02 14.2 C 8.79 g/m*3 14.2 C 0 km/h
2 27-08-2005 00:19:03 13.9 C 8.87 g/m*3 13.9 C 0 km/h
3 27-08-2005 00:31:02 13.6 C 8.83 g/m*3 13.6 C 0 km/h
4 27-08-2005 00:43:02 13.4 C 8.83 g/m*3 13.4 C 0 km/h
5 27-08-2005 00:55:02 13.6 C 9.06 g/m*3 13.6 C 0 km/h
6 27-08-2005 01:07:02 13.8 C 9.17 g/m*3 13.8 C 0 km/h
7 27-08-2005 01:19:03 13.7 C 9.12 g/m*3 13.7 C 0 km/h
8 27-08-2005 01:31:03 13.7 C 9.12 g/m*3 13.7 C 0 km/h
9 27-08-2005 01:43:03 13.5 C 9.12 g/m*3 13.5 C 0 km/h
10 27-08-2005 01:55:02 13.5 C 9.12 g/m*3 13.5 C 0 km/h
11 27-08-2005 02:07:03 13.3 C 9.01 g/m*3 13.3 C 0 km/h
12 27-08-2005 02:19:02 13.1 C 8.9 g/m*3 13.1 C 0 km/h
13 27-08-2005 02:31:02 13 C 8.96 g/m*3 13 C 0 km/h
14 27-08-2005 02:43:02 12.9 C 9.13 g/m*3 12.9 C 0 km/h
15 27-08-2005 02:56:04 12.7 C 9.13 g/m*3 12.7 C 0 km/h
16 27-08-2005 03:08:04 12.4 C 9.07 g/m*3 12.4 C 0 km/h
17 27-08-2005 03:20:03 12.1 C 8.9 g/m*3 12.1 C 0 km/h
18 27-08-2005 03:32:02 11.9 C 8.9 g/m*3 11.9 C 0 km/h
19 27-08-2005 03:44:02 11.7 C 8.79 g/m*3 11.7 C 0 km/h
20 27-08-2005 03:56:02 11.5 C 8.68 g/m*3 11.5 C 0 km/h
21 27-08-2005 04:08:01 11.3 C 8.57 g/m*3 11.3 C 0 km/h
22 27-08-2005 04:20:01 11.1 C 8.46 g/m*3 11.1 C 0 km/h
23 27-08-2005 04:32:01 11.1 C 8.56 g/m*3 11.1 C 0 km/h
24 27-08-2005 04:44:01 11 C 8.51 g/m*3 11 C 0 km/h
25 27-08-2005 04:56:03 10.7 C 8.45 g/m*3 10.7 C 0 km/h
Sensor: Nr:Datum:Temp:Abs-Feuchte:Windchill:Wind:
Aussen-T/F 26 27-08-2005 05:08:03 10.6 C 8.49 g/m*3 10.6 C 0 km/h
27 27-08-2005 05:20:03 10.5 C 8.44 g/m*3 10.5 C 0 km/h
28 27-08-2005 05:32:03 10.4 C 8.38 g/m*3 10.4 C 0 km/h
29 27-08-2005 05:44:03 10.5 C 8.53 g/m*3 10.5 C 0 km/h
30 27-08-2005 05:56:02 10.2 C 8.37 g/m*3 10.2 C 0 km/h
31 27-08-2005 06:08:02 10.1 C 8.32 g/m*3 10.1 C 0 km/h
32 27-08-2005 06:20:03 9.9 C 8.31 g/m*3 9.9 C 0 km/h
33 27-08-2005 06:32:02 9.8 C 8.26 g/m*3 9.8 C 0 km/h
34 27-08-2005 06:44:02 9.7 C 8.2 g/m*3 9.7 C 0 km/h
35 27-08-2005 06:56:02 9.7 C 8.2 g/m*3 9.7 C 0 km/h
36 27-08-2005 07:08:02 9.7 C 8.2 g/m*3 9.7 C 0 km/h
37 27-08-2005 07:20:01 9.8 C 8.26 g/m*3 9.8 C 0 km/h
38 27-08-2005 07:32:02 9.8 C 8.26 g/m*3 9.8 C 0 km/h
39 27-08-2005 07:44:02 9.8 C 8.35 g/m*3 9.8 C 0 km/h
40 27-08-2005 07:56:02 9.9 C 8.4 g/m*3 9.9 C 0 km/h
41 27-08-2005 08:08:01 10.1 C 8.42 g/m*3 10.1 C 0 km/h
42 27-08-2005 08:20:02 10.6 C 8.69 g/m*3 10.6 C 0 km/h
43 27-08-2005 08:32:01 10.7 C 8.84 g/m*3 10.7 C 0 km/h
44 27-08-2005 08:44:02 11 C 8.91 g/m*3 11 C 0 km/h
45 27-08-2005 08:56:02 11.2 C 8.92 g/m*3 11.2 C 0 km/h
46 27-08-2005 09:08:02 11.6 C 8.94 g/m*3 11.6 C 0 km/h
47 27-08-2005 09:20:02 12.1 C 9.12 g/m*3 12.1 C 0 km/h
48 27-08-2005 09:32:02 12.6 C 9.18 g/m*3 12.6 C 0 km/h
49 27-08-2005 09:44:03 13.2 C 9.3 g/m*3 13.2 C 0 km/h
50 27-08-2005 09:56:03 13.8 C 9.41 g/m*3 13.8 C 0 km/h
Sensor: Nr:Datum:Temp:Abs-Feuchte:Windchill:Wind:
Aussen-T/F 51 27-08-2005 10:08:03 14.4 C 8.9 g/m*3 14.4 C 0 km/h
52 27-08-2005 10:20:02 14.8 C 8.74 g/m*3 14.8 C 0 km/h
53 27-08-2005 10:32:02 15.3 C 8.75 g/m*3 15.3 C 0 km/h
54 27-08-2005 10:44:02 16 C 8.86 g/m*3 16 C 0 km/h
55 27-08-2005 10:56:02 16.5 C 9.13 g/m*3 16.5 C 0 km/h
56 27-08-2005 11:08:02 17.1 C 9.17 g/m*3 17.1 C 0 km/h
57 27-08-2005 11:20:02 17.5 C 9.09 g/m*3 17.5 C 0 km/h
58 27-08-2005 11:32:03 17.9 C 9.01 g/m*3 17.9 C 0 km/h
59 27-08-2005 11:44:03 18.4 C 8.97 g/m*3 18.4 C 0 km/h
60 27-08-2005 11:56:02 18.9 C 9.4 g/m*3 18.9 C 0 km/h
61 27-08-2005 12:08:02 19 C 9.13 g/m*3 19 C 0 km/h
62 27-08-2005 12:20:02 19.5 C 9.23 g/m*3 19.5 C 0 km/h
63 27-08-2005 12:32:02 19.9 C 8.76 g/m*3 19.9 C 0 km/h
64 27-08-2005 12:44:02 20.3 C 8.79 g/m*3 20.3 C 0 km/h
65 27-08-2005 12:56:02 20.6 C 7.87 g/m*3 20.6 C 0 km/h
66 27-08-2005 13:08:02 21.2 C 7.97 g/m*3 21.2 C 0 km/h
67 27-08-2005 13:20:02 21.2 C 7.6 g/m*3 21.2 C 0 km/h
68 27-08-2005 13:32:01 21.7 C 7.63 g/m*3 21.7 C 0 km/h
69 27-08-2005 13:44:01 21.7 C 7.63 g/m*3 21.7 C 0 km/h
70 27-08-2005 13:56:02 22.5 C 7.79 g/m*3 22.5 C 0 km/h
71 27-08-2005 14:08:01 22.3 C 7.11 g/m*3 22.3 C 0 km/h
72 27-08-2005 14:20:02 22.3 C 7.7 g/m*3 22.3 C 0 km/h
73 27-08-2005 14:32:02 22.8 C 7.52 g/m*3 22.8 C 0 km/h
74 27-08-2005 14:44:02 22.9 C 7.77 g/m*3 22.9 C 0 km/h
75 27-08-2005 14:56:02 23.3 C 7.95 g/m*3 23.3 C 0 km/h
Sensor: Nr:Datum:Temp:Abs-Feuchte:Windchill:Wind:
Aussen-T/F 76 27-08-2005 15:08:03 23.6 C 7.44 g/m*3 23.6 C 0 km/h
77 27-08-2005 15:20:02 23.5 C 7.61 g/m*3 23.5 C 0 km/h
78 27-08-2005 15:32:02 23.3 C 7.32 g/m*3 23.3 C 0 km/h
79 27-08-2005 15:44:02 23.3 C 7.53 g/m*3 23.3 C 0 km/h
80 27-08-2005 15:56:01 24.1 C 7.66 g/m*3 24.1 C 0 km/h
81 27-08-2005 16:08:01 24.4 C 7.57 g/m*3 24.4 C 0 km/h
82 27-08-2005 16:20:02 24.1 C 8.31 g/m*3 24.1 C 0 km/h
83 27-08-2005 16:32:02 24.1 C 7.88 g/m*3 24.1 C 0 km/h
84 27-08-2005 16:44:02 24.3 C 7.97 g/m*3 24.3 C 0 km/h
85 27-08-2005 16:56:02 25.1 C 7.64 g/m*3 25.1 C 0 km/h
86 27-08-2005 17:08:03 25.4 C 7.3 g/m*3 25.4 C 0 km/h
87 27-08-2005 17:20:02 24.5 C 8.28 g/m*3 24.5 C 0 km/h
88 27-08-2005 17:32:03 24.7 C 8.15 g/m*3 24.7 C 0 km/h
89 27-08-2005 17:44:03 25.3 C 7.49 g/m*3 25.3 C 0 km/h
90 27-08-2005 17:56:02 24.5 C 7.16 g/m*3 24.5 C 0 km/h
91 27-08-2005 18:08:03 23.5 C 9.09 g/m*3 23.5 C 0 km/h
92 27-08-2005 18:20:02 23.3 C 8.99 g/m*3 23.3 C 0 km/h
93 27-08-2005 18:32:02 23.4 C 9.46 g/m*3 23.4 C 0 km/h
94 27-08-2005 18:44:02 23.4 C 9.25 g/m*3 23.4 C 0 km/h
95 27-08-2005 18:56:02 22.7 C 9.09 g/m*3 22.7 C 0 km/h
96 27-08-2005 19:08:02 21.9 C 9.26 g/m*3 21.9 C 0 km/h
97 27-08-2005 19:20:02 21 C 9.16 g/m*3 21 C 0 km/h
98 27-08-2005 19:32:02 20.3 C 9.32 g/m*3 20.3 C 0 km/h
99 27-08-2005 19:44:02 19.9 C 9.11 g/m*3 19.9 C 0 km/h
100 27-08-2005 19:56:02 19.5 C 8.89 g/m*3 19.5 C 0 km/h
Sensor: Nr:Datum:Temp:Abs-Feuchte:Windchill:Wind:
Aussen-T/F 101 27-08-2005 20:08:01 19 C 8.96 g/m*3 19 C 0 km/h
102 27-08-2005 20:20:02 18.3 C 8.6 g/m*3 18.3 C 0 km/h
103 27-08-2005 20:32:02 17.8 C 8.65 g/m*3 17.8 C 0 km/h
104 27-08-2005 20:44:02 17.3 C 8.4 g/m*3 17.3 C 0 km/h
105 27-08-2005 20:56:03 17 C 8.54 g/m*3 17 C 0 km/h
106 27-08-2005 21:08:03 16.8 C 8.72 g/m*3 16.8 C 0 km/h
107 27-08-2005 21:20:02 16.5 C 8.71 g/m*3 16.5 C 0 km/h
108 27-08-2005 21:32:03 16.4 C 8.65 g/m*3 16.4 C 0 km/h
109 27-08-2005 21:44:03 16.2 C 8.55 g/m*3 16.2 C 0 km/h
110 27-08-2005 21:56:02 16 C 8.45 g/m*3 16 C 0 km/h
111 27-08-2005 22:08:02 15.8 C 8.75 g/m*3 15.8 C 0 km/h
112 27-08-2005 22:20:03 15.6 C 8.64 g/m*3 15.6 C 0 km/h
113 27-08-2005 22:32:04 15.3 C 8.49 g/m*3 15.3 C 0 km/h
114 27-08-2005 22:44:04 15 C 8.59 g/m*3 15 C 0 km/h
115 27-08-2005 22:56:03 14.8 C 8.61 g/m*3 14.8 C 0 km/h
116 27-08-2005 23:08:03 14.7 C 8.56 g/m*3 14.7 C 0 km/h
117 27-08-2005 23:20:02 14.4 C 8.53 g/m*3 14.4 C 0 km/h
118 27-08-2005 23:32:03 14.2 C 8.55 g/m*3 14.2 C 0 km/h
119 27-08-2005 23:44:03 14.1 C 8.5 g/m*3 14.1 C 0 km/h
120 27-08-2005 23:56:01 13.8 C 8.58 g/m*3 13.8 C 0 km/h
121 28-08-2005 00:08:01 13.7 C 8.64 g/m*3 13.7 C 0 km/h
122 28-08-2005 00:20:02 13.7 C 9 g/m*3 13.7 C 0 km/h
123 28-08-2005 00:32:02 13.6 C 8.94 g/m*3 13.6 C 0 km/h
124 28-08-2005 00:44:02 13.5 C 9.12 g/m*3 13.5 C 0 km/h
125 28-08-2005 00:56:02 13.3 C 9.01 g/m*3 13.3 C 0 km/h
Sensor: Nr:Datum:Temp:Abs-Feuchte:Windchill:Wind:
Aussen-T/F 126 28-08-2005 01:08:02 13.1 C 8.9 g/m*3 13.1 C 0 km/h
127 28-08-2005 01:20:02 13 C 8.96 g/m*3 13 C 0 km/h
128 28-08-2005 01:32:02 12.9 C 9.13 g/m*3 12.9 C 0 km/h
129 28-08-2005 01:44:02 12.5 C 8.91 g/m*3 12.5 C 0 km/h
130 28-08-2005 01:56:02 12.4 C 8.96 g/m*3 12.4 C 0 km/h
131 28-08-2005 02:08:02 12.2 C 8.85 g/m*3 12.2 C 0 km/h
132 28-08-2005 02:20:02 12 C 8.85 g/m*3 12 C 0 km/h
133 28-08-2005 02:32:02 11.9 C 8.9 g/m*3 11.9 C 0 km/h
134 28-08-2005 02:44:02 11.9 C 8.9 g/m*3 11.9 C 0 km/h
135 28-08-2005 02:57:03 11.7 C 8.89 g/m*3 11.7 C 0 km/h
136 28-08-2005 03:09:03 11.5 C 8.78 g/m*3 11.5 C 0 km/h
137 28-08-2005 03:21:03 11.4 C 8.83 g/m*3 11.4 C 0 km/h
138 28-08-2005 03:33:02 11.4 C 8.72 g/m*3 11.4 C 0 km/h
139 28-08-2005 03:45:03 11.3 C 8.67 g/m*3 11.3 C 0 km/h
140 28-08-2005 03:57:03 11.1 C 8.66 g/m*3 11.1 C 0 km/h
141 28-08-2005 04:09:02 11 C 8.61 g/m*3 11 C 0 km/h
142 28-08-2005 04:21:02 11 C 8.71 g/m*3 11 C 0 km/h
143 28-08-2005 04:33:02 10.8 C 8.6 g/m*3 10.8 C 0 km/h
144 28-08-2005 04:45:03 10.7 C 8.64 g/m*3 10.7 C 0 km/h
145 28-08-2005 04:57:03 10.6 C 8.59 g/m*3 10.6 C 0 km/h
146 28-08-2005 05:09:03 10.5 C 8.53 g/m*3 10.5 C 0 km/h
147 28-08-2005 05:21:02 10.5 C 8.53 g/m*3 10.5 C 0 km/h
148 28-08-2005 05:33:02 10.5 C 8.63 g/m*3 10.5 C 0 km/h
149 28-08-2005 05:45:01 10.3 C 8.52 g/m*3 10.3 C 0 km/h
150 28-08-2005 05:57:02 10.2 C 8.47 g/m*3 10.2 C 0 km/h
Sensor: Nr:Datum:Temp:Abs-Feuchte:Windchill:Wind:
Aussen-T/F 151 28-08-2005 06:09:01 10.2 C 8.47 g/m*3 10.2 C 0 km/h
152 28-08-2005 06:21:02 10 C 8.36 g/m*3 10 C 0 km/h
153 28-08-2005 06:33:01 10 C 8.36 g/m*3 10 C 0 km/h
154 28-08-2005 06:45:02 9.8 C 8.35 g/m*3 9.8 C 0 km/h
155 28-08-2005 06:57:03 9.9 C 8.4 g/m*3 9.9 C 0 km/h
156 28-08-2005 07:09:02 9.8 C 8.44 g/m*3 9.8 C 0 km/h
157 28-08-2005 07:21:02 9.9 C 8.5 g/m*3 9.9 C 0 km/h
158 28-08-2005 07:33:02 10 C 8.46 g/m*3 10 C 0 km/h
159 28-08-2005 07:45:02 10.1 C 8.51 g/m*3 10.1 C 0 km/h
160 28-08-2005 07:57:02 10.3 C 8.62 g/m*3 10.3 C 0 km/h
161 28-08-2005 08:09:02 10.4 C 8.77 g/m*3 10.4 C 0 km/h
162 28-08-2005 08:21:02 10.8 C 8.9 g/m*3 10.8 C 0 km/h
163 28-08-2005 08:33:02 11 C 8.91 g/m*3 11 C 0 km/h
164 28-08-2005 08:45:02 11.2 C 8.92 g/m*3 11.2 C 0 km/h
165 28-08-2005 08:57:02 11.6 C 9.04 g/m*3 11.6 C 0 km/h
166 28-08-2005 09:09:01 11.5 C 8.88 g/m*3 11.5 C 0 km/h
167 28-08-2005 09:21:02 11.6 C 8.83 g/m*3 11.6 C 0 km/h
168 28-08-2005 09:33:02 11.9 C 9.11 g/m*3 11.9 C 0 km/h
169 28-08-2005 09:45:02 12.4 C 9.29 g/m*3 12.4 C 0 km/h
170 28-08-2005 09:57:02 13.2 C 9.53 g/m*3 13.2 C 0 km/h
171 28-08-2005 10:09:01 13.5 C 9.59 g/m*3 13.5 C 0 km/h
172 28-08-2005 10:21:02 13.9 C 9.59 g/m*3 13.9 C 0 km/h
173 28-08-2005 10:33:02 14.8 C 9.75 g/m*3 14.8 C 0 km/h
174 28-08-2005 10:45:02 15.3 C 9.92 g/m*3 15.3 C 0 km/h
175 28-08-2005 10:57:02 15.8 C 9.96 g/m*3 15.8 C 0 km/h
Sensor: Nr:Datum:Temp:Abs-Feuchte:Windchill:Wind:
Aussen-T/F 176 28-08-2005 11:09:03 16.6 C 9.89 g/m*3 16.6 C 0 km/h
177 28-08-2005 11:21:02 17.2 C 9.81 g/m*3 17.2 C 0 km/h
178 28-08-2005 11:33:02 17.7 C 9.51 g/m*3 17.7 C 0 km/h
179 28-08-2005 11:45:02 18.5 C 9.18 g/m*3 18.5 C 0 km/h
180 28-08-2005 11:57:02 19.1 C 9.02 g/m*3 19.1 C 0 km/h
181 28-08-2005 12:09:04 19.5 C 9.23 g/m*3 19.5 C 0 km/h
182 28-08-2005 12:21:03 20 C 9.51 g/m*3 20 C 0 km/h
183 28-08-2005 12:33:02 20.9 C 9.29 g/m*3 20.9 C 0 km/h
184 28-08-2005 12:45:03 21.1 C 8.29 g/m*3 21.1 C 0 km/h
185 28-08-2005 12:57:03 21.5 C 7.73 g/m*3 21.5 C 0 km/h
186 28-08-2005 13:09:02 21.6 C 8.16 g/m*3 21.6 C 0 km/h
187 28-08-2005 13:21:03 22 C 7.57 g/m*3 22 C 0 km/h
188 28-08-2005 13:33:03 22.7 C 7.27 g/m*3 22.7 C 0 km/h
189 28-08-2005 13:45:03 23.5 C 7.19 g/m*3 23.5 C 0 km/h
190 28-08-2005 13:57:03 23.9 C 7.14 g/m*3 23.9 C 0 km/h
191 28-08-2005 14:09:04 24.6 C 6.75 g/m*3 24.6 C 0 km/h
192 28-08-2005 14:21:04 25 C 7.14 g/m*3 25 C 0 km/h
193 28-08-2005 14:33:03 25.6 C 6.67 g/m*3 25.6 C 0 km/h
194 28-08-2005 14:45:04 26.2 C 6.4 g/m*3 26.2 C 0 km/h
195 28-08-2005 14:57:04 26.3 C 5.94 g/m*3 26.3 C 0 km/h
196 28-08-2005 15:09:05 26.8 C 6.36 g/m*3 26.8 C 0 km/h
197 28-08-2005 15:21:03 27.6 C 6.65 g/m*3 27.6 C 0 km/h
198 28-08-2005 15:33:04 27.7 C 5.88 g/m*3 27.7 C 0 km/h
199 28-08-2005 15:45:02 28.3 C 6.08 g/m*3 28.3 C 0 km/h
200 28-08-2005 15:57:02 28.8 C 6.82 g/m*3 28.8 C 0 km/h
Sensor: Nr:Datum:Temp:Abs-Feuchte:Windchill:Wind:
Aussen-T/F 201 28-08-2005 16:09:03 27.9 C 5.95 g/m*3 27.9 C 0 km/h
202 28-08-2005 16:21:02 28.6 C 6.18 g/m*3 28.6 C 0 km/h
203 28-08-2005 16:33:02 29.5 C 6.49 g/m*3 29.5 C 0 km/h
204 28-08-2005 16:45:02 29.4 C 6.46 g/m*3 29.4 C 0 km/h
205 28-08-2005 16:57:02 29.8 C 7.2 g/m*3 29.8 C 0 km/h
206 28-08-2005 17:09:02 29.9 C 6.64 g/m*3 29.9 C 0 km/h
207 28-08-2005 17:21:01 29.7 C 7.46 g/m*3 29.7 C 0 km/h
208 28-08-2005 17:33:02 29.6 C 6.23 g/m*3 29.6 C 0 km/h
209 28-08-2005 17:45:02 28.9 C 7.71 g/m*3 28.9 C 0 km/h
210 28-08-2005 17:57:02 29 C 7.47 g/m*3 29 C 0 km/h
211 28-08-2005 18:09:02 29.1 C 7.22 g/m*3 29.1 C 0 km/h
212 28-08-2005 18:21:03 28.6 C 8.15 g/m*3 28.6 C 0 km/h
213 28-08-2005 18:33:02 27.9 C 7.3 g/m*3 27.9 C 0 km/h
214 28-08-2005 18:45:02 27.3 C 7.85 g/m*3 27.3 C 0 km/h
215 28-08-2005 18:57:02 27.1 C 8.54 g/m*3 27.1 C 0 km/h
216 28-08-2005 19:09:01 26.4 C 8.96 g/m*3 26.4 C 0 km/h
217 28-08-2005 19:21:02 25.4 C 8.48 g/m*3 25.4 C 0 km/h
218 28-08-2005 19:33:02 24.6 C 8.33 g/m*3 24.6 C 0 km/h
219 28-08-2005 19:45:02 23.8 C 8.6 g/m*3 23.8 C 0 km/h
220 28-08-2005 19:57:02 22.9 C 8.79 g/m*3 22.9 C 0 km/h
221 28-08-2005 20:09:02 22 C 8.54 g/m*3 22 C 0 km/h
222 28-08-2005 20:21:02 21 C 8.43 g/m*3 21 C 0 km/h
223 28-08-2005 20:33:02 20.4 C 8.67 g/m*3 20.4 C 0 km/h
224 28-08-2005 20:45:02 20.1 C 8.69 g/m*3 20.1 C 0 km/h
225 28-08-2005 20:57:02 19.8 C 8.71 g/m*3 19.8 C 0 km/h
Sensor: Nr:Datum:Temp:Abs-Feuchte:Windchill:Wind:
Aussen-T/F 226 28-08-2005 21:09:02 19.4 C 8.84 g/m*3 19.4 C 0 km/h
227 28-08-2005 21:21:03 19.3 C 8.96 g/m*3 19.3 C 0 km/h
228 28-08-2005 21:33:03 18.9 C 9.07 g/m*3 18.9 C 0 km/h
229 28-08-2005 21:45:02 18.7 C 9.13 g/m*3 18.7 C 0 km/h
230 28-08-2005 21:57:02 18.7 C 9.13 g/m*3 18.7 C 0 km/h
231 28-08-2005 22:09:02 18.4 C 9.12 g/m*3 18.4 C 0 km/h
232 28-08-2005 22:21:02 18 C 9.06 g/m*3 18 C 0 km/h
233 28-08-2005 22:33:02 17.8 C 9.26 g/m*3 17.8 C 0 km/h
234 28-08-2005 22:45:01 17.4 C 9.19 g/m*3 17.4 C 0 km/h
235 28-08-2005 22:57:01 17.2 C 9.08 g/m*3 17.2 C 0 km/h
236 28-08-2005 23:09:01 16.9 C 9.21 g/m*3 16.9 C 0 km/h
237 28-08-2005 23:21:02 16.8 C 9.29 g/m*3 16.8 C 0 km/h
238 28-08-2005 23:33:01 16.5 C 9.13 g/m*3 16.5 C 0 km/h
239 28-08-2005 23:45:02 16.3 C 9.16 g/m*3 16.3 C 0 km/h
240 28-08-2005 23:57:03 16.1 C 9.05 g/m*3 16.1 C 0 km/h
241 29-08-2005 00:09:01 15.8 C 9.42 g/m*3 15.8 C 0 km/h
242 29-08-2005 00:21:02 15.6 C 9.44 g/m*3 15.6 C 0 km/h
243 29-08-2005 00:33:02 15.4 C 9.33 g/m*3 15.4 C 0 km/h
244 29-08-2005 00:45:02 15.1 C 9.29 g/m*3 15.1 C 0 km/h
245 29-08-2005 00:57:02 15 C 9.36 g/m*3 15 C 0 km/h
246 29-08-2005 01:10:02 14.9 C 9.43 g/m*3 14.9 C 0 km/h
247 29-08-2005 01:22:02 14.6 C 9.51 g/m*3 14.6 C 0 km/h
248 29-08-2005 01:34:02 14.5 C 9.58 g/m*3 14.5 C 0 km/h
249 29-08-2005 01:46:02 14.3 C 9.34 g/m*3 14.3 C 0 km/h
250 29-08-2005 01:58:02 14.2 C 9.4 g/m*3 14.2 C 0 km/h
Sensor: Nr:Datum:Temp:Abs-Feuchte:Windchill:Wind:
Aussen-T/F 251 29-08-2005 02:10:02 14 C 9.41 g/m*3 14 C 0 km/h
252 29-08-2005 02:22:02 13.9 C 9.47 g/m*3 13.9 C 0 km/h
253 29-08-2005 02:34:02 13.8 C 9.41 g/m*3 13.8 C 0 km/h
254 29-08-2005 02:46:02 13.6 C 9.3 g/m*3 13.6 C 0 km/h
255 29-08-2005 02:58:02 13.5 C 9.36 g/m*3 13.5 C 0 km/h
256 29-08-2005 03:10:02 13.3 C 9.24 g/m*3 13.3 C 0 km/h
257 29-08-2005 03:22:02 13.1 C 9.13 g/m*3 13.1 C 0 km/h
258 29-08-2005 03:34:02 13 C 9.19 g/m*3 13 C 0 km/h
259 29-08-2005 03:46:02 12.9 C 9.13 g/m*3 12.9 C 0 km/h
260 29-08-2005 03:58:02 12.9 C 9.24 g/m*3 12.9 C 0 km/h
261 29-08-2005 04:10:02 12.6 C 9.07 g/m*3 12.6 C 0 km/h
262 29-08-2005 04:22:02 12.4 C 9.07 g/m*3 12.4 C 0 km/h
263 29-08-2005 04:34:02 12.3 C 9.01 g/m*3 12.3 C 0 km/h
264 29-08-2005 04:46:02 12.2 C 8.96 g/m*3 12.2 C 0 km/h
265 29-08-2005 04:58:02 12.1 C 9.01 g/m*3 12.1 C 0 km/h
266 29-08-2005 05:10:02 11.9 C 8.9 g/m*3 11.9 C 0 km/h
267 29-08-2005 05:22:03 11.8 C 8.84 g/m*3 11.8 C 0 km/h
268 29-08-2005 05:34:03 11.7 C 8.79 g/m*3 11.7 C 0 km/h
269 29-08-2005 05:46:03 11.7 C 8.89 g/m*3 11.7 C 0 km/h
270 29-08-2005 05:58:03 11.5 C 8.78 g/m*3 11.5 C 0 km/h
271 29-08-2005 06:10:03 11.4 C 8.72 g/m*3 11.4 C 0 km/h
272 29-08-2005 06:22:03 11.3 C 8.77 g/m*3 11.3 C 0 km/h
273 29-08-2005 06:34:03 11.1 C 8.66 g/m*3 11.1 C 0 km/h
274 29-08-2005 06:46:03 11.1 C 8.66 g/m*3 11.1 C 0 km/h
275 29-08-2005 06:58:03 11.1 C 8.66 g/m*3 11.1 C 0 km/h
Sensor: Nr:Datum:Temp:Abs-Feuchte:Windchill:Wind:
Aussen-T/F 276 29-08-2005 07:10:03 11 C 8.61 g/m*3 11 C 0 km/h
277 29-08-2005 07:22:03 11 C 8.61 g/m*3 11 C 0 km/h
278 29-08-2005 07:34:03 11.1 C 8.76 g/m*3 11.1 C 0 km/h
279 29-08-2005 07:46:03 11.1 C 8.66 g/m*3 11.1 C 0 km/h
280 29-08-2005 07:58:03 11.1 C 8.66 g/m*3 11.1 C 0 km/h
281 29-08-2005 08:10:03 11.2 C 8.72 g/m*3 11.2 C 0 km/h
282 29-08-2005 08:22:03 11.4 C 8.93 g/m*3 11.4 C 0 km/h
283 29-08-2005 08:34:03 11.5 C 8.99 g/m*3 11.5 C 0 km/h
284 29-08-2005 08:46:03 11.7 C 9.1 g/m*3 11.7 C 0 km/h
285 29-08-2005 08:58:03 11.8 C 9.16 g/m*3 11.8 C 0 km/h
286 29-08-2005 09:10:03 12.1 C 9.33 g/m*3 12.1 C 0 km/h
287 29-08-2005 09:22:03 12.3 C 9.34 g/m*3 12.3 C 0 km/h
288 29-08-2005 09:34:04 12.5 C 9.46 g/m*3 12.5 C 0 km/h
289 29-08-2005 09:46:02 13.2 C 9.64 g/m*3 13.2 C 0 km/h
290 29-08-2005 09:58:03 13.7 C 9.83 g/m*3 13.7 C 0 km/h
291 29-08-2005 10:10:03 14.2 C 10.01 g/m*3 14.2 C 0 km/h
292 29-08-2005 10:22:03 15.3 C 10.19 g/m*3 15.3 C 0 km/h
293 29-08-2005 10:34:02 15.8 C 10.36 g/m*3 15.8 C 0 km/h
294 29-08-2005 10:46:01 16.6 C 10.45 g/m*3 16.6 C 0 km/h
295 29-08-2005 10:58:02 17.5 C 10.59 g/m*3 17.5 C 0 km/h
296 29-08-2005 11:10:01 18.1 C 10.66 g/m*3 18.1 C 0 km/h
297 29-08-2005 11:22:01 18.9 C 10.69 g/m*3 18.9 C 0 km/h
298 29-08-2005 11:34:01 19.4 C 10.68 g/m*3 19.4 C 0 km/h
299 29-08-2005 11:46:02 20.2 C 10.84 g/m*3 20.2 C 0 km/h
300 29-08-2005 11:58:02 20.8 C 10.86 g/m*3 20.8 C 0 km/h
Sensor: Nr:Datum:Temp:Abs-Feuchte:Windchill:Wind:
Aussen-T/F 301 29-08-2005 12:10:02 21.1 C 10.69 g/m*3 21.1 C 0 km/h
302 29-08-2005 12:22:02 21.1 C 10.69 g/m*3 21.1 C 0 km/h
303 29-08-2005 12:34:02 21.1 C 10.69 g/m*3 21.1 C 0 km/h
304 29-08-2005 12:46:02 21.1 C 10.69 g/m*3 21.1 C 0 km/h
305 29-08-2005 12:58:02 21.1 C 10.69 g/m*3 21.1 C 0 km/h
306 29-08-2005 13:10:01 23.8 C 8.39 g/m*3 23.8 C 0 km/h
307 29-08-2005 13:22:01 24.2 C 9.02 g/m*3 24.2 C 0 km/h
308 29-08-2005 13:34:02 24.8 C 10.24 g/m*3 24.8 C 0 km/h
309 29-08-2005 13:46:02 25.2 C 9.08 g/m*3 25.2 C 0 km/h
310 29-08-2005 13:58:02 25.8 C 8.43 g/m*3 25.8 C 0 km/h
311 29-08-2005 14:10:02 26.1 C 8.08 g/m*3 26.1 C 0 km/h
312 29-08-2005 14:22:01 26.1 C 8.08 g/m*3 26.1 C 0 km/h
313 29-08-2005 14:34:01 27 C 8.24 g/m*3 27 C 0 km/h
314 29-08-2005 14:46:01 27 C 8.24 g/m*3 27 C 0 km/h
315 29-08-2005 14:58:01 27 C 8.24 g/m*3 27 C 0 km/h
316 29-08-2005 15:10:01 28.8 C 8.81 g/m*3 28.8 C 0 km/h
317 29-08-2005 15:22:01 29.5 C 7.97 g/m*3 29.5 C 0 km/h
318 29-08-2005 15:34:02 30.3 C 9.25 g/m*3 30.3 C 0 km/h
319 29-08-2005 15:46:02 30.8 C 7.92 g/m*3 30.8 C 0 km/h
320 29-08-2005 15:58:02 31.2 C 8.41 g/m*3 31.2 C 0 km/h
321 29-08-2005 16:10:02 31 C 8 g/m*3 31 C 0 km/h
322 29-08-2005 16:22:30 31.5 C 7.56 g/m*3 31.5 C 0 km/h
323 29-08-2005 16:34:02 31.8 C 8.02 g/m*3 31.8 C 0 km/h
324 29-08-2005 16:46:02 31.8 C 6.68 g/m*3 31.8 C 0 km/h
325 29-08-2005 16:58:02 32 C 7.09 g/m*3 32 C 0 km/h
Sensor: Nr:Datum:Temp:Abs-Feuchte:Windchill:Wind:
Aussen-T/F 326 29-08-2005 17:10:02 32 C 8.44 g/m*3 32 C 0 km/h
327 29-08-2005 17:22:02 32 C 8.1 g/m*3 32 C 0 km/h
328 29-08-2005 17:34:02 32.1 C 8.15 g/m*3 32.1 C 0 km/h
329 29-08-2005 17:46:02 32.1 C 7.81 g/m*3 32.1 C 0 km/h
330 29-08-2005 17:58:03 31.9 C 6.72 g/m*3 31.9 C 0 km/h
331 29-08-2005 18:10:02 31.5 C 8.22 g/m*3 31.5 C 0 km/h
332 29-08-2005 18:22:02 31.5 C 8.55 g/m*3 31.5 C 0 km/h
333 29-08-2005 18:34:02 31.6 C 8.26 g/m*3 31.6 C 0 km/h
334 29-08-2005 18:46:02 31.4 C 8.17 g/m*3 31.4 C 0 km/h
335 29-08-2005 18:58:02 30.7 C 8.82 g/m*3 30.7 C 0 km/h
336 29-08-2005 19:10:02 29.8 C 9.3 g/m*3 29.8 C 0 km/h
337 29-08-2005 19:22:02 29.4 C 9.39 g/m*3 29.4 C 0 km/h
338 29-08-2005 19:34:02 28.3 C 9.12 g/m*3 28.3 C 0 km/h
339 29-08-2005 19:46:02 27.7 C 8.83 g/m*3 27.7 C 0 km/h
340 29-08-2005 19:58:02 26.1 C 8.57 g/m*3 26.1 C 0 km/h
341 29-08-2005 20:10:01 24.5 C 8.73 g/m*3 24.5 C 0 km/h
342 29-08-2005 20:22:01 23.6 C 8.51 g/m*3 23.6 C 0 km/h
343 29-08-2005 20:34:02 23.1 C 8.48 g/m*3 23.1 C 0 km/h
344 29-08-2005 20:46:02 22.9 C 8.58 g/m*3 22.9 C 0 km/h
345 29-08-2005 20:58:02 22.5 C 8.99 g/m*3 22.5 C 0 km/h
346 29-08-2005 21:10:02 22 C 8.73 g/m*3 22 C 0 km/h
347 29-08-2005 21:22:03 21.9 C 9.07 g/m*3 21.9 C 0 km/h
348 29-08-2005 21:34:04 21.6 C 9.29 g/m*3 21.6 C 0 km/h
349 29-08-2005 21:46:02 21.3 C 9.32 g/m*3 21.3 C 0 km/h
350 29-08-2005 21:58:02 20.9 C 9.47 g/m*3 20.9 C 0 km/h
Sensor: Nr:Datum:Temp:Abs-Feuchte:Windchill:Wind:
Aussen-T/F 351 29-08-2005 22:10:02 20.6 C 9.31 g/m*3 20.6 C 0 km/h
352 29-08-2005 22:22:02 20.5 C 9.43 g/m*3 20.5 C 0 km/h
353 29-08-2005 22:34:02 20.1 C 9.56 g/m*3 20.1 C 0 km/h
354 29-08-2005 22:46:02 19.7 C 9.51 g/m*3 19.7 C 0 km/h
355 29-08-2005 22:58:02 19.4 C 9.68 g/m*3 19.4 C 0 km/h
356 29-08-2005 23:10:01 19.1 C 9.51 g/m*3 19.1 C 0 km/h
357 29-08-2005 23:22:02 18.9 C 9.72 g/m*3 18.9 C 0 km/h
358 29-08-2005 23:34:02 18.7 C 9.77 g/m*3 18.7 C 0 km/h
359 29-08-2005 23:46:02 18.3 C 9.85 g/m*3 18.3 C 0 km/h
360 29-08-2005 23:58:02 18.1 C 9.89 g/m*3 18.1 C 0 km/h
361 30-08-2005 00:10:02 17.8 C 10.17 g/m*3 17.8 C 0 km/h
362 30-08-2005 00:22:03 17.5 C 10.14 g/m*3 17.5 C 0 km/h
363 30-08-2005 00:34:02 17.5 C 10.14 g/m*3 17.5 C 0 km/h
364 30-08-2005 00:46:02 17.2 C 10.1 g/m*3 17.2 C 0 km/h
365 30-08-2005 00:58:02 17.2 C 10.1 g/m*3 17.2 C 0 km/h
366 30-08-2005 01:10:02 17 C 10.13 g/m*3 17 C 0 km/h
367 30-08-2005 01:22:02 16.8 C 10.15 g/m*3 16.8 C 0 km/h
368 30-08-2005 01:34:02 16.6 C 10.31 g/m*3 16.6 C 0 km/h
369 30-08-2005 01:46:02 16.3 C 10.13 g/m*3 16.3 C 0 km/h
370 30-08-2005 01:58:02 16.1 C 10.14 g/m*3 16.1 C 0 km/h
371 30-08-2005 02:10:02 16 C 10.08 g/m*3 16 C 0 km/h
372 30-08-2005 02:22:02 16 C 10.22 g/m*3 16 C 0 km/h
373 30-08-2005 02:34:02 15.8 C 10.23 g/m*3 15.8 C 0 km/h
374 30-08-2005 02:47:04 15.5 C 10.18 g/m*3 15.5 C 0 km/h
375 30-08-2005 02:59:04 15.4 C 10.25 g/m*3 15.4 C 0 km/h
Sensor: Nr:Datum:Temp:Abs-Feuchte:Windchill:Wind:
Aussen-T/F 376 30-08-2005 03:11:04 15.2 C 10.12 g/m*3 15.2 C 0 km/h
377 30-08-2005 03:23:04 15 C 10 g/m*3 15 C 0 km/h
378 30-08-2005 03:35:01 14.8 C 10.01 g/m*3 14.8 C 0 km/h
379 30-08-2005 03:47:01 14.7 C 9.95 g/m*3 14.7 C 0 km/h
380 30-08-2005 03:59:01 14.6 C 10.01 g/m*3 14.6 C 0 km/h
381 30-08-2005 04:11:02 14.5 C 10.07 g/m*3 14.5 C 0 km/h
382 30-08-2005 04:23:02 14.4 C 10.01 g/m*3 14.4 C 0 km/h
383 30-08-2005 04:35:02 14.3 C 10.07 g/m*3 14.3 C 0 km/h
384 30-08-2005 04:47:02 14.1 C 9.95 g/m*3 14.1 C 0 km/h
385 30-08-2005 04:59:02 14 C 9.89 g/m*3 14 C 0 km/h
386 30-08-2005 05:11:02 13.9 C 9.95 g/m*3 13.9 C 0 km/h
387 30-08-2005 05:23:03 13.8 C 9.89 g/m*3 13.8 C 0 km/h
388 30-08-2005 05:35:02 13.7 C 9.83 g/m*3 13.7 C 0 km/h
389 30-08-2005 05:47:02 13.6 C 9.89 g/m*3 13.6 C 0 km/h
390 30-08-2005 05:59:02 13.5 C 9.83 g/m*3 13.5 C 0 km/h
391 30-08-2005 06:11:02 13.4 C 9.76 g/m*3 13.4 C 0 km/h
392 30-08-2005 06:23:02 13.3 C 9.7 g/m*3 13.3 C 0 km/h
393 30-08-2005 06:35:02 13.2 C 9.53 g/m*3 13.2 C 0 km/h
394 30-08-2005 06:47:01 13.1 C 9.47 g/m*3 13.1 C 0 km/h
395 30-08-2005 06:59:01 13 C 9.53 g/m*3 13 C 0 km/h
396 30-08-2005 07:11:02 13 C 9.53 g/m*3 13 C 0 km/h
397 30-08-2005 07:23:02 13 C 9.53 g/m*3 13 C 0 km/h
398 30-08-2005 07:35:02 13 C 9.53 g/m*3 13 C 0 km/h
399 30-08-2005 07:47:02 13 C 9.53 g/m*3 13 C 0 km/h
400 30-08-2005 07:59:02 13 C 9.53 g/m*3 13 C 0 km/h
Sensor: Nr:Datum:Temp:Abs-Feuchte:Windchill:Wind:
Aussen-T/F 401 30-08-2005 08:11:01 13.2 C 9.64 g/m*3 13.2 C 0 km/h
402 30-08-2005 08:23:02 13.3 C 9.82 g/m*3 13.3 C 0 km/h
403 30-08-2005 08:35:02 13.4 C 9.88 g/m*3 13.4 C 0 km/h
404 30-08-2005 08:47:02 13.7 C 10.18 g/m*3 13.7 C 0 km/h
405 30-08-2005 08:59:03 14 C 10.37 g/m*3 14 C 0 km/h
406 30-08-2005 09:11:02 14.2 C 10.5 g/m*3 14.2 C 0 km/h
407 30-08-2005 09:23:02 14.6 C 10.76 g/m*3 14.6 C 0 km/h
408 30-08-2005 09:35:02 15.6 C 11.17 g/m*3 15.6 C 0 km/h
409 30-08-2005 09:47:02 16 C 11.17 g/m*3 16 C 0 km/h
410 30-08-2005 09:59:03 16.6 C 11.3 g/m*3 16.6 C 0 km/h
411 30-08-2005 10:11:01 17.2 C 11.28 g/m*3 17.2 C 0 km/h
412 30-08-2005 10:23:01 17.8 C 11.23 g/m*3 17.8 C 0 km/h
413 30-08-2005 10:35:02 18.5 C 11.23 g/m*3 18.5 C 0 km/h
414 30-08-2005 10:47:02 19 C 11.24 g/m*3 19 C 0 km/h
415 30-08-2005 10:59:02 19.5 C 11.41 g/m*3 19.5 C 0 km/h
416 30-08-2005 11:11:02 20.1 C 11.47 g/m*3 20.1 C 0 km/h
417 30-08-2005 11:23:02 20.7 C 11.52 g/m*3 20.7 C 0 km/h
418 30-08-2005 11:35:03 21.4 C 11.81 g/m*3 21.4 C 0 km/h
419 30-08-2005 11:47:02 21.7 C 11.83 g/m*3 21.7 C 0 km/h
420 30-08-2005 11:59:03 22.7 C 12.12 g/m*3 22.7 C 0 km/h
421 30-08-2005 12:11:02 23 C 12.33 g/m*3 23 C 0 km/h
422 30-08-2005 12:23:02 23.1 C 11.99 g/m*3 23.1 C 0 km/h
423 30-08-2005 12:35:02 24.2 C 11.88 g/m*3 24.2 C 0 km/h
424 30-08-2005 12:47:02 24.2 C 11.66 g/m*3 24.2 C 0 km/h
425 30-08-2005 12:59:03 24.7 C 12 g/m*3 24.7 C 0 km/h
Sensor: Nr:Datum:Temp:Abs-Feuchte:Windchill:Wind:
Aussen-T/F 426 30-08-2005 13:11:01 25.1 C 10.65 g/m*3 25.1 C 0 km/h
427 30-08-2005 13:23:02 26.1 C 10.53 g/m*3 26.1 C 0 km/h
428 30-08-2005 13:35:02 26.8 C 9.67 g/m*3 26.8 C 0 km/h
429 30-08-2005 13:47:02 27.7 C 9.36 g/m*3 27.7 C 0 km/h
430 30-08-2005 13:59:02 28.4 C 9.73 g/m*3 28.4 C 0 km/h
431 30-08-2005 14:11:02 28.9 C 8.86 g/m*3 28.9 C 0 km/h
432 30-08-2005 14:23:02 29.6 C 8.9 g/m*3 29.6 C 0 km/h
433 30-08-2005 14:35:02 30.1 C 9.45 g/m*3 30.1 C 0 km/h
434 30-08-2005 14:47:02 30.6 C 8.46 g/m*3 30.6 C 0 km/h
435 30-08-2005 14:59:03 30.8 C 8.23 g/m*3 30.8 C 0 km/h
436 30-08-2005 15:11:02 31 C 8.32 g/m*3 31 C 0 km/h
437 30-08-2005 15:23:02 31.6 C 7.93 g/m*3 31.6 C 0 km/h
438 30-08-2005 15:35:02 31.8 C 8.02 g/m*3 31.8 C 0 km/h
439 30-08-2005 15:47:02 32 C 7.43 g/m*3 32 C 0 km/h
440 30-08-2005 15:59:02 32.3 C 7.55 g/m*3 32.3 C 0 km/h
441 30-08-2005 16:11:02 32.3 C 7.55 g/m*3 32.3 C 0 km/h
442 30-08-2005 16:23:02 32.6 C 6.97 g/m*3 32.6 C 0 km/h
443 30-08-2005 16:35:02 32.6 C 7.32 g/m*3 32.6 C 0 km/h
444 30-08-2005 16:47:02 32.7 C 7.36 g/m*3 32.7 C 0 km/h
445 30-08-2005 16:59:02 33 C 7.48 g/m*3 33 C 0 km/h
446 30-08-2005 17:11:01 32.9 C 8.14 g/m*3 32.9 C 0 km/h
447 30-08-2005 17:23:02 33 C 7.48 g/m*3 33 C 0 km/h
448 30-08-2005 17:35:02 32.9 C 7.44 g/m*3 32.9 C 0 km/h
449 30-08-2005 17:47:02 32.8 C 7.75 g/m*3 32.8 C 0 km/h
450 30-08-2005 17:59:02 32.9 C 7.44 g/m*3 32.9 C 0 km/h
Sensor: Nr:Datum:Temp:Abs-Feuchte:Windchill:Wind:
Aussen-T/F 451 30-08-2005 18:11:02 32.7 C 7.36 g/m*3 32.7 C 0 km/h
452 30-08-2005 18:23:02 32.4 C 7.24 g/m*3 32.4 C 0 km/h
453 30-08-2005 18:35:02 32.3 C 7.2 g/m*3 32.3 C 0 km/h
454 30-08-2005 18:47:01 32 C 8.44 g/m*3 32 C 0 km/h
455 30-08-2005 18:59:01 31.8 C 8.68 g/m*3 31.8 C 0 km/h
456 30-08-2005 19:11:01 31.4 C 9.15 g/m*3 31.4 C 0 km/h
457 30-08-2005 19:23:02 31 C 8.96 g/m*3 31 C 0 km/h
458 30-08-2005 19:35:02 30.3 C 9.55 g/m*3 30.3 C 0 km/h
459 30-08-2005 19:47:03 29.7 C 9.55 g/m*3 29.7 C 0 km/h
460 30-08-2005 19:59:03 28.4 C 9.45 g/m*3 28.4 C 0 km/h
461 30-08-2005 20:11:03 27.4 C 9.47 g/m*3 27.4 C 0 km/h
462 30-08-2005 20:23:02 26.5 C 9.51 g/m*3 26.5 C 0 km/h
463 30-08-2005 20:35:03 25.9 C 9.44 g/m*3 25.9 C 0 km/h
464 30-08-2005 20:47:02 25.2 C 9.78 g/m*3 25.2 C 0 km/h
465 30-08-2005 20:59:02 24.5 C 10.07 g/m*3 24.5 C 0 km/h
466 30-08-2005 21:11:02 24.1 C 10.06 g/m*3 24.1 C 0 km/h
467 30-08-2005 21:23:03 23.8 C 10.54 g/m*3 23.8 C 0 km/h
468 30-08-2005 21:35:02 23.3 C 10.45 g/m*3 23.3 C 0 km/h
469 30-08-2005 21:47:02 23.2 C 10.6 g/m*3 23.2 C 0 km/h
470 30-08-2005 21:59:02 22.7 C 10.51 g/m*3 22.7 C 0 km/h
471 30-08-2005 22:11:02 22.5 C 10.39 g/m*3 22.5 C 0 km/h
472 30-08-2005 22:23:02 22.4 C 10.53 g/m*3 22.4 C 0 km/h
473 30-08-2005 22:35:02 21.8 C 10.36 g/m*3 21.8 C 0 km/h
474 30-08-2005 22:47:02 21.8 C 10.55 g/m*3 21.8 C 0 km/h
475 30-08-2005 22:59:02 21.5 C 10.56 g/m*3 21.5 C 0 km/h
Sensor: Nr:Datum:Temp:Abs-Feuchte:Windchill:Wind:
Aussen-T/F 476 30-08-2005 23:11:02 21.2 C 10.56 g/m*3 21.2 C 0 km/h
477 30-08-2005 23:23:03 20.9 C 10.75 g/m*3 20.9 C 0 km/h
478 30-08-2005 23:35:02 20.7 C 10.62 g/m*3 20.7 C 0 km/h
479 30-08-2005 23:47:02 20.5 C 10.68 g/m*3 20.5 C 0 km/h
480 30-08-2005 23:59:02 20.2 C 10.67 g/m*3 20.2 C 0 km/h
481 31-08-2005 00:11:02 20 C 10.71 g/m*3 20 C 0 km/h
482 31-08-2005 00:23:03 19.6 C 10.8 g/m*3 19.6 C 0 km/h
483 31-08-2005 00:35:02 19.5 C 10.91 g/m*3 19.5 C 0 km/h
484 31-08-2005 00:47:03 19.4 C 10.84 g/m*3 19.4 C 0 km/h
485 31-08-2005 00:59:03 19.4 C 10.84 g/m*3 19.4 C 0 km/h
486 31-08-2005 01:11:03 19.1 C 10.82 g/m*3 19.1 C 0 km/h
487 31-08-2005 01:23:02 18.9 C 11.02 g/m*3 18.9 C 0 km/h
488 31-08-2005 01:35:02 18.8 C 10.95 g/m*3 18.8 C 0 km/h
489 31-08-2005 01:47:02 18.6 C 10.98 g/m*3 18.6 C 0 km/h
490 31-08-2005 01:59:02 18.4 C 11.01 g/m*3 18.4 C 0 km/h
491 31-08-2005 02:11:02 18.2 C 10.88 g/m*3 18.2 C 0 km/h
492 31-08-2005 02:23:02 18.1 C 10.82 g/m*3 18.1 C 0 km/h
493 31-08-2005 02:35:01 18 C 10.91 g/m*3 18 C 0 km/h
494 31-08-2005 02:48:04 17.8 C 11.08 g/m*3 17.8 C 0 km/h
495 31-08-2005 03:00:04 17.7 C 11.01 g/m*3 17.7 C 0 km/h
496 31-08-2005 03:12:04 17.5 C 11.03 g/m*3 17.5 C 0 km/h
497 31-08-2005 03:24:04 17.3 C 10.9 g/m*3 17.3 C 0 km/h
498 31-08-2005 03:36:02 17.1 C 11.06 g/m*3 17.1 C 0 km/h
499 31-08-2005 03:48:02 16.8 C 11.15 g/m*3 16.8 C 0 km/h
500 31-08-2005 04:00:02 16.6 C 10.88 g/m*3 16.6 C 0 km/h
Sensor: Nr:Datum:Temp:Abs-Feuchte:Windchill:Wind:
Aussen-T/F 501 31-08-2005 04:12:02 16.6 C 10.88 g/m*3 16.6 C 0 km/h
502 31-08-2005 04:24:02 16.4 C 10.75 g/m*3 16.4 C 0 km/h
503 31-08-2005 04:36:02 16.2 C 10.76 g/m*3 16.2 C 0 km/h
504 31-08-2005 04:48:03 16.1 C 10.69 g/m*3 16.1 C 0 km/h
505 31-08-2005 05:00:03 15.9 C 10.7 g/m*3 15.9 C 0 km/h
506 31-08-2005 05:12:03 15.8 C 10.77 g/m*3 15.8 C 0 km/h
507 31-08-2005 05:24:02 15.7 C 10.7 g/m*3 15.7 C 0 km/h
508 31-08-2005 05:36:02 15.5 C 10.57 g/m*3 15.5 C 0 km/h
509 31-08-2005 05:48:02 15.4 C 10.64 g/m*3 15.4 C 0 km/h
510 31-08-2005 06:00:02 15.3 C 10.58 g/m*3 15.3 C 0 km/h
511 31-08-2005 06:12:02 15.2 C 10.51 g/m*3 15.2 C 0 km/h
512 31-08-2005 06:24:02 15.2 C 10.51 g/m*3 15.2 C 0 km/h
513 31-08-2005 06:36:02 15 C 10.39 g/m*3 15 C 0 km/h
514 31-08-2005 06:48:02 14.9 C 10.45 g/m*3 14.9 C 0 km/h
515 31-08-2005 07:00:03 14.9 C 10.58 g/m*3 14.9 C 0 km/h
516 31-08-2005 07:12:01 14.8 C 10.39 g/m*3 14.8 C 0 km/h
517 31-08-2005 07:24:01 14.8 C 10.51 g/m*3 14.8 C 0 km/h
518 31-08-2005 07:36:02 14.9 C 10.58 g/m*3 14.9 C 0 km/h
519 31-08-2005 07:48:02 14.9 C 10.58 g/m*3 14.9 C 0 km/h
520 31-08-2005 08:00:02 15 C 10.64 g/m*3 15 C 0 km/h
521 31-08-2005 08:12:02 15 C 10.64 g/m*3 15 C 0 km/h
522 31-08-2005 08:24:02 15.2 C 10.77 g/m*3 15.2 C 0 km/h
523 31-08-2005 08:36:02 15.5 C 10.97 g/m*3 15.5 C 0 km/h
524 31-08-2005 08:48:02 15.7 C 11.11 g/m*3 15.7 C 0 km/h
525 31-08-2005 09:00:02 16 C 11.17 g/m*3 16 C 0 km/h
Sensor: Nr:Datum:Temp:Abs-Feuchte:Windchill:Wind:
Aussen-T/F 526 31-08-2005 09:12:02 16.3 C 11.38 g/m*3 16.3 C 0 km/h
527 31-08-2005 09:24:01 16.6 C 11.58 g/m*3 16.6 C 0 km/h
528 31-08-2005 09:36:02 17.1 C 11.65 g/m*3 17.1 C 0 km/h
529 31-08-2005 09:48:02 17.7 C 11.92 g/m*3 17.7 C 0 km/h
530 31-08-2005 10:00:02 18.4 C 12.11 g/m*3 18.4 C 0 km/h
531 31-08-2005 10:12:03 19 C 12.06 g/m*3 19 C 0 km/h
532 31-08-2005 10:24:02 19.6 C 12.49 g/m*3 19.6 C 0 km/h
533 31-08-2005 10:36:02 20.3 C 12.49 g/m*3 20.3 C 0 km/h
534 31-08-2005 10:48:01 21 C 12.82 g/m*3 21 C 0 km/h
535 31-08-2005 11:00:01 21.9 C 12.93 g/m*3 21.9 C 0 km/h
536 31-08-2005 11:12:01 22.8 C 12.8 g/m*3 22.8 C 0 km/h
537 31-08-2005 11:24:02 23.3 C 12.55 g/m*3 23.3 C 0 km/h
538 31-08-2005 11:36:02 24.3 C 12.83 g/m*3 24.3 C 0 km/h
539 31-08-2005 11:48:02 24.3 C 12.83 g/m*3 24.3 C 0 km/h
540 31-08-2005 12:00:03 24.7 C 13.13 g/m*3 24.7 C 0 km/h
541 31-08-2005 12:12:02 24.7 C 13.13 g/m*3 24.7 C 0 km/h
542 31-08-2005 12:24:01 24.7 C 13.13 g/m*3 24.7 C 0 km/h
543 31-08-2005 12:36:02 26.4 C 11.7 g/m*3 26.4 C 0 km/h
544 31-08-2005 12:48:02 26.7 C 12.66 g/m*3 26.7 C 0 km/h
545 31-08-2005 13:00:02 27 C 11.84 g/m*3 27 C 0 km/h
546 31-08-2005 13:12:01 27.7 C 10.97 g/m*3 27.7 C 0 km/h
547 31-08-2005 13:24:02 28.2 C 9.62 g/m*3 28.2 C 0 km/h
548 31-08-2005 13:36:02 28.8 C 9.66 g/m*3 28.8 C 0 km/h
549 31-08-2005 13:48:02 29.4 C 9.1 g/m*3 29.4 C 0 km/h
550 31-08-2005 14:00:02 29.7 C 8.95 g/m*3 29.7 C 0 km/h
Sensor: Nr:Datum:Temp:Abs-Feuchte:Windchill:Wind:
Aussen-T/F 551 31-08-2005 14:12:02 30.1 C 8.84 g/m*3 30.1 C 0 km/h
552 31-08-2005 14:24:02 30.6 C 8.14 g/m*3 30.6 C 0 km/h
553 31-08-2005 14:36:02 31 C 8.32 g/m*3 31 C 0 km/h
554 31-08-2005 14:48:02 31.3 C 8.13 g/m*3 31.3 C 0 km/h
555 31-08-2005 15:00:02 31.3 C 8.13 g/m*3 31.3 C 0 km/h
556 31-08-2005 15:12:02 31.6 C 8.26 g/m*3 31.6 C 0 km/h
557 31-08-2005 15:24:02 31.7 C 7.97 g/m*3 31.7 C 0 km/h
558 31-08-2005 15:36:03 32.1 C 8.48 g/m*3 32.1 C 0 km/h
559 31-08-2005 15:48:02 31.9 C 8.39 g/m*3 31.9 C 0 km/h
560 31-08-2005 16:00:02 32.3 C 8.23 g/m*3 32.3 C 0 km/h
561 31-08-2005 16:12:02 32.3 C 7.55 g/m*3 32.3 C 0 km/h
562 31-08-2005 16:24:02 32.6 C 8.02 g/m*3 32.6 C 0 km/h
563 31-08-2005 16:36:02 32.7 C 7.71 g/m*3 32.7 C 0 km/h
564 31-08-2005 16:48:02 32.7 C 8.06 g/m*3 32.7 C 0 km/h
565 31-08-2005 17:00:02 33 C 7.83 g/m*3 33 C 0 km/h
566 31-08-2005 17:12:02 32.8 C 7.4 g/m*3 32.8 C 0 km/h
567 31-08-2005 17:24:03 32.8 C 7.4 g/m*3 32.8 C 0 km/h
568 31-08-2005 17:36:02 32.8 C 7.4 g/m*3 32.8 C 0 km/h
569 31-08-2005 17:48:02 32.8 C 7.4 g/m*3 32.8 C 0 km/h
570 31-08-2005 18:00:02 32.8 C 7.4 g/m*3 32.8 C 0 km/h
571 31-08-2005 18:12:01 32.8 C 7.4 g/m*3 32.8 C 0 km/h
572 31-08-2005 18:24:02 32.8 C 7.4 g/m*3 32.8 C 0 km/h
573 31-08-2005 18:36:02 32.8 C 9.16 g/m*3 32.8 C 0 km/h
574 31-08-2005 18:48:02 32.4 C 8.97 g/m*3 32.4 C 0 km/h
575 31-08-2005 19:00:02 31.8 C 9.35 g/m*3 31.8 C 0 km/h
Sensor: Nr:Datum:Temp:Abs-Feuchte:Windchill:Wind:
Aussen-T/F 576 31-08-2005 19:12:02 31.6 C 9.91 g/m*3 31.6 C 0 km/h
577 31-08-2005 19:24:02 31.3 C 10.08 g/m*3 31.3 C 0 km/h
578 31-08-2005 19:36:02 30.4 C 10.54 g/m*3 30.4 C 0 km/h
579 31-08-2005 19:48:01 29.7 C 10.74 g/m*3 29.7 C 0 km/h
580 31-08-2005 20:00:01 29.7 C 10.74 g/m*3 29.7 C 0 km/h
581 31-08-2005 20:12:01 29.7 C 10.74 g/m*3 29.7 C 0 km/h
582 31-08-2005 20:24:02 26.1 C 11.26 g/m*3 26.1 C 0 km/h
583 31-08-2005 20:36:02 25.6 C 10.95 g/m*3 25.6 C 0 km/h
584 31-08-2005 20:48:02 25.5 C 11.13 g/m*3 25.5 C 0 km/h
585 31-08-2005 21:00:02 25.2 C 10.94 g/m*3 25.2 C 0 km/h
586 31-08-2005 21:12:02 25.1 C 10.88 g/m*3 25.1 C 0 km/h
587 31-08-2005 21:24:03 24.7 C 11.09 g/m*3 24.7 C 0 km/h
588 31-08-2005 21:36:02 24.4 C 11.13 g/m*3 24.4 C 0 km/h
589 31-08-2005 21:48:02 24.1 C 10.94 g/m*3 24.1 C 0 km/h
590 31-08-2005 22:00:02 23.6 C 11.06 g/m*3 23.6 C 0 km/h
591 31-08-2005 22:12:02 23.5 C 11 g/m*3 23.5 C 0 km/h
592 31-08-2005 22:24:02 23.3 C 11.08 g/m*3 23.3 C 0 km/h
593 31-08-2005 22:37:03 23 C 11.3 g/m*3 23 C 0 km/h
594 31-08-2005 22:49:03 22.9 C 11.24 g/m*3 22.9 C 0 km/h
595 31-08-2005 23:01:03 22.6 C 11.25 g/m*3 22.6 C 0 km/h
596 31-08-2005 23:13:03 22.3 C 11.45 g/m*3 22.3 C 0 km/h
597 31-08-2005 23:25:03 22 C 11.65 g/m*3 22 C 0 km/h
598 31-08-2005 23:37:03 21.9 C 11.77 g/m*3 21.9 C 0 km/h
599 31-08-2005 23:49:03 21.7 C 11.45 g/m*3 21.7 C 0 km/h
600 01-09-2005 00:01:04 21.6 C 11.57 g/m*3 21.6 C 0 km/h
Sensor: Nr:Datum:Temp:Abs-Feuchte:Windchill:Wind:
Aussen-T/F 601 01-09-2005 00:13:04 21.5 C 11.69 g/m*3 21.5 C 0 km/h
602 01-09-2005 00:25:04 21.2 C 11.68 g/m*3 21.2 C 0 km/h
603 01-09-2005 00:37:04 21.2 C 11.68 g/m*3 21.2 C 0 km/h
604 01-09-2005 00:49:04 21.2 C 11.68 g/m*3 21.2 C 0 km/h
605 01-09-2005 01:01:04 21.2 C 11.68 g/m*3 21.2 C 0 km/h
606 01-09-2005 01:13:04 21.2 C 11.68 g/m*3 21.2 C 0 km/h
607 01-09-2005 01:25:04 19.9 C 12.03 g/m*3 19.9 C 0 km/h
608 01-09-2005 01:37:04 19.7 C 12.06 g/m*3 19.7 C 0 km/h
609 01-09-2005 01:49:04 19.4 C 11.85 g/m*3 19.4 C 0 km/h
610 01-09-2005 02:01:04 19.2 C 11.87 g/m*3 19.2 C 0 km/h
611 01-09-2005 02:13:04 19.2 C 11.87 g/m*3 19.2 C 0 km/h
612 01-09-2005 02:25:04 19.2 C 11.87 g/m*3 19.2 C 0 km/h
613 01-09-2005 02:37:04 18.5 C 11.87 g/m*3 18.5 C 0 km/h
614 01-09-2005 02:49:04 18.5 C 11.87 g/m*3 18.5 C 0 km/h
615 01-09-2005 03:01:04 18.5 C 11.87 g/m*3 18.5 C 0 km/h
616 01-09-2005 03:13:04 18.3 C 11.73 g/m*3 18.3 C 0 km/h
617 01-09-2005 03:25:04 18.2 C 11.66 g/m*3 18.2 C 0 km/h
618 01-09-2005 03:37:04 18.2 C 11.66 g/m*3 18.2 C 0 km/h
619 01-09-2005 03:49:04 17.9 C 11.76 g/m*3 17.9 C 0 km/h
620 01-09-2005 04:01:05 17.9 C 11.76 g/m*3 17.9 C 0 km/h
621 01-09-2005 04:13:05 17.9 C 11.76 g/m*3 17.9 C 0 km/h
622 01-09-2005 04:25:05 17.7 C 11.77 g/m*3 17.7 C 0 km/h
623 01-09-2005 04:37:05 17.6 C 11.7 g/m*3 17.6 C 0 km/h
624 01-09-2005 04:49:05 17.4 C 11.56 g/m*3 17.4 C 0 km/h
625 01-09-2005 05:01:05 17.2 C 11.42 g/m*3 17.2 C 0 km/h
Sensor: Nr:Datum:Temp:Abs-Feuchte:Windchill:Wind:
Aussen-T/F 626 01-09-2005 05:13:05 17.2 C 11.57 g/m*3 17.2 C 0 km/h
627 01-09-2005 05:25:05 17.1 C 11.5 g/m*3 17.1 C 0 km/h
628 01-09-2005 05:37:05 17 C 11.43 g/m*3 17 C 0 km/h
629 01-09-2005 05:49:05 16.9 C 11.51 g/m*3 16.9 C 0 km/h
630 01-09-2005 06:01:05 16.7 C 11.37 g/m*3 16.7 C 0 km/h
631 01-09-2005 06:13:05 16.5 C 11.51 g/m*3 16.5 C 0 km/h
632 01-09-2005 06:25:05 16.4 C 11.45 g/m*3 16.4 C 0 km/h
633 01-09-2005 06:37:05 16.5 C 11.51 g/m*3 16.5 C 0 km/h
634 01-09-2005 06:49:05 16.3 C 11.38 g/m*3 16.3 C 0 km/h
635 01-09-2005 07:01:05 16.4 C 11.45 g/m*3 16.4 C 0 km/h
636 01-09-2005 07:13:05 16.3 C 11.52 g/m*3 16.3 C 0 km/h
637 01-09-2005 07:25:05 16.2 C 11.58 g/m*3 16.2 C 0 km/h
638 01-09-2005 07:37:03 16.4 C 11.72 g/m*3 16.4 C 0 km/h
639 01-09-2005 07:49:01 16.4 C 11.58 g/m*3 16.4 C 0 km/h
640 01-09-2005 08:01:02 16.6 C 11.72 g/m*3 16.6 C 0 km/h
641 01-09-2005 08:13:02 16.6 C 11.72 g/m*3 16.6 C 0 km/h
642 01-09-2005 08:25:02 16.7 C 11.8 g/m*3 16.7 C 0 km/h
643 01-09-2005 08:37:02 17 C 11.87 g/m*3 17 C 0 km/h
644 01-09-2005 08:49:02 17.3 C 12.08 g/m*3 17.3 C 0 km/h
645 01-09-2005 09:01:01 17.5 C 12.08 g/m*3 17.5 C 0 km/h
646 01-09-2005 09:13:01 17.9 C 12.37 g/m*3 17.9 C 0 km/h
647 01-09-2005 09:25:02 18.2 C 12.12 g/m*3 18.2 C 0 km/h
648 01-09-2005 09:37:01 18.7 C 12.65 g/m*3 18.7 C 0 km/h
649 01-09-2005 09:49:02 19.2 C 12.86 g/m*3 19.2 C 0 km/h
650 01-09-2005 10:01:01 20 C 12.62 g/m*3 20 C 0 km/h
Sensor: Nr:Datum:Temp:Abs-Feuchte:Windchill:Wind:
Aussen-T/F 651 01-09-2005 10:13:01 20.6 C 12.89 g/m*3 20.6 C 0 km/h
652 01-09-2005 10:25:02 21.1 C 12.53 g/m*3 21.1 C 0 km/h
653 01-09-2005 10:37:01 21.7 C 12.97 g/m*3 21.7 C 0 km/h
654 01-09-2005 10:49:02 22.5 C 13.38 g/m*3 22.5 C 0 km/h
655 01-09-2005 11:01:01 23.3 C 13.59 g/m*3 23.3 C 0 km/h
656 01-09-2005 11:13:01 24 C 13.92 g/m*3 24 C 0 km/h
657 01-09-2005 11:25:02 24.6 C 13.05 g/m*3 24.6 C 0 km/h
658 01-09-2005 11:37:02 25.3 C 12.17 g/m*3 25.3 C 0 km/h
659 01-09-2005 11:49:02 25.7 C 11.25 g/m*3 25.7 C 0 km/h
660 01-09-2005 12:01:02 25.9 C 10.89 g/m*3 25.9 C 0 km/h
661 01-09-2005 12:13:02 26.3 C 10.89 g/m*3 26.3 C 0 km/h
662 01-09-2005 12:25:02 26.7 C 11.14 g/m*3 26.7 C 0 km/h
663 01-09-2005 12:37:02 26.9 C 11.26 g/m*3 26.9 C 0 km/h
664 01-09-2005 12:49:02 27.4 C 11.31 g/m*3 27.4 C 0 km/h
665 01-09-2005 13:01:03 27.7 C 11.23 g/m*3 27.7 C 0 km/h
666 01-09-2005 13:13:03 28.3 C 11.33 g/m*3 28.3 C 0 km/h
667 01-09-2005 13:25:02 28.6 C 11.24 g/m*3 28.6 C 0 km/h
668 01-09-2005 13:37:02 28.6 C 11.52 g/m*3 28.6 C 0 km/h
669 01-09-2005 13:49:02 28.3 C 11.61 g/m*3 28.3 C 0 km/h
670 01-09-2005 14:01:02 29 C 11.49 g/m*3 29 C 0 km/h
671 01-09-2005 14:13:02 28.9 C 11.14 g/m*3 28.9 C 0 km/h
672 01-09-2005 14:25:02 27.3 C 11.51 g/m*3 27.3 C 0 km/h
673 01-09-2005 14:37:02 26.9 C 11.26 g/m*3 26.9 C 0 km/h
674 01-09-2005 14:49:02 26.7 C 11.64 g/m*3 26.7 C 0 km/h
675 01-09-2005 15:01:02 27.1 C 11.13 g/m*3 27.1 C 0 km/h
Sensor: Nr:Datum:Temp:Abs-Feuchte:Windchill:Wind:
Aussen-T/F 676 01-09-2005 15:13:02 28.9 C 11.43 g/m*3 28.9 C 0 km/h
677 01-09-2005 15:25:03 29.2 C 10.74 g/m*3 29.2 C 0 km/h
678 01-09-2005 15:37:02 29.1 C 10.69 g/m*3 29.1 C 0 km/h
679 01-09-2005 15:49:02 30 C 10.61 g/m*3 30 C 0 km/h
680 01-09-2005 16:01:01 30.6 C 10.34 g/m*3 30.6 C 0 km/h
681 01-09-2005 16:13:01 30.8 C 10.13 g/m*3 30.8 C 0 km/h
682 01-09-2005 16:25:02 31 C 10.56 g/m*3 31 C 0 km/h
683 01-09-2005 16:37:02 31.1 C 10.62 g/m*3 31.1 C 0 km/h
684 01-09-2005 16:49:02 31.3 C 9.76 g/m*3 31.3 C 0 km/h
685 01-09-2005 17:01:02 30.4 C 10.23 g/m*3 30.4 C 0 km/h
686 01-09-2005 17:13:02 30 C 10.31 g/m*3 30 C 0 km/h
687 01-09-2005 17:25:02 30.2 C 10.12 g/m*3 30.2 C 0 km/h
688 01-09-2005 17:37:02 29.7 C 10.74 g/m*3 29.7 C 0 km/h
689 01-09-2005 17:49:02 29.8 C 11.7 g/m*3 29.8 C 0 km/h
690 01-09-2005 18:01:01 29 C 10.34 g/m*3 29 C 0 km/h
691 01-09-2005 18:13:01 29.6 C 10.68 g/m*3 29.6 C 0 km/h
692 01-09-2005 18:25:01 29 C 10.34 g/m*3 29 C 0 km/h
693 01-09-2005 18:37:02 28.9 C 10.86 g/m*3 28.9 C 0 km/h
694 01-09-2005 18:49:02 28.2 C 10.72 g/m*3 28.2 C 0 km/h
695 01-09-2005 19:01:02 27.4 C 11.05 g/m*3 27.4 C 0 km/h
696 01-09-2005 19:13:02 26.8 C 11.2 g/m*3 26.8 C 0 km/h
697 01-09-2005 19:25:02 26.1 C 11.02 g/m*3 26.1 C 0 km/h
698 01-09-2005 19:37:02 25.6 C 11.19 g/m*3 25.6 C 0 km/h
699 01-09-2005 19:49:01 25.6 C 11.67 g/m*3 25.6 C 0 km/h
700 01-09-2005 20:01:02 25.3 C 11.24 g/m*3 25.3 C 0 km/h
Sensor: Nr:Datum:Temp:Abs-Feuchte:Windchill:Wind:
Aussen-T/F 701 01-09-2005 20:13:02 25 C 11.51 g/m*3 25 C 0 km/h
702 01-09-2005 20:25:02 24.7 C 11.77 g/m*3 24.7 C 0 km/h
703 01-09-2005 20:37:02 24.5 C 11.86 g/m*3 24.5 C 0 km/h
704 01-09-2005 20:49:03 24.3 C 11.73 g/m*3 24.3 C 0 km/h
705 01-09-2005 21:01:02 24.3 C 11.73 g/m*3 24.3 C 0 km/h
706 01-09-2005 21:13:02 23.4 C 11.78 g/m*3 23.4 C 0 km/h
707 01-09-2005 21:25:02 23.3 C 11.92 g/m*3 23.3 C 0 km/h
708 01-09-2005 21:37:03 23.3 C 11.92 g/m*3 23.3 C 0 km/h
709 01-09-2005 21:49:02 22.8 C 11.99 g/m*3 22.8 C 0 km/h
710 01-09-2005 22:01:02 22.7 C 11.92 g/m*3 22.7 C 0 km/h
711 01-09-2005 22:13:02 22.4 C 11.92 g/m*3 22.4 C 0 km/h
712 01-09-2005 22:25:02 22 C 12.03 g/m*3 22 C 0 km/h
713 01-09-2005 22:37:03 21.8 C 12.09 g/m*3 21.8 C 0 km/h
714 01-09-2005 22:49:02 21.6 C 12.14 g/m*3 21.6 C 0 km/h
715 01-09-2005 23:01:02 21.5 C 12.07 g/m*3 21.5 C 0 km/h
716 01-09-2005 23:13:02 21.2 C 11.86 g/m*3 21.2 C 0 km/h
717 01-09-2005 23:25:02 21.2 C 11.86 g/m*3 21.2 C 0 km/h
718 01-09-2005 23:37:02 20.9 C 12.2 g/m*3 20.9 C 0 km/h
719 01-09-2005 23:49:02 20.9 C 12.2 g/m*3 20.9 C 0 km/h
720 02-09-2005 00:01:02 20.9 C 12.2 g/m*3 20.9 C 0 km/h
721 02-09-2005 00:13:02 20.9 C 12.2 g/m*3 20.9 C 0 km/h
722 02-09-2005 00:25:02 20.9 C 12.2 g/m*3 20.9 C 0 km/h
723 02-09-2005 00:37:03 20.9 C 12.2 g/m*3 20.9 C 0 km/h
724 02-09-2005 00:49:02 20.9 C 12.2 g/m*3 20.9 C 0 km/h
725 02-09-2005 01:01:02 20.9 C 12.2 g/m*3 20.9 C 0 km/h
Sensor: Nr:Datum:Temp:Abs-Feuchte:Windchill:Wind:
Aussen-T/F 726 02-09-2005 01:13:02 20.9 C 12.2 g/m*3 20.9 C 0 km/h
727 02-09-2005 01:25:02 20.9 C 12.2 g/m*3 20.9 C 0 km/h
728 02-09-2005 01:37:02 20.9 C 12.2 g/m*3 20.9 C 0 km/h
729 02-09-2005 01:49:02 20.9 C 12.2 g/m*3 20.9 C 0 km/h
730 02-09-2005 02:01:02 20.9 C 12.2 g/m*3 20.9 C 0 km/h
731 02-09-2005 02:13:02 20.9 C 12.2 g/m*3 20.9 C 0 km/h
732 02-09-2005 02:25:02 20.9 C 12.2 g/m*3 20.9 C 0 km/h
733 02-09-2005 02:37:02 20.9 C 12.2 g/m*3 20.9 C 0 km/h
734 02-09-2005 02:49:02 20.9 C 12.2 g/m*3 20.9 C 0 km/h
735 02-09-2005 03:01:02 18.2 C 11.97 g/m*3 18.2 C 0 km/h
736 02-09-2005 03:13:02 18.1 C 12.05 g/m*3 18.1 C 0 km/h
737 02-09-2005 03:25:02 18.1 C 12.05 g/m*3 18.1 C 0 km/h
738 02-09-2005 03:37:02 18.1 C 12.05 g/m*3 18.1 C 0 km/h
739 02-09-2005 03:49:02 17.9 C 12.37 g/m*3 17.9 C 0 km/h
740 02-09-2005 04:01:02 18.1 C 12.21 g/m*3 18.1 C 0 km/h
741 02-09-2005 04:13:02 18.1 C 12.21 g/m*3 18.1 C 0 km/h
742 02-09-2005 04:25:02 18.2 C 12.28 g/m*3 18.2 C 0 km/h
743 02-09-2005 04:37:01 18.2 C 12.12 g/m*3 18.2 C 0 km/h
744 02-09-2005 04:49:02 18.1 C 12.21 g/m*3 18.1 C 0 km/h
745 02-09-2005 05:01:01 18.1 C 12.21 g/m*3 18.1 C 0 km/h
746 02-09-2005 05:13:01 18.4 C 12.27 g/m*3 18.4 C 0 km/h
747 02-09-2005 05:25:01 18.3 C 12.2 g/m*3 18.3 C 0 km/h
748 02-09-2005 05:37:02 18.2 C 12.12 g/m*3 18.2 C 0 km/h
749 02-09-2005 05:49:02 18.3 C 12.35 g/m*3 18.3 C 0 km/h
750 02-09-2005 06:01:01 18.2 C 12.28 g/m*3 18.2 C 0 km/h
Sensor: Nr:Datum:Temp:Abs-Feuchte:Windchill:Wind:
Aussen-T/F 751 02-09-2005 06:13:01 18.2 C 12.28 g/m*3 18.2 C 0 km/h
752 02-09-2005 06:25:02 18.3 C 12.35 g/m*3 18.3 C 0 km/h
753 02-09-2005 06:37:02 18.2 C 12.28 g/m*3 18.2 C 0 km/h
754 02-09-2005 06:49:01 18.3 C 12.35 g/m*3 18.3 C 0 km/h
755 02-09-2005 07:01:01 18.5 C 12.34 g/m*3 18.5 C 0 km/h
756 02-09-2005 07:13:01 18.6 C 12.41 g/m*3 18.6 C 0 km/h
757 02-09-2005 07:25:02 18.8 C 12.4 g/m*3 18.8 C 0 km/h
758 02-09-2005 07:37:01 18.8 C 12.4 g/m*3 18.8 C 0 km/h
759 02-09-2005 07:49:01 18.7 C 12.49 g/m*3 18.7 C 0 km/h
760 02-09-2005 08:01:02 18.7 C 12.49 g/m*3 18.7 C 0 km/h
761 02-09-2005 08:13:02 18.7 C 12.49 g/m*3 18.7 C 0 km/h
762 02-09-2005 08:25:01 18.7 C 12.49 g/m*3 18.7 C 0 km/h
763 02-09-2005 08:37:02 18.7 C 12.49 g/m*3 18.7 C 0 km/h
764 02-09-2005 08:49:01 18.7 C 12.49 g/m*3 18.7 C 0 km/h
765 02-09-2005 09:01:02 18.7 C 12.49 g/m*3 18.7 C 0 km/h
766 02-09-2005 09:13:02 18.7 C 12.49 g/m*3 18.7 C 0 km/h
767 02-09-2005 09:25:02 18.7 C 12.49 g/m*3 18.7 C 0 km/h
768 02-09-2005 09:37:01 18.7 C 12.49 g/m*3 18.7 C 0 km/h
769 02-09-2005 09:49:01 18.7 C 12.49 g/m*3 18.7 C 0 km/h
770 02-09-2005 10:01:01 18.7 C 12.49 g/m*3 18.7 C 0 km/h
771 02-09-2005 10:13:01 18.7 C 12.49 g/m*3 18.7 C 0 km/h
772 02-09-2005 10:25:02 18.7 C 12.49 g/m*3 18.7 C 0 km/h
773 02-09-2005 10:37:01 18.7 C 12.49 g/m*3 18.7 C 0 km/h
774 02-09-2005 10:49:02 18.7 C 12.49 g/m*3 18.7 C 0 km/h
775 02-09-2005 11:01:01 18.7 C 12.49 g/m*3 18.7 C 0 km/h
Sensor: Nr:Datum:Temp:Abs-Feuchte:Windchill:Wind:
Aussen-T/F 776 02-09-2005 11:13:01 18.7 C 12.49 g/m*3 18.7 C 0 km/h
777 02-09-2005 11:25:01 18.7 C 12.49 g/m*3 18.7 C 0 km/h
778 02-09-2005 11:37:02 18.7 C 12.49 g/m*3 18.7 C 0 km/h
779 02-09-2005 11:49:01 18.7 C 12.49 g/m*3 18.7 C 0 km/h
780 02-09-2005 12:01:02 18.7 C 12.49 g/m*3 18.7 C 0 km/h
781 02-09-2005 12:13:02 18.7 C 12.49 g/m*3 18.7 C 0 km/h
782 02-09-2005 12:25:01 18.7 C 12.49 g/m*3 18.7 C 0 km/h
783 02-09-2005 12:37:01 18.7 C 12.49 g/m*3 18.7 C 0 km/h
784 02-09-2005 12:49:01 18.7 C 12.49 g/m*3 18.7 C 0 km/h
785 02-09-2005 13:01:01 18.7 C 12.49 g/m*3 18.7 C 0 km/h
786 02-09-2005 13:13:01 18.7 C 12.49 g/m*3 18.7 C 0 km/h
787 02-09-2005 13:23:02 18.7 C 12.49 g/m*3 18.7 C 0 km/h
788 02-09-2005 13:35:01 18.7 C 12.49 g/m*3 18.7 C 0 km/h
789 02-09-2005 13:47:02 18.7 C 12.49 g/m*3 18.7 C 0 km/h
790 02-09-2005 13:59:02 18.7 C 12.49 g/m*3 18.7 C 0 km/h
791 02-09-2005 14:11:02 18.7 C 12.49 g/m*3 18.7 C 0 km/h
792 02-09-2005 14:23:02 18.7 C 12.49 g/m*3 18.7 C 0 km/h
793 02-09-2005 14:35:02 26.2 C 19.2 g/m*3 26.2 C 0 km/h
794 02-09-2005 14:47:02 27.9 C 19.74 g/m*3 27.9 C 0 km/h
795 02-09-2005 14:59:02 28 C 18.49 g/m*3 28 C 0 km/h
796 02-09-2005 15:11:02 27.2 C 9.11 g/m*3 27.2 C 0 km/h
797 02-09-2005 15:23:01 28 C 9.25 g/m*3 28 C 0 km/h
798 02-09-2005 15:35:02 26.5 C 9.01 g/m*3 26.5 C 0 km/h
799 02-09-2005 15:47:01 27.1 C 9.32 g/m*3 27.1 C 0 km/h
800 02-09-2005 15:59:01 27.6 C 8.78 g/m*3 27.6 C 0 km/h
Sensor: Nr:Datum:Temp:Abs-Feuchte:Windchill:Wind:
Aussen-T/F 801 02-09-2005 16:11:02 28.8 C 9.09 g/m*3 28.8 C 0 km/h
802 02-09-2005 16:23:01 29.2 C 9 g/m*3 29.2 C 0 km/h
803 02-09-2005 16:35:01 29.9 C 9.05 g/m*3 29.9 C 0 km/h
804 02-09-2005 16:47:02 30.4 C 8.37 g/m*3 30.4 C 0 km/h
805 02-09-2005 16:59:02 29.9 C 8.14 g/m*3 29.9 C 0 km/h
806 02-09-2005 17:11:02 28.6 C 8.43 g/m*3 28.6 C 0 km/h
807 02-09-2005 17:23:01 28.5 C 8.38 g/m*3 28.5 C 0 km/h
808 02-09-2005 17:35:02 28.6 C 8.71 g/m*3 28.6 C 0 km/h
809 02-09-2005 17:47:01 29.5 C 8.85 g/m*3 29.5 C 0 km/h
810 02-09-2005 17:59:01 29.4 C 8.51 g/m*3 29.4 C 0 km/h
811 02-09-2005 18:11:02 29.2 C 8.71 g/m*3 29.2 C 0 km/h
812 02-09-2005 18:23:01 28.7 C 8.48 g/m*3 28.7 C 0 km/h
813 02-09-2005 18:35:01 27.9 C 8.38 g/m*3 27.9 C 0 km/h
814 02-09-2005 18:47:01 27.6 C 8.25 g/m*3 27.6 C 0 km/h
815 02-09-2005 18:59:01 27.3 C 8.63 g/m*3 27.3 C 0 km/h
816 02-09-2005 19:11:01 26.4 C 8.71 g/m*3 26.4 C 0 km/h
817 02-09-2005 19:23:02 25.7 C 8.86 g/m*3 25.7 C 0 km/h
818 02-09-2005 19:35:02 25.3 C 9.13 g/m*3 25.3 C 0 km/h
819 02-09-2005 19:47:01 24.7 C 9.51 g/m*3 24.7 C 0 km/h
820 02-09-2005 19:59:01 23.7 C 9.63 g/m*3 23.7 C 0 km/h
821 02-09-2005 20:11:02 23.1 C 9.72 g/m*3 23.1 C 0 km/h
822 02-09-2005 20:23:01 22.4 C 9.93 g/m*3 22.4 C 0 km/h
823 02-09-2005 20:35:02 22 C 10.09 g/m*3 22 C 0 km/h
824 02-09-2005 20:47:01 21.9 C 10.23 g/m*3 21.9 C 0 km/h
825 02-09-2005 20:59:01 21.5 C 10.18 g/m*3 21.5 C 0 km/h
Sensor: Nr:Datum:Temp:Abs-Feuchte:Windchill:Wind:
Aussen-T/F 826 02-09-2005 21:11:02 21.1 C 10.13 g/m*3 21.1 C 0 km/h
827 02-09-2005 21:23:01 20.8 C 10.5 g/m*3 20.8 C 0 km/h
828 02-09-2005 21:35:02 20.8 C 10.5 g/m*3 20.8 C 0 km/h
829 02-09-2005 21:47:01 20.6 C 10.38 g/m*3 20.6 C 0 km/h
830 02-09-2005 21:59:01 20.5 C 10.5 g/m*3 20.5 C 0 km/h
831 02-09-2005 22:11:02 20.6 C 10.74 g/m*3 20.6 C 0 km/h
832 02-09-2005 22:23:02 20.1 C 10.43 g/m*3 20.1 C 0 km/h
833 02-09-2005 22:35:01 20.1 C 10.43 g/m*3 20.1 C 0 km/h
834 02-09-2005 22:47:01 20 C 10.71 g/m*3 20 C 0 km/h
835 02-09-2005 22:59:01 19.9 C 10.82 g/m*3 19.9 C 0 km/h
836 02-09-2005 23:11:01 19.7 C 10.7 g/m*3 19.7 C 0 km/h
837 02-09-2005 23:23:02 19.5 C 10.74 g/m*3 19.5 C 0 km/h
838 02-09-2005 23:35:01 19.3 C 10.78 g/m*3 19.3 C 0 km/h
839 02-09-2005 23:47:02 19.1 C 10.82 g/m*3 19.1 C 0 km/h
840 02-09-2005 23:59:02 18.8 C 11.11 g/m*3 18.8 C 0 km/h
841 03-09-2005 00:11:01 18.8 C 10.95 g/m*3 18.8 C 0 km/h
842 03-09-2005 00:23:03 18.7 C 10.89 g/m*3 18.7 C 0 km/h
843 03-09-2005 00:35:02 18.5 C 10.76 g/m*3 18.5 C 0 km/h
844 03-09-2005 00:47:02 18.4 C 11.01 g/m*3 18.4 C 0 km/h
845 03-09-2005 00:59:02 18.2 C 10.88 g/m*3 18.2 C 0 km/h
846 03-09-2005 01:11:02 18.1 C 10.97 g/m*3 18.1 C 0 km/h
847 03-09-2005 01:23:02 18 C 10.91 g/m*3 18 C 0 km/h
848 03-09-2005 01:35:02 18 C 10.91 g/m*3 18 C 0 km/h
849 03-09-2005 01:47:02 18.2 C 11.04 g/m*3 18.2 C 0 km/h
850 03-09-2005 01:59:02 18.3 C 11.1 g/m*3 18.3 C 0 km/h
Sensor: Nr:Datum:Temp:Abs-Feuchte:Windchill:Wind:
Aussen-T/F 851 03-09-2005 02:11:02 18.2 C 11.04 g/m*3 18.2 C 0 km/h
852 03-09-2005 02:23:02 18 C 11.06 g/m*3 18 C 0 km/h
853 03-09-2005 02:35:01 17.9 C 11.15 g/m*3 17.9 C 0 km/h
854 03-09-2005 02:48:05 17.7 C 11.01 g/m*3 17.7 C 0 km/h
855 03-09-2005 03:00:05 17.5 C 11.03 g/m*3 17.5 C 0 km/h
856 03-09-2005 03:12:05 17.4 C 11.12 g/m*3 17.4 C 0 km/h
857 03-09-2005 03:24:05 17.2 C 10.98 g/m*3 17.2 C 0 km/h
858 03-09-2005 03:36:02 17.1 C 11.06 g/m*3 17.1 C 0 km/h
859 03-09-2005 03:48:02 17 C 11.14 g/m*3 17 C 0 km/h
860 03-09-2005 04:00:02 16.8 C 11.15 g/m*3 16.8 C 0 km/h
861 03-09-2005 04:12:02 16.7 C 11.23 g/m*3 16.7 C 0 km/h
862 03-09-2005 04:24:02 16.6 C 11.16 g/m*3 16.6 C 0 km/h
863 03-09-2005 04:36:01 16.5 C 11.23 g/m*3 16.5 C 0 km/h
864 03-09-2005 04:48:02 16.4 C 11.31 g/m*3 16.4 C 0 km/h
865 03-09-2005 05:00:02 16.4 C 11.31 g/m*3 16.4 C 0 km/h
866 03-09-2005 05:12:02 16.2 C 11.31 g/m*3 16.2 C 0 km/h
867 03-09-2005 05:24:02 16.1 C 11.38 g/m*3 16.1 C 0 km/h
868 03-09-2005 05:36:02 16 C 11.31 g/m*3 16 C 0 km/h
869 03-09-2005 05:48:02 15.9 C 11.24 g/m*3 15.9 C 0 km/h
870 03-09-2005 06:00:02 15.8 C 11.17 g/m*3 15.8 C 0 km/h
871 03-09-2005 06:12:03 15.8 C 11.31 g/m*3 15.8 C 0 km/h
872 03-09-2005 06:24:02 15.6 C 11.04 g/m*3 15.6 C 0 km/h
873 03-09-2005 06:36:02 15.6 C 11.04 g/m*3 15.6 C 0 km/h
874 03-09-2005 06:48:02 15.4 C 11.04 g/m*3 15.4 C 0 km/h
875 03-09-2005 07:00:02 15.4 C 11.04 g/m*3 15.4 C 0 km/h
Sensor: Nr:Datum:Temp:Abs-Feuchte:Windchill:Wind:
Aussen-T/F 876 03-09-2005 07:12:03 15.5 C 11.24 g/m*3 15.5 C 0 km/h
877 03-09-2005 07:24:02 15.5 C 11.24 g/m*3 15.5 C 0 km/h
878 03-09-2005 07:36:02 15.5 C 11.24 g/m*3 15.5 C 0 km/h
879 03-09-2005 07:48:02 15.6 C 11.3 g/m*3 15.6 C 0 km/h
880 03-09-2005 08:00:02 15.6 C 11.3 g/m*3 15.6 C 0 km/h
881 03-09-2005 08:12:02 15.8 C 11.31 g/m*3 15.8 C 0 km/h
882 03-09-2005 08:24:03 16.1 C 11.38 g/m*3 16.1 C 0 km/h
883 03-09-2005 08:36:02 16.2 C 11.45 g/m*3 16.2 C 0 km/h
884 03-09-2005 08:48:02 16.2 C 11.31 g/m*3 16.2 C 0 km/h
885 03-09-2005 09:00:02 16.4 C 11.45 g/m*3 16.4 C 0 km/h
886 03-09-2005 09:12:02 16.9 C 11.94 g/m*3 16.9 C 0 km/h
887 03-09-2005 09:24:01 16.9 C 11.94 g/m*3 16.9 C 0 km/h
888 03-09-2005 09:36:02 16.9 C 11.94 g/m*3 16.9 C 0 km/h
889 03-09-2005 09:48:02 18 C 12.13 g/m*3 18 C 0 km/h
890 03-09-2005 10:00:03 18.7 C 12.33 g/m*3 18.7 C 0 km/h
891 03-09-2005 10:12:02 19.3 C 12.11 g/m*3 19.3 C 0 km/h
892 03-09-2005 10:24:03 19.8 C 12.13 g/m*3 19.8 C 0 km/h
893 03-09-2005 10:36:02 20.2 C 12.06 g/m*3 20.2 C 0 km/h
894 03-09-2005 10:48:02 20.8 C 12.31 g/m*3 20.8 C 0 km/h
895 03-09-2005 11:00:02 21.3 C 12.68 g/m*3 21.3 C 0 km/h
896 03-09-2005 11:12:01 21.8 C 12.85 g/m*3 21.8 C 0 km/h
897 03-09-2005 11:24:02 22.5 C 12.18 g/m*3 22.5 C 0 km/h
898 03-09-2005 11:36:01 23 C 11.92 g/m*3 23 C 0 km/h
899 03-09-2005 11:48:02 23.5 C 11.63 g/m*3 23.5 C 0 km/h
900 03-09-2005 12:00:02 24.1 C 11.6 g/m*3 24.1 C 0 km/h
Sensor: Nr:Datum:Temp:Abs-Feuchte:Windchill:Wind:
Aussen-T/F 901 03-09-2005 12:12:03 24.2 C 11.44 g/m*3 24.2 C 0 km/h
902 03-09-2005 12:24:02 24.2 C 11.44 g/m*3 24.2 C 0 km/h
903 03-09-2005 12:36:02 24.2 C 11.44 g/m*3 24.2 C 0 km/h
904 03-09-2005 12:48:03 26.9 C 11.52 g/m*3 26.9 C 0 km/h
905 03-09-2005 13:00:03 26.9 C 10.75 g/m*3 26.9 C 0 km/h
906 03-09-2005 13:12:02 26.8 C 10.44 g/m*3 26.8 C 0 km/h
907 03-09-2005 13:24:02 27 C 10.55 g/m*3 27 C 0 km/h
908 03-09-2005 13:36:03 27.8 C 10.76 g/m*3 27.8 C 0 km/h
909 03-09-2005 13:48:02 27.6 C 10.38 g/m*3 27.6 C 0 km/h
910 03-09-2005 14:00:02 27.6 C 10.11 g/m*3 27.6 C 0 km/h
911 03-09-2005 14:12:02 27.5 C 10.32 g/m*3 27.5 C 0 km/h
912 03-09-2005 14:24:01 28.6 C 10.12 g/m*3 28.6 C 0 km/h
913 03-09-2005 14:36:03 29.2 C 9.87 g/m*3 29.2 C 0 km/h
914 03-09-2005 14:48:03 29 C 9.77 g/m*3 29 C 0 km/h
915 03-09-2005 15:00:03 29.3 C 9.34 g/m*3 29.3 C 0 km/h
916 03-09-2005 15:12:02 28.4 C 9.17 g/m*3 28.4 C 0 km/h
917 03-09-2005 15:24:02 29.9 C 9.35 g/m*3 29.9 C 0 km/h
918 03-09-2005 15:36:02 30.4 C 9.3 g/m*3 30.4 C 0 km/h
919 03-09-2005 15:48:02 30.7 C 8.82 g/m*3 30.7 C 0 km/h
920 03-09-2005 16:00:02 30.3 C 8.94 g/m*3 30.3 C 0 km/h
921 03-09-2005 16:12:02 30 C 9.4 g/m*3 30 C 0 km/h
922 03-09-2005 16:24:02 30.9 C 8.59 g/m*3 30.9 C 0 km/h
923 03-09-2005 16:36:02 31 C 8.32 g/m*3 31 C 0 km/h
924 03-09-2005 16:48:02 31.2 C 7.76 g/m*3 31.2 C 0 km/h
925 03-09-2005 17:00:02 31.3 C 7.81 g/m*3 31.3 C 0 km/h
Sensor: Nr:Datum:Temp:Abs-Feuchte:Windchill:Wind:
Aussen-T/F 926 03-09-2005 17:12:02 31.4 C 7.85 g/m*3 31.4 C 0 km/h
927 03-09-2005 17:24:03 31.5 C 7.56 g/m*3 31.5 C 0 km/h
928 03-09-2005 17:36:02 31.2 C 7.44 g/m*3 31.2 C 0 km/h
929 03-09-2005 17:48:02 31.2 C 7.76 g/m*3 31.2 C 0 km/h
930 03-09-2005 18:00:03 31 C 8 g/m*3 31 C 0 km/h
931 03-09-2005 18:12:02 30.8 C 7.92 g/m*3 30.8 C 0 km/h
932 03-09-2005 18:24:01 30.4 C 7.75 g/m*3 30.4 C 0 km/h
933 03-09-2005 18:36:02 30.3 C 8.32 g/m*3 30.3 C 0 km/h
934 03-09-2005 18:48:02 30.1 C 8.54 g/m*3 30.1 C 0 km/h
935 03-09-2005 19:00:02 29.3 C 8.76 g/m*3 29.3 C 0 km/h
936 03-09-2005 19:12:02 28.7 C 9.04 g/m*3 28.7 C 0 km/h
937 03-09-2005 19:24:02 28.1 C 9.02 g/m*3 28.1 C 0 km/h
938 03-09-2005 19:36:02 27 C 8.75 g/m*3 27 C 0 km/h
939 03-09-2005 19:48:02 26 C 9.01 g/m*3 26 C 0 km/h
940 03-09-2005 20:00:02 25 C 8.98 g/m*3 25 C 0 km/h
941 03-09-2005 20:12:01 24.3 C 9.29 g/m*3 24.3 C 0 km/h
942 03-09-2005 20:24:02 23.7 C 9.41 g/m*3 23.7 C 0 km/h
943 03-09-2005 20:36:02 23.3 C 9.41 g/m*3 23.3 C 0 km/h
944 03-09-2005 20:48:02 23.3 C 9.62 g/m*3 23.3 C 0 km/h
945 03-09-2005 21:00:02 22.6 C 9.64 g/m*3 22.6 C 0 km/h
946 03-09-2005 21:12:02 22.5 C 9.59 g/m*3 22.5 C 0 km/h
947 03-09-2005 21:24:02 22.2 C 9.42 g/m*3 22.2 C 0 km/h
948 03-09-2005 21:36:02 22.2 C 9.62 g/m*3 22.2 C 0 km/h
949 03-09-2005 21:48:02 21.7 C 9.54 g/m*3 21.7 C 0 km/h
950 03-09-2005 22:00:02 21.5 C 9.43 g/m*3 21.5 C 0 km/h
Sensor: Nr:Datum:Temp:Abs-Feuchte:Windchill:Wind:
Aussen-T/F 951 03-09-2005 22:12:02 21.4 C 9.37 g/m*3 21.4 C 0 km/h
952 03-09-2005 22:24:01 21.2 C 9.27 g/m*3 21.2 C 0 km/h
953 03-09-2005 22:36:02 21.2 C 9.45 g/m*3 21.2 C 0 km/h
954 03-09-2005 22:48:01 21.2 C 9.45 g/m*3 21.2 C 0 km/h
955 03-09-2005 23:00:02 20.6 C 9.66 g/m*3 20.6 C 0 km/h
956 03-09-2005 23:12:01 20.5 C 9.79 g/m*3 20.5 C 0 km/h
957 03-09-2005 23:24:02 20.4 C 9.73 g/m*3 20.4 C 0 km/h
958 03-09-2005 23:36:01 20.2 C 9.62 g/m*3 20.2 C 0 km/h
959 03-09-2005 23:48:02 20 C 9.68 g/m*3 20 C 0 km/h
960 04-09-2005 00:00:02 19.9 C 9.79 g/m*3 19.9 C 0 km/h
961 04-09-2005 00:12:02 19.8 C 9.74 g/m*3 19.8 C 0 km/h
962 04-09-2005 00:24:03 19.6 C 9.96 g/m*3 19.6 C 0 km/h
963 04-09-2005 00:36:02 19.6 C 9.79 g/m*3 19.6 C 0 km/h
964 04-09-2005 00:48:02 19.5 C 9.9 g/m*3 19.5 C 0 km/h
965 04-09-2005 01:00:02 19.3 C 10.12 g/m*3 19.3 C 0 km/h
966 04-09-2005 01:12:03 18.8 C 10.15 g/m*3 18.8 C 0 km/h
967 04-09-2005 01:24:03 18.6 C 10.03 g/m*3 18.6 C 0 km/h
968 04-09-2005 01:36:03 18.3 C 10.01 g/m*3 18.3 C 0 km/h
969 04-09-2005 01:48:03 18 C 10.14 g/m*3 18 C 0 km/h
970 04-09-2005 02:00:03 17.9 C 10.23 g/m*3 17.9 C 0 km/h
971 04-09-2005 02:12:02 18 C 10.14 g/m*3 18 C 0 km/h
972 04-09-2005 02:24:02 17.6 C 10.2 g/m*3 17.6 C 0 km/h
973 04-09-2005 02:36:02 17.4 C 10.23 g/m*3 17.4 C 0 km/h
974 04-09-2005 02:49:04 17.1 C 10.04 g/m*3 17.1 C 0 km/h
975 04-09-2005 03:01:04 16.9 C 10.21 g/m*3 16.9 C 0 km/h
Sensor: Nr:Datum:Temp:Abs-Feuchte:Windchill:Wind:
Aussen-T/F 976 04-09-2005 03:13:03 16.9 C 10.21 g/m*3 16.9 C 0 km/h
977 04-09-2005 03:25:03 16.6 C 10.17 g/m*3 16.6 C 0 km/h
978 04-09-2005 03:37:02 16.6 C 10.17 g/m*3 16.6 C 0 km/h
979 04-09-2005 03:49:02 16.3 C 10.13 g/m*3 16.3 C 0 km/h
980 04-09-2005 04:01:03 16.2 C 10.2 g/m*3 16.2 C 0 km/h
981 04-09-2005 04:13:03 16.1 C 10.14 g/m*3 16.1 C 0 km/h
982 04-09-2005 04:25:03 16 C 10.22 g/m*3 16 C 0 km/h
983 04-09-2005 04:37:02 16 C 10.22 g/m*3 16 C 0 km/h
984 04-09-2005 04:49:02 15.8 C 10.36 g/m*3 15.8 C 0 km/h
985 04-09-2005 05:01:02 15.7 C 10.3 g/m*3 15.7 C 0 km/h
986 04-09-2005 05:13:02 15.5 C 10.31 g/m*3 15.5 C 0 km/h
987 04-09-2005 05:25:02 15.4 C 10.25 g/m*3 15.4 C 0 km/h
988 04-09-2005 05:37:02 15.2 C 10.25 g/m*3 15.2 C 0 km/h
989 04-09-2005 05:49:02 15.1 C 10.19 g/m*3 15.1 C 0 km/h
990 04-09-2005 06:01:02 14.9 C 10.32 g/m*3 14.9 C 0 km/h
991 04-09-2005 06:13:02 14.8 C 10.26 g/m*3 14.8 C 0 km/h
992 04-09-2005 06:25:03 14.7 C 10.32 g/m*3 14.7 C 0 km/h
993 04-09-2005 06:37:02 14.7 C 10.32 g/m*3 14.7 C 0 km/h
994 04-09-2005 06:49:01 14.6 C 10.39 g/m*3 14.6 C 0 km/h
995 04-09-2005 07:01:01 14.5 C 10.32 g/m*3 14.5 C 0 km/h
996 04-09-2005 07:13:01 14.5 C 10.32 g/m*3 14.5 C 0 km/h
997 04-09-2005 07:25:02 14.5 C 10.45 g/m*3 14.5 C 0 km/h
998 04-09-2005 07:37:01 14.6 C 10.51 g/m*3 14.6 C 0 km/h
999 04-09-2005 07:49:02 14.7 C 10.58 g/m*3 14.7 C 0 km/h
1000 04-09-2005 08:01:01 14.8 C 10.64 g/m*3 14.8 C 0 km/h
Sensor: Nr:Datum:Temp:Abs-Feuchte:Windchill:Wind:
Aussen-T/F 1001 04-09-2005 08:13:01 14.9 C 10.71 g/m*3 14.9 C 0 km/h
1002 04-09-2005 08:25:02 15.1 C 10.84 g/m*3 15.1 C 0 km/h
1003 04-09-2005 08:37:02 15.5 C 11.1 g/m*3 15.5 C 0 km/h
1004 04-09-2005 08:49:02 16.3 C 11.38 g/m*3 16.3 C 0 km/h
1005 04-09-2005 09:01:02 17.2 C 11.28 g/m*3 17.2 C 0 km/h
1006 04-09-2005 09:13:02 18.1 C 11.28 g/m*3 18.1 C 0 km/h
1007 04-09-2005 09:25:01 18.7 C 11.21 g/m*3 18.7 C 0 km/h
1008 04-09-2005 09:37:02 19.1 C 10.98 g/m*3 19.1 C 0 km/h
1009 04-09-2005 09:49:01 19.4 C 10.84 g/m*3 19.4 C 0 km/h
1010 04-09-2005 10:01:01 19.5 C 10.91 g/m*3 19.5 C 0 km/h
1011 04-09-2005 10:13:01 19.7 C 10.87 g/m*3 19.7 C 0 km/h
1012 04-09-2005 10:25:02 20.2 C 11.02 g/m*3 20.2 C 0 km/h
1013 04-09-2005 10:37:01 20.6 C 11.1 g/m*3 20.6 C 0 km/h
1014 04-09-2005 10:49:02 20.9 C 11.11 g/m*3 20.9 C 0 km/h
1015 04-09-2005 11:01:02 21.2 C 10.93 g/m*3 21.2 C 0 km/h
1016 04-09-2005 11:13:02 21.4 C 11.25 g/m*3 21.4 C 0 km/h
1017 04-09-2005 11:25:02 21.8 C 11.32 g/m*3 21.8 C 0 km/h
1018 04-09-2005 11:37:02 22 C 11.26 g/m*3 22 C 0 km/h
1019 04-09-2005 11:49:03 22.4 C 11.72 g/m*3 22.4 C 0 km/h
1020 04-09-2005 12:01:03 22.5 C 11.58 g/m*3 22.5 C 0 km/h
1021 04-09-2005 12:13:03 23 C 11.51 g/m*3 23 C 0 km/h
1022 04-09-2005 12:25:02 23.3 C 11.71 g/m*3 23.3 C 0 km/h
1023 04-09-2005 12:37:02 23.6 C 11.7 g/m*3 23.6 C 0 km/h
1024 04-09-2005 12:49:01 23.9 C 11.47 g/m*3 23.9 C 0 km/h
1025 04-09-2005 13:01:02 24.5 C 11.64 g/m*3 24.5 C 0 km/h
Sensor: Nr:Datum:Temp:Abs-Feuchte:Windchill:Wind:
Aussen-T/F 1026 04-09-2005 13:13:02 24.8 C 11.38 g/m*3 24.8 C 0 km/h
1027 04-09-2005 13:25:02 25.5 C 11.36 g/m*3 25.5 C 0 km/h
1028 04-09-2005 13:37:01 26.4 C 10.95 g/m*3 26.4 C 0 km/h
1029 04-09-2005 13:49:02 26.8 C 10.69 g/m*3 26.8 C 0 km/h
1030 04-09-2005 14:01:03 26.9 C 10.75 g/m*3 26.9 C 0 km/h
1031 04-09-2005 14:13:03 27.3 C 10.2 g/m*3 27.3 C 0 km/h
1032 04-09-2005 14:25:02 27.8 C 9.95 g/m*3 27.8 C 0 km/h
1033 04-09-2005 14:37:02 28.7 C 9.61 g/m*3 28.7 C 0 km/h
1034 04-09-2005 14:49:01 30 C 8.79 g/m*3 30 C 0 km/h
1035 04-09-2005 15:01:02 30 C 7.58 g/m*3 30 C 0 km/h
1036 04-09-2005 15:13:02 30 C 7.58 g/m*3 30 C 0 km/h
1037 04-09-2005 15:25:02 29.8 C 7.5 g/m*3 29.8 C 0 km/h
1038 04-09-2005 15:37:01 30.6 C 7.52 g/m*3 30.6 C 0 km/h
1039 04-09-2005 15:49:02 30.8 C 7.28 g/m*3 30.8 C 0 km/h
1040 04-09-2005 16:01:01 30.3 C 7.7 g/m*3 30.3 C 0 km/h
1041 04-09-2005 16:13:01 30.7 C 6.61 g/m*3 30.7 C 0 km/h
1042 04-09-2005 16:25:02 31.4 C 6.54 g/m*3 31.4 C 0 km/h
1043 04-09-2005 16:37:02 31.2 C 6.79 g/m*3 31.2 C 0 km/h
1044 04-09-2005 16:49:02 31.5 C 6.57 g/m*3 31.5 C 0 km/h
1045 04-09-2005 17:01:02 31.1 C 6.76 g/m*3 31.1 C 0 km/h
1046 04-09-2005 17:13:02 31.7 C 6.98 g/m*3 31.7 C 0 km/h
1047 04-09-2005 17:25:03 31.7 C 6.98 g/m*3 31.7 C 0 km/h
1048 04-09-2005 17:37:02 31.7 C 6.98 g/m*3 31.7 C 0 km/h
1049 04-09-2005 17:49:02 31.8 C 6.68 g/m*3 31.8 C 0 km/h
1050 04-09-2005 18:01:02 30.7 C 6.93 g/m*3 30.7 C 0 km/h
Sensor: Nr:Datum:Temp:Abs-Feuchte:Windchill:Wind:
Aussen-T/F 1051 04-09-2005 18:13:02 31.2 C 8.09 g/m*3 31.2 C 0 km/h
1052 04-09-2005 18:25:01 31.1 C 8.04 g/m*3 31.1 C 0 km/h
1053 04-09-2005 18:37:01 31.2 C 8.41 g/m*3 31.2 C 0 km/h
1054 04-09-2005 18:49:01 31 C 8.64 g/m*3 31 C 0 km/h
1055 04-09-2005 19:01:01 30.4 C 8.99 g/m*3 30.4 C 0 km/h
1056 04-09-2005 19:13:01 29.5 C 9.15 g/m*3 29.5 C 0 km/h
1057 04-09-2005 19:25:02 28.6 C 9.27 g/m*3 28.6 C 0 km/h
1058 04-09-2005 19:37:01 27.6 C 9.31 g/m*3 27.6 C 0 km/h
1059 04-09-2005 19:49:02 26.2 C 9.35 g/m*3 26.2 C 0 km/h
1060 04-09-2005 20:01:01 25.1 C 9.26 g/m*3 25.1 C 0 km/h
1061 04-09-2005 20:13:01 24.5 C 9.4 g/m*3 24.5 C 0 km/h
1062 04-09-2005 20:25:02 24 C 9.14 g/m*3 24 C 0 km/h
1063 04-09-2005 20:37:02 23.5 C 9.52 g/m*3 23.5 C 0 km/h
1064 04-09-2005 20:49:02 23.2 C 9.36 g/m*3 23.2 C 0 km/h
1065 04-09-2005 21:01:02 22.9 C 9.61 g/m*3 22.9 C 0 km/h
1066 04-09-2005 21:13:02 22.5 C 9.59 g/m*3 22.5 C 0 km/h
1067 04-09-2005 21:25:02 22.3 C 9.68 g/m*3 22.3 C 0 km/h
1068 04-09-2005 21:37:02 21.9 C 9.65 g/m*3 21.9 C 0 km/h
1069 04-09-2005 21:49:02 21.7 C 9.73 g/m*3 21.7 C 0 km/h
1070 04-09-2005 22:01:02 21.4 C 9.75 g/m*3 21.4 C 0 km/h
1071 04-09-2005 22:13:02 21.4 C 9.94 g/m*3 21.4 C 0 km/h
1072 04-09-2005 22:25:03 21 C 9.71 g/m*3 21 C 0 km/h
1073 04-09-2005 22:37:02 20.8 C 9.78 g/m*3 20.8 C 0 km/h
1074 04-09-2005 22:49:02 20.6 C 9.66 g/m*3 20.6 C 0 km/h
1075 04-09-2005 23:01:01 20.5 C 9.79 g/m*3 20.5 C 0 km/h
Sensor: Nr:Datum:Temp:Abs-Feuchte:Windchill:Wind:
Aussen-T/F 1076 04-09-2005 23:13:01 20.2 C 9.62 g/m*3 20.2 C 0 km/h
1077 04-09-2005 23:25:02 20.1 C 9.73 g/m*3 20.1 C 0 km/h
1078 04-09-2005 23:37:01 19.6 C 9.45 g/m*3 19.6 C 0 km/h
1079 04-09-2005 23:49:02 19.5 C 9.57 g/m*3 19.5 C 0 km/h
1080 05-09-2005 00:01:02 19.3 C 9.29 g/m*3 19.3 C 0 km/h
1081 05-09-2005 00:13:02 19.3 C 9.29 g/m*3 19.3 C 0 km/h
1082 05-09-2005 00:25:02 19.1 C 9.34 g/m*3 19.1 C 0 km/h
1083 05-09-2005 00:37:03 18.8 C 9.5 g/m*3 18.8 C 0 km/h
1084 05-09-2005 00:49:02 18.5 C 9.33 g/m*3 18.5 C 0 km/h
1085 05-09-2005 01:01:03 18.3 C 9.38 g/m*3 18.3 C 0 km/h
1086 05-09-2005 01:13:03 18.1 C 9.43 g/m*3 18.1 C 0 km/h
1087 05-09-2005 01:25:03 18 C 9.37 g/m*3 18 C 0 km/h
1088 05-09-2005 01:37:03 17.9 C 9.47 g/m*3 17.9 C 0 km/h
1089 05-09-2005 01:49:02 17.7 C 9.35 g/m*3 17.7 C 0 km/h
1090 05-09-2005 02:01:02 17.6 C 9.3 g/m*3 17.6 C 0 km/h
1091 05-09-2005 02:13:02 17.4 C 9.34 g/m*3 17.4 C 0 km/h
1092 05-09-2005 02:25:02 17.3 C 9.28 g/m*3 17.3 C 0 km/h
1093 05-09-2005 02:37:02 17.1 C 9.32 g/m*3 17.1 C 0 km/h
1094 05-09-2005 02:50:03 17 C 9.26 g/m*3 17 C 0 km/h
1095 05-09-2005 03:02:03 16.9 C 9.35 g/m*3 16.9 C 0 km/h
1096 05-09-2005 03:14:03 16.7 C 9.38 g/m*3 16.7 C 0 km/h
1097 05-09-2005 03:26:03 16.6 C 9.32 g/m*3 16.6 C 0 km/h
1098 05-09-2005 03:38:02 16.5 C 9.27 g/m*3 16.5 C 0 km/h
1099 05-09-2005 03:50:02 16.3 C 9.3 g/m*3 16.3 C 0 km/h
1100 05-09-2005 04:02:02 16.2 C 9.79 g/m*3 16.2 C 0 km/h
Sensor: Nr:Datum:Temp:Abs-Feuchte:Windchill:Wind:
Aussen-T/F 1101 05-09-2005 04:14:02 15.9 C 9.75 g/m*3 15.9 C 0 km/h
1102 05-09-2005 04:26:02 15.5 C 9.65 g/m*3 15.5 C 0 km/h
1103 05-09-2005 04:38:02 15.5 C 9.52 g/m*3 15.5 C 0 km/h
1104 05-09-2005 04:50:03 15.4 C 9.72 g/m*3 15.4 C 0 km/h
1105 05-09-2005 05:02:02 15.1 C 9.29 g/m*3 15.1 C 0 km/h
1106 05-09-2005 05:14:02 15 C 9.49 g/m*3 15 C 0 km/h
1107 05-09-2005 05:26:02 14.8 C 9.37 g/m*3 14.8 C 0 km/h
1108 05-09-2005 05:38:02 14.6 C 9.39 g/m*3 14.6 C 0 km/h
1109 05-09-2005 05:50:01 14.5 C 9.2 g/m*3 14.5 C 0 km/h
1110 05-09-2005 06:02:02 14.3 C 9.21 g/m*3 14.3 C 0 km/h
1111 05-09-2005 06:14:02 14.1 C 9.22 g/m*3 14.1 C 0 km/h
1112 05-09-2005 06:26:01 14 C 9.29 g/m*3 14 C 0 km/h
1113 05-09-2005 06:38:01 13.8 C 9.29 g/m*3 13.8 C 0 km/h
1114 05-09-2005 06:50:02 13.7 C 9.47 g/m*3 13.7 C 0 km/h
1115 05-09-2005 07:02:02 13.5 C 9.24 g/m*3 13.5 C 0 km/h
1116 05-09-2005 07:14:02 13.6 C 9.53 g/m*3 13.6 C 0 km/h
1117 05-09-2005 07:26:02 13.4 C 9.42 g/m*3 13.4 C 0 km/h
1118 05-09-2005 07:38:02 13.4 C 9.42 g/m*3 13.4 C 0 km/h
1119 05-09-2005 07:50:02 13.5 C 9.47 g/m*3 13.5 C 0 km/h
1120 05-09-2005 08:02:02 13.6 C 9.53 g/m*3 13.6 C 0 km/h
1121 05-09-2005 08:14:02 13.7 C 9.59 g/m*3 13.7 C 0 km/h
1122 05-09-2005 08:26:02 13.8 C 9.65 g/m*3 13.8 C 0 km/h
1123 05-09-2005 08:38:02 14 C 9.65 g/m*3 14 C 0 km/h
1124 05-09-2005 08:50:02 14.4 C 9.89 g/m*3 14.4 C 0 km/h
1125 05-09-2005 09:02:01 14.6 C 10.01 g/m*3 14.6 C 0 km/h
Sensor: Nr:Datum:Temp:Abs-Feuchte:Windchill:Wind:
Aussen-T/F 1126 05-09-2005 09:14:01 14.8 C 9.88 g/m*3 14.8 C 0 km/h
1127 05-09-2005 09:26:02 15.2 C 9.86 g/m*3 15.2 C 0 km/h
1128 05-09-2005 09:38:02 15.7 C 10.03 g/m*3 15.7 C 0 km/h
1129 05-09-2005 09:50:02 16.3 C 9.99 g/m*3 16.3 C 0 km/h
1130 05-09-2005 10:02:02 16.8 C 10.01 g/m*3 16.8 C 0 km/h
1131 05-09-2005 10:14:02 17.4 C 10.08 g/m*3 17.4 C 0 km/h
1132 05-09-2005 10:26:02 18.4 C 10.07 g/m*3 18.4 C 0 km/h
1133 05-09-2005 10:38:02 18.9 C 10.21 g/m*3 18.9 C 0 km/h
1134 05-09-2005 10:50:02 19.3 C 10.12 g/m*3 19.3 C 0 km/h
1135 05-09-2005 11:02:01 19.9 C 10.31 g/m*3 19.9 C 0 km/h
1136 05-09-2005 11:14:01 20.5 C 9.96 g/m*3 20.5 C 0 km/h
1137 05-09-2005 11:26:02 21.2 C 9.45 g/m*3 21.2 C 0 km/h
1138 05-09-2005 11:38:01 21.8 C 9.59 g/m*3 21.8 C 0 km/h
1139 05-09-2005 11:50:02 22.3 C 9.48 g/m*3 22.3 C 0 km/h
1140 05-09-2005 12:02:01 22.8 C 9.55 g/m*3 22.8 C 0 km/h
1141 05-09-2005 12:14:01 23.1 C 9.3 g/m*3 23.1 C 0 km/h
1142 05-09-2005 12:26:02 23.6 C 9.15 g/m*3 23.6 C 0 km/h
1143 05-09-2005 12:38:02 24 C 8.27 g/m*3 24 C 0 km/h
1144 05-09-2005 12:50:02 24.6 C 7.65 g/m*3 24.6 C 0 km/h
1145 05-09-2005 13:02:02 24.8 C 7.28 g/m*3 24.8 C 0 km/h
1146 05-09-2005 13:14:02 25.2 C 7.45 g/m*3 25.2 C 0 km/h
1147 05-09-2005 13:26:02 26.1 C 7.1 g/m*3 26.1 C 0 km/h
1148 05-09-2005 13:38:02 26.6 C 7.55 g/m*3 26.6 C 0 km/h
1149 05-09-2005 13:50:02 27.1 C 6.47 g/m*3 27.1 C 0 km/h
1150 05-09-2005 14:02:02 27.8 C 6.99 g/m*3 27.8 C 0 km/h
Sensor: Nr:Datum:Temp:Abs-Feuchte:Windchill:Wind:
Aussen-T/F 1151 05-09-2005 14:14:02 28 C 6.25 g/m*3 28 C 0 km/h
1152 05-09-2005 14:26:03 28.6 C 6.46 g/m*3 28.6 C 0 km/h
1153 05-09-2005 14:38:02 29.3 C 6.13 g/m*3 29.3 C 0 km/h
1154 05-09-2005 14:50:02 29.8 C 6 g/m*3 29.8 C 0 km/h
1155 05-09-2005 15:02:01 30 C 6.06 g/m*3 30 C 0 km/h
1156 05-09-2005 15:14:01 30.3 C 6.16 g/m*3 30.3 C 0 km/h
1157 05-09-2005 15:26:01 30.3 C 6.16 g/m*3 30.3 C 0 km/h
1158 05-09-2005 15:38:02 30.7 C 6.3 g/m*3 30.7 C 0 km/h
1159 05-09-2005 15:50:02 30.6 C 6.26 g/m*3 30.6 C 0 km/h
1160 05-09-2005 16:02:03 30.7 C 6.3 g/m*3 30.7 C 0 km/h
1161 05-09-2005 16:14:03 30.9 C 6.37 g/m*3 30.9 C 0 km/h
1162 05-09-2005 16:26:02 31 C 6.4 g/m*3 31 C 0 km/h
1163 05-09-2005 16:38:02 30.9 C 6.37 g/m*3 30.9 C 0 km/h
1164 05-09-2005 16:50:02 31.2 C 6.47 g/m*3 31.2 C 0 km/h
1165 05-09-2005 17:02:02 31.5 C 6.57 g/m*3 31.5 C 0 km/h
1166 05-09-2005 17:14:02 31.5 C 6.57 g/m*3 31.5 C 0 km/h
1167 05-09-2005 17:26:03 31.4 C 6.54 g/m*3 31.4 C 0 km/h
1168 05-09-2005 17:38:03 31.4 C 6.54 g/m*3 31.4 C 0 km/h
1169 05-09-2005 17:50:02 31.4 C 6.54 g/m*3 31.4 C 0 km/h
1170 05-09-2005 18:02:02 31 C 6.4 g/m*3 31 C 0 km/h
1171 05-09-2005 18:14:02 31.3 C 6.83 g/m*3 31.3 C 0 km/h
1172 05-09-2005 18:26:01 30.8 C 6.65 g/m*3 30.8 C 0 km/h
1173 05-09-2005 18:38:02 31.4 C 7.52 g/m*3 31.4 C 0 km/h
1174 05-09-2005 18:50:02 31 C 8 g/m*3 31 C 0 km/h
1175 05-09-2005 19:02:03 30.4 C 8.06 g/m*3 30.4 C 0 km/h
Sensor: Nr:Datum:Temp:Abs-Feuchte:Windchill:Wind:
Aussen-T/F 1176 05-09-2005 19:14:03 29.7 C 8.06 g/m*3 29.7 C 0 km/h
1177 05-09-2005 19:26:02 28.5 C 8.11 g/m*3 28.5 C 0 km/h
1178 05-09-2005 19:38:02 27.4 C 7.89 g/m*3 27.4 C 0 km/h
1179 05-09-2005 19:50:02 25.9 C 7.99 g/m*3 25.9 C 0 km/h
1180 05-09-2005 20:02:01 25.3 C 7.73 g/m*3 25.3 C 0 km/h
1181 05-09-2005 20:14:01 24.8 C 7.97 g/m*3 24.8 C 0 km/h
1182 05-09-2005 20:26:02 24.4 C 7.79 g/m*3 24.4 C 0 km/h
1183 05-09-2005 20:38:02 23.3 C 7.95 g/m*3 23.3 C 0 km/h
1184 05-09-2005 20:50:02 22.9 C 8.38 g/m*3 22.9 C 0 km/h
1185 05-09-2005 21:02:02 22.6 C 8.24 g/m*3 22.6 C 0 km/h
1186 05-09-2005 21:14:02 22.3 C 8.29 g/m*3 22.3 C 0 km/h
1187 05-09-2005 21:26:02 21.9 C 8.49 g/m*3 21.9 C 0 km/h
1188 05-09-2005 21:38:02 21.6 C 8.53 g/m*3 21.6 C 0 km/h
1189 05-09-2005 21:50:02 21.2 C 8.52 g/m*3 21.2 C 0 km/h
1190 05-09-2005 22:02:02 20.8 C 8.51 g/m*3 20.8 C 0 km/h
1191 05-09-2005 22:14:02 20.6 C 8.77 g/m*3 20.6 C 0 km/h
1192 05-09-2005 22:26:02 20.1 C 8.69 g/m*3 20.1 C 0 km/h
1193 05-09-2005 22:38:02 19.8 C 8.88 g/m*3 19.8 C 0 km/h
1194 05-09-2005 22:50:02 19.5 C 8.73 g/m*3 19.5 C 0 km/h
1195 05-09-2005 23:02:01 19.3 C 8.79 g/m*3 19.3 C 0 km/h
1196 05-09-2005 23:14:01 19.1 C 8.69 g/m*3 19.1 C 0 km/h
1197 05-09-2005 23:26:02 18.7 C 9.13 g/m*3 18.7 C 0 km/h
1198 05-09-2005 23:38:02 18.3 C 9.07 g/m*3 18.3 C 0 km/h
1199 05-09-2005 23:50:02 18.2 C 9.17 g/m*3 18.2 C 0 km/h
1200 06-09-2005 00:02:01 17.9 C 9.31 g/m*3 17.9 C 0 km/h
Sensor: Nr:Datum:Temp:Abs-Feuchte:Windchill:Wind:
Aussen-T/F 1201 06-09-2005 00:14:01 17.6 C 9.15 g/m*3 17.6 C 0 km/h
1202 06-09-2005 00:26:02 17.5 C 9.09 g/m*3 17.5 C 0 km/h
1203 06-09-2005 00:38:02 17.3 C 9.43 g/m*3 17.3 C 0 km/h
1204 06-09-2005 00:50:02 17.2 C 9.37 g/m*3 17.2 C 0 km/h
1205 06-09-2005 01:02:02 17 C 9.12 g/m*3 17 C 0 km/h
1206 06-09-2005 01:14:02 16.8 C 9.15 g/m*3 16.8 C 0 km/h
1207 06-09-2005 01:26:02 16.5 C 9.27 g/m*3 16.5 C 0 km/h
1208 06-09-2005 01:38:02 16.4 C 9.35 g/m*3 16.4 C 0 km/h
1209 06-09-2005 01:50:02 16.2 C 9.38 g/m*3 16.2 C 0 km/h
1210 06-09-2005 02:02:02 16 C 9.4 g/m*3 16 C 0 km/h
1211 06-09-2005 02:14:02 15.9 C 9.48 g/m*3 15.9 C 0 km/h
1212 06-09-2005 02:26:02 15.7 C 9.23 g/m*3 15.7 C 0 km/h
1213 06-09-2005 02:38:02 15.4 C 9.2 g/m*3 15.4 C 0 km/h
1214 06-09-2005 02:51:04 15.4 C 9.2 g/m*3 15.4 C 0 km/h
1215 06-09-2005 03:03:04 15.4 C 9.33 g/m*3 15.4 C 0 km/h
1216 06-09-2005 03:15:04 15.2 C 9.35 g/m*3 15.2 C 0 km/h
1217 06-09-2005 03:27:04 15.1 C 9.42 g/m*3 15.1 C 0 km/h
1218 06-09-2005 03:39:02 15 C 9.36 g/m*3 15 C 0 km/h
1219 06-09-2005 03:51:02 14.9 C 9.43 g/m*3 14.9 C 0 km/h
1220 06-09-2005 04:03:02 14.8 C 9.37 g/m*3 14.8 C 0 km/h
1221 06-09-2005 04:15:03 14.7 C 9.32 g/m*3 14.7 C 0 km/h
1222 06-09-2005 04:27:03 14.6 C 9.26 g/m*3 14.6 C 0 km/h
1223 06-09-2005 04:39:02 14.4 C 9.27 g/m*3 14.4 C 0 km/h
1224 06-09-2005 04:51:02 14.2 C 9.16 g/m*3 14.2 C 0 km/h
1225 06-09-2005 05:03:02 14.2 C 9.28 g/m*3 14.2 C 0 km/h
Sensor: Nr:Datum:Temp:Abs-Feuchte:Windchill:Wind:
Aussen-T/F 1226 06-09-2005 05:15:02 14.1 C 9.34 g/m*3 14.1 C 0 km/h
1227 06-09-2005 05:27:03 13.9 C 9.35 g/m*3 13.9 C 0 km/h
1228 06-09-2005 05:39:02 13.8 C 9.41 g/m*3 13.8 C 0 km/h
1229 06-09-2005 05:51:02 13.7 C 9.35 g/m*3 13.7 C 0 km/h
1230 06-09-2005 06:03:02 13.7 C 9.24 g/m*3 13.7 C 0 km/h
1231 06-09-2005 06:15:02 13.5 C 9.24 g/m*3 13.5 C 0 km/h
1232 06-09-2005 06:27:02 13.4 C 9.18 g/m*3 13.4 C 0 km/h
1233 06-09-2005 06:39:02 13.4 C 9.18 g/m*3 13.4 C 0 km/h
1234 06-09-2005 06:51:03 13.4 C 9.3 g/m*3 13.4 C 0 km/h
1235 06-09-2005 07:03:03 13.2 C 9.19 g/m*3 13.2 C 0 km/h
1236 06-09-2005 07:15:02 13.3 C 9.36 g/m*3 13.3 C 0 km/h
1237 06-09-2005 07:27:03 13.3 C 9.36 g/m*3 13.3 C 0 km/h
1238 06-09-2005 07:39:02 13.4 C 9.42 g/m*3 13.4 C 0 km/h
1239 06-09-2005 07:51:02 13.5 C 9.47 g/m*3 13.5 C 0 km/h
1240 06-09-2005 08:03:01 13.7 C 9.47 g/m*3 13.7 C 0 km/h
1241 06-09-2005 08:15:01 13.8 C 9.53 g/m*3 13.8 C 0 km/h
1242 06-09-2005 08:27:01 14.1 C 9.59 g/m*3 14.1 C 0 km/h
1243 06-09-2005 08:39:02 14.3 C 9.58 g/m*3 14.3 C 0 km/h
1244 06-09-2005 08:51:02 14.5 C 9.7 g/m*3 14.5 C 0 km/h
1245 06-09-2005 09:03:02 14.8 C 9.75 g/m*3 14.8 C 0 km/h
1246 06-09-2005 09:15:02 15.2 C 9.73 g/m*3 15.2 C 0 km/h
1247 06-09-2005 09:27:02 15.7 C 10.03 g/m*3 15.7 C 0 km/h
1248 06-09-2005 09:39:02 16 C 9.95 g/m*3 16 C 0 km/h
1249 06-09-2005 09:51:02 16.6 C 10.17 g/m*3 16.6 C 0 km/h
1250 06-09-2005 10:03:01 17.1 C 10.34 g/m*3 17.1 C 0 km/h
Sensor: Nr:Datum:Temp:Abs-Feuchte:Windchill:Wind:
Aussen-T/F 1251 06-09-2005 10:15:02 17.8 C 10.47 g/m*3 17.8 C 0 km/h
1252 06-09-2005 10:27:02 18.4 C 10.38 g/m*3 18.4 C 0 km/h
1253 06-09-2005 10:39:01 19.1 C 10.33 g/m*3 19.1 C 0 km/h
1254 06-09-2005 10:51:02 19.8 C 10.42 g/m*3 19.8 C 0 km/h
1255 06-09-2005 11:03:01 20.1 C 10.6 g/m*3 20.1 C 0 km/h
1256 06-09-2005 11:15:02 20.3 C 10.9 g/m*3 20.3 C 0 km/h
1257 06-09-2005 11:27:02 21 C 10.99 g/m*3 21 C 0 km/h
1258 06-09-2005 11:39:02 21.5 C 11.13 g/m*3 21.5 C 0 km/h
1259 06-09-2005 11:51:02 22.5 C 10.99 g/m*3 22.5 C 0 km/h
1260 06-09-2005 12:03:02 23.7 C 11.34 g/m*3 23.7 C 0 km/h
1261 06-09-2005 12:15:02 24.2 C 11 g/m*3 24.2 C 0 km/h
1262 06-09-2005 12:27:02 24.2 C 11.66 g/m*3 24.2 C 0 km/h
1263 06-09-2005 12:39:02 24.4 C 10.9 g/m*3 24.4 C 0 km/h
1264 06-09-2005 12:51:02 25 C 11.05 g/m*3 25 C 0 km/h
1265 06-09-2005 13:03:02 25.7 C 11.01 g/m*3 25.7 C 0 km/h
1266 06-09-2005 13:15:03 26.2 C 10.83 g/m*3 26.2 C 0 km/h
1267 06-09-2005 13:27:03 27.3 C 11.25 g/m*3 27.3 C 0 km/h
1268 06-09-2005 13:39:02 28 C 10.88 g/m*3 28 C 0 km/h
1269 06-09-2005 13:51:02 28.2 C 10.17 g/m*3 28.2 C 0 km/h
1270 06-09-2005 14:03:01 28.2 C 9.9 g/m*3 28.2 C 0 km/h
1271 06-09-2005 14:15:02 28.6 C 11.24 g/m*3 28.6 C 0 km/h
1272 06-09-2005 14:27:02 29.2 C 10.74 g/m*3 29.2 C 0 km/h
1273 06-09-2005 14:39:02 28.5 C 11.46 g/m*3 28.5 C 0 km/h
1274 06-09-2005 14:51:02 27.6 C 11.71 g/m*3 27.6 C 0 km/h
1275 06-09-2005 15:03:02 27.6 C 11.44 g/m*3 27.6 C 0 km/h
Sensor: Nr:Datum:Temp:Abs-Feuchte:Windchill:Wind:
Aussen-T/F 1276 06-09-2005 15:15:02 29.3 C 10.51 g/m*3 29.3 C 0 km/h
1277 06-09-2005 15:27:02 29.9 C 9.35 g/m*3 29.9 C 0 km/h
1278 06-09-2005 15:39:02 30 C 9.7 g/m*3 30 C 0 km/h
1279 06-09-2005 15:51:02 30.6 C 9.71 g/m*3 30.6 C 0 km/h
1280 06-09-2005 16:03:02 31.3 C 9.11 g/m*3 31.3 C 0 km/h
1281 06-09-2005 16:15:02 31.9 C 8.73 g/m*3 31.9 C 0 km/h
1282 06-09-2005 16:27:02 31.9 C 8.06 g/m*3 31.9 C 0 km/h
1283 06-09-2005 16:39:03 32.1 C 8.82 g/m*3 32.1 C 0 km/h
1284 06-09-2005 16:51:02 30.8 C 9.5 g/m*3 30.8 C 0 km/h
1285 06-09-2005 17:03:02 30 C 10.31 g/m*3 30 C 0 km/h
1286 06-09-2005 17:15:03 30.3 C 10.48 g/m*3 30.3 C 0 km/h
1287 06-09-2005 17:27:03 30.7 C 9.76 g/m*3 30.7 C 0 km/h
1288 06-09-2005 17:39:02 30.3 C 9.86 g/m*3 30.3 C 0 km/h
1289 06-09-2005 17:51:02 29.3 C 10.51 g/m*3 29.3 C 0 km/h
1290 06-09-2005 18:03:01 28.7 C 11.3 g/m*3 28.7 C 0 km/h
1291 06-09-2005 18:15:02 29.8 C 10.2 g/m*3 29.8 C 0 km/h
1292 06-09-2005 18:27:02 29.8 C 11.1 g/m*3 29.8 C 0 km/h
1293 06-09-2005 18:39:02 28.3 C 11.33 g/m*3 28.3 C 0 km/h
1294 06-09-2005 18:51:02 27 C 11.32 g/m*3 27 C 0 km/h
1295 06-09-2005 19:03:02 26.3 C 11.14 g/m*3 26.3 C 0 km/h
1296 06-09-2005 19:15:02 25.4 C 10.83 g/m*3 25.4 C 0 km/h
1297 06-09-2005 19:27:02 25.4 C 11.06 g/m*3 25.4 C 0 km/h
1298 06-09-2005 19:39:02 24.8 C 11.15 g/m*3 24.8 C 0 km/h
1299 06-09-2005 19:51:02 24.2 C 11 g/m*3 24.2 C 0 km/h
1300 06-09-2005 20:03:02 23.8 C 11.19 g/m*3 23.8 C 0 km/h
Sensor: Nr:Datum:Temp:Abs-Feuchte:Windchill:Wind:
Aussen-T/F 1301 06-09-2005 20:15:02 23.4 C 10.93 g/m*3 23.4 C 0 km/h
1302 06-09-2005 20:27:02 23.3 C 11.08 g/m*3 23.3 C 0 km/h
1303 06-09-2005 20:39:02 22.9 C 11.44 g/m*3 22.9 C 0 km/h
1304 06-09-2005 20:51:02 22.7 C 11.11 g/m*3 22.7 C 0 km/h
1305 06-09-2005 21:03:01 22.7 C 11.11 g/m*3 22.7 C 0 km/h
1306 06-09-2005 21:15:01 22.5 C 11.19 g/m*3 22.5 C 0 km/h
1307 06-09-2005 21:27:01 22.3 C 11.45 g/m*3 22.3 C 0 km/h
1308 06-09-2005 21:39:02 22.3 C 11.26 g/m*3 22.3 C 0 km/h
1309 06-09-2005 21:51:03 21.9 C 11.39 g/m*3 21.9 C 0 km/h
1310 06-09-2005 22:03:02 21.9 C 11.39 g/m*3 21.9 C 0 km/h
1311 06-09-2005 22:15:02 21.5 C 11.31 g/m*3 21.5 C 0 km/h
1312 06-09-2005 22:27:02 21.2 C 11.3 g/m*3 21.2 C 0 km/h
1313 06-09-2005 22:39:03 20.9 C 11.66 g/m*3 20.9 C 0 km/h
1314 06-09-2005 22:51:02 20.7 C 11.34 g/m*3 20.7 C 0 km/h
1315 06-09-2005 23:03:02 20.5 C 11.39 g/m*3 20.5 C 0 km/h
1316 06-09-2005 23:15:02 20.4 C 11.32 g/m*3 20.4 C 0 km/h
1317 06-09-2005 23:27:02 20.3 C 11.43 g/m*3 20.3 C 0 km/h
1318 06-09-2005 23:39:02 20.2 C 11.71 g/m*3 20.2 C 0 km/h
1319 06-09-2005 23:51:03 20 C 11.41 g/m*3 20 C 0 km/h
1320 07-09-2005 00:03:02 19.8 C 11.61 g/m*3 19.8 C 0 km/h
1321 07-09-2005 00:15:03 19.5 C 11.41 g/m*3 19.5 C 0 km/h
1322 07-09-2005 00:27:04 19.4 C 11.51 g/m*3 19.4 C 0 km/h
1323 07-09-2005 00:39:03 19.2 C 11.71 g/m*3 19.2 C 0 km/h
1324 07-09-2005 00:51:02 18.9 C 11.66 g/m*3 18.9 C 0 km/h
1325 07-09-2005 01:03:02 18.9 C 11.66 g/m*3 18.9 C 0 km/h
Sensor: Nr:Datum:Temp:Abs-Feuchte:Windchill:Wind:
Aussen-T/F 1326 07-09-2005 01:15:02 18.7 C 11.69 g/m*3 18.7 C 0 km/h
1327 07-09-2005 01:27:03 18.5 C 11.55 g/m*3 18.5 C 0 km/h
1328 07-09-2005 01:39:02 18.4 C 11.64 g/m*3 18.4 C 0 km/h
1329 07-09-2005 01:51:03 18.2 C 11.66 g/m*3 18.2 C 0 km/h
1330 07-09-2005 02:03:02 18.1 C 11.59 g/m*3 18.1 C 0 km/h
1331 07-09-2005 02:15:03 18.1 C 11.74 g/m*3 18.1 C 0 km/h
1332 07-09-2005 02:27:03 18 C 11.67 g/m*3 18 C 0 km/h
1333 07-09-2005 02:39:03 17.9 C 11.76 g/m*3 17.9 C 0 km/h
1334 07-09-2005 02:52:04 17.6 C 11.55 g/m*3 17.6 C 0 km/h
1335 07-09-2005 03:04:04 17.5 C 11.63 g/m*3 17.5 C 0 km/h
1336 07-09-2005 03:16:03 17.3 C 11.64 g/m*3 17.3 C 0 km/h
1337 07-09-2005 03:28:03 17.1 C 11.5 g/m*3 17.1 C 0 km/h
1338 07-09-2005 03:40:02 17.1 C 11.65 g/m*3 17.1 C 0 km/h
1339 07-09-2005 03:52:02 17 C 11.43 g/m*3 17 C 0 km/h
1340 07-09-2005 04:04:02 16.8 C 11.44 g/m*3 16.8 C 0 km/h
1341 07-09-2005 04:16:01 16.7 C 11.51 g/m*3 16.7 C 0 km/h
1342 07-09-2005 04:28:01 16.5 C 11.51 g/m*3 16.5 C 0 km/h
1343 07-09-2005 04:40:01 16.4 C 11.45 g/m*3 16.4 C 0 km/h
1344 07-09-2005 04:52:02 16.3 C 11.52 g/m*3 16.3 C 0 km/h
1345 07-09-2005 05:04:02 16.2 C 11.45 g/m*3 16.2 C 0 km/h
1346 07-09-2005 05:16:02 16 C 11.31 g/m*3 16 C 0 km/h
1347 07-09-2005 05:28:02 16 C 11.31 g/m*3 16 C 0 km/h
1348 07-09-2005 05:40:02 15.9 C 11.38 g/m*3 15.9 C 0 km/h
1349 07-09-2005 05:52:02 15.7 C 11.37 g/m*3 15.7 C 0 km/h
1350 07-09-2005 06:04:02 15.5 C 11.1 g/m*3 15.5 C 0 km/h
Sensor: Nr:Datum:Temp:Abs-Feuchte:Windchill:Wind:
Aussen-T/F 1351 07-09-2005 06:16:02 15.3 C 10.97 g/m*3 15.3 C 0 km/h
1352 07-09-2005 06:28:02 15.4 C 11.04 g/m*3 15.4 C 0 km/h
1353 07-09-2005 06:40:02 15.4 C 11.17 g/m*3 15.4 C 0 km/h
1354 07-09-2005 06:52:02 15.4 C 11.17 g/m*3 15.4 C 0 km/h
1355 07-09-2005 07:04:02 15.2 C 11.03 g/m*3 15.2 C 0 km/h
1356 07-09-2005 07:16:01 15.1 C 10.97 g/m*3 15.1 C 0 km/h
1357 07-09-2005 07:28:01 15.1 C 10.97 g/m*3 15.1 C 0 km/h
1358 07-09-2005 07:40:02 15.1 C 10.97 g/m*3 15.1 C 0 km/h
1359 07-09-2005 07:52:03 15.5 C 11.24 g/m*3 15.5 C 0 km/h
1360 07-09-2005 08:04:02 15.4 C 11.17 g/m*3 15.4 C 0 km/h
1361 07-09-2005 08:16:02 15.5 C 11.37 g/m*3 15.5 C 0 km/h
1362 07-09-2005 08:28:02 15.6 C 11.44 g/m*3 15.6 C 0 km/h
1363 07-09-2005 08:40:03 15.5 C 11.5 g/m*3 15.5 C 0 km/h
1364 07-09-2005 08:52:02 15.8 C 11.71 g/m*3 15.8 C 0 km/h
1365 07-09-2005 09:04:02 16.2 C 11.86 g/m*3 16.2 C 0 km/h
1366 07-09-2005 09:16:02 16.5 C 12.08 g/m*3 16.5 C 0 km/h
1367 07-09-2005 09:28:02 16.7 C 12.08 g/m*3 16.7 C 0 km/h
1368 07-09-2005 09:40:02 17.2 C 12.3 g/m*3 17.2 C 0 km/h
1369 07-09-2005 09:52:01 17.7 C 12.37 g/m*3 17.7 C 0 km/h
1370 07-09-2005 10:04:02 18.2 C 12.43 g/m*3 18.2 C 0 km/h
1371 07-09-2005 10:16:02 18.8 C 12.72 g/m*3 18.8 C 0 km/h
1372 07-09-2005 10:28:02 19.4 C 12.51 g/m*3 19.4 C 0 km/h
1373 07-09-2005 10:40:02 20.1 C 12.69 g/m*3 20.1 C 0 km/h
1374 07-09-2005 10:52:02 20.8 C 12.67 g/m*3 20.8 C 0 km/h
1375 07-09-2005 11:04:02 21.3 C 12.49 g/m*3 21.3 C 0 km/h
Sensor: Nr:Datum:Temp:Abs-Feuchte:Windchill:Wind:
Aussen-T/F 1376 07-09-2005 11:16:02 21.8 C 12.66 g/m*3 21.8 C 0 km/h
1377 07-09-2005 11:28:02 22.5 C 12.38 g/m*3 22.5 C 0 km/h
1378 07-09-2005 11:40:02 22.9 C 12.88 g/m*3 22.9 C 0 km/h
1379 07-09-2005 11:52:02 23.4 C 12.41 g/m*3 23.4 C 0 km/h
1380 07-09-2005 12:04:01 23.9 C 12.98 g/m*3 23.9 C 0 km/h
1381 07-09-2005 12:16:02 24.6 C 12.38 g/m*3 24.6 C 0 km/h
1382 07-09-2005 12:28:02 25.1 C 12.5 g/m*3 25.1 C 0 km/h
1383 07-09-2005 12:40:02 25.2 C 12.57 g/m*3 25.2 C 0 km/h
1384 07-09-2005 12:52:02 25.7 C 11.49 g/m*3 25.7 C 0 km/h
1385 07-09-2005 13:04:02 26.1 C 11.75 g/m*3 26.1 C 0 km/h
1386 07-09-2005 13:16:02 26.5 C 10.01 g/m*3 26.5 C 0 km/h
1387 07-09-2005 13:28:02 27.3 C 9.16 g/m*3 27.3 C 0 km/h
1388 07-09-2005 13:40:02 28.4 C 6.95 g/m*3 28.4 C 0 km/h
1389 07-09-2005 13:52:02 29.1 C 8.66 g/m*3 29.1 C 0 km/h
1390 07-09-2005 14:04:02 29.6 C 7.72 g/m*3 29.6 C 0 km/h
1391 07-09-2005 14:16:03 30.3 C 8.01 g/m*3 30.3 C 0 km/h
1392 07-09-2005 14:28:03 30.4 C 6.82 g/m*3 30.4 C 0 km/h
1393 07-09-2005 14:40:02 30.6 C 6.26 g/m*3 30.6 C 0 km/h
1394 07-09-2005 14:52:02 31 C 6.4 g/m*3 31 C 0 km/h
1395 07-09-2005 15:04:01 31.1 C 6.43 g/m*3 31.1 C 0 km/h
1396 07-09-2005 15:16:02 31.3 C 6.5 g/m*3 31.3 C 0 km/h
1397 07-09-2005 15:28:02 31.9 C 6.72 g/m*3 31.9 C 0 km/h
1398 07-09-2005 15:40:02 32.4 C 6.9 g/m*3 32.4 C 0 km/h
1399 07-09-2005 15:52:02 32.6 C 6.97 g/m*3 32.6 C 0 km/h
1400 07-09-2005 16:04:02 32.5 C 6.93 g/m*3 32.5 C 0 km/h
Sensor: Nr:Datum:Temp:Abs-Feuchte:Windchill:Wind:
Aussen-T/F 1401 07-09-2005 16:16:02 32.9 C 7.08 g/m*3 32.9 C 0 km/h
1402 07-09-2005 16:28:02 32.6 C 6.97 g/m*3 32.6 C 0 km/h
1403 07-09-2005 16:40:02 32.8 C 7.04 g/m*3 32.8 C 0 km/h
1404 07-09-2005 16:52:02 33.1 C 7.16 g/m*3 33.1 C 0 km/h
1405 07-09-2005 17:04:02 32.7 C 7.01 g/m*3 32.7 C 0 km/h
1406 07-09-2005 17:16:03 33 C 7.12 g/m*3 33 C 0 km/h
1407 07-09-2005 17:28:03 33.1 C 7.16 g/m*3 33.1 C 0 km/h
1408 07-09-2005 17:40:02 33 C 7.12 g/m*3 33 C 0 km/h
1409 07-09-2005 17:52:01 32.9 C 7.08 g/m*3 32.9 C 0 km/h
1410 07-09-2005 18:04:02 32.8 C 7.04 g/m*3 32.8 C 0 km/h
1411 07-09-2005 18:16:02 32.5 C 6.93 g/m*3 32.5 C 0 km/h
1412 07-09-2005 18:28:02 32.1 C 7.13 g/m*3 32.1 C 0 km/h
1413 07-09-2005 18:40:01 31.2 C 7.44 g/m*3 31.2 C 0 km/h
1414 07-09-2005 18:52:02 30.6 C 7.83 g/m*3 30.6 C 0 km/h
1415 07-09-2005 19:04:01 30.1 C 8.23 g/m*3 30.1 C 0 km/h
1416 07-09-2005 19:16:02 29.5 C 7.97 g/m*3 29.5 C 0 km/h
1417 07-09-2005 19:28:02 28.5 C 7.55 g/m*3 28.5 C 0 km/h
1418 07-09-2005 19:40:02 27.6 C 7.71 g/m*3 27.6 C 0 km/h
1419 07-09-2005 19:52:02 26.7 C 8.1 g/m*3 26.7 C 0 km/h
1420 07-09-2005 20:04:02 25.9 C 8.23 g/m*3 25.9 C 0 km/h
1421 07-09-2005 20:16:03 25.5 C 7.58 g/m*3 25.5 C 0 km/h
1422 07-09-2005 20:28:03 25 C 8.06 g/m*3 25 C 0 km/h
1423 07-09-2005 20:40:02 24.5 C 8.28 g/m*3 24.5 C 0 km/h
1424 07-09-2005 20:52:02 24.2 C 8.36 g/m*3 24.2 C 0 km/h
1425 07-09-2005 21:04:01 24.1 C 8.53 g/m*3 24.1 C 0 km/h
Sensor: Nr:Datum:Temp:Abs-Feuchte:Windchill:Wind:
Aussen-T/F 1426 07-09-2005 21:16:02 24 C 8.7 g/m*3 24 C 0 km/h
1427 07-09-2005 21:28:02 23.7 C 9.41 g/m*3 23.7 C 0 km/h
1428 07-09-2005 21:40:01 23.5 C 9.94 g/m*3 23.5 C 0 km/h
1429 07-09-2005 21:52:02 23.2 C 10.19 g/m*3 23.2 C 0 km/h
1430 07-09-2005 22:04:01 23 C 10.48 g/m*3 23 C 0 km/h
1431 07-09-2005 22:16:02 22.7 C 11.11 g/m*3 22.7 C 0 km/h
1432 07-09-2005 22:28:02 22.3 C 10.66 g/m*3 22.3 C 0 km/h
1433 07-09-2005 22:40:02 22 C 11.26 g/m*3 22 C 0 km/h
1434 07-09-2005 22:52:02 22 C 11.06 g/m*3 22 C 0 km/h
1435 07-09-2005 23:04:02 22.1 C 11.91 g/m*3 22.1 C 0 km/h
1436 07-09-2005 23:16:02 21.8 C 12.09 g/m*3 21.8 C 0 km/h
1437 07-09-2005 23:28:02 21.7 C 12.02 g/m*3 21.7 C 0 km/h
1438 07-09-2005 23:40:02 21.6 C 11.76 g/m*3 21.6 C 0 km/h
1439 07-09-2005 23:52:01 21.3 C 11.93 g/m*3 21.3 C 0 km/h
1440 08-09-2005 00:04:01 21.2 C 11.68 g/m*3 21.2 C 0 km/h
1441 08-09-2005 00:16:03 21 C 11.54 g/m*3 21 C 0 km/h
1442 08-09-2005 00:28:03 20.8 C 11.77 g/m*3 20.8 C 0 km/h
1443 08-09-2005 00:40:02 20.6 C 11.45 g/m*3 20.6 C 0 km/h
1444 08-09-2005 00:52:02 20.5 C 11.57 g/m*3 20.5 C 0 km/h
1445 08-09-2005 01:04:02 20.3 C 11.43 g/m*3 20.3 C 0 km/h
1446 08-09-2005 01:16:02 19.9 C 11.51 g/m*3 19.9 C 0 km/h
1447 08-09-2005 01:28:02 19.8 C 11.79 g/m*3 19.8 C 0 km/h
1448 08-09-2005 01:40:02 19.8 C 11.79 g/m*3 19.8 C 0 km/h
1449 08-09-2005 01:52:03 19.7 C 11.72 g/m*3 19.7 C 0 km/h
1450 08-09-2005 02:04:03 19.5 C 11.58 g/m*3 19.5 C 0 km/h
Sensor: Nr:Datum:Temp:Abs-Feuchte:Windchill:Wind:
Aussen-T/F 1451 08-09-2005 02:16:02 19.3 C 11.78 g/m*3 19.3 C 0 km/h
1452 08-09-2005 02:28:02 19.3 C 11.78 g/m*3 19.3 C 0 km/h
1453 08-09-2005 02:40:02 19.3 C 11.78 g/m*3 19.3 C 0 km/h
1454 08-09-2005 02:53:04 19.3 C 11.78 g/m*3 19.3 C 0 km/h
1455 08-09-2005 03:05:04 18.7 C 11.85 g/m*3 18.7 C 0 km/h
1456 08-09-2005 03:17:04 18.7 C 11.85 g/m*3 18.7 C 0 km/h
1457 08-09-2005 03:29:04 18.7 C 11.85 g/m*3 18.7 C 0 km/h
1458 08-09-2005 03:41:02 18.7 C 11.85 g/m*3 18.7 C 0 km/h
1459 08-09-2005 03:53:02 18.7 C 11.85 g/m*3 18.7 C 0 km/h
1460 08-09-2005 04:05:02 17.9 C 11.76 g/m*3 17.9 C 0 km/h
1461 08-09-2005 04:17:02 17.9 C 11.76 g/m*3 17.9 C 0 km/h
1462 08-09-2005 04:29:02 17.6 C 11.7 g/m*3 17.6 C 0 km/h
1463 08-09-2005 04:41:01 17.4 C 11.71 g/m*3 17.4 C 0 km/h
1464 08-09-2005 04:53:02 17.4 C 11.71 g/m*3 17.4 C 0 km/h
1465 08-09-2005 05:05:02 17.2 C 11.57 g/m*3 17.2 C 0 km/h
1466 08-09-2005 05:17:02 17.2 C 11.57 g/m*3 17.2 C 0 km/h
1467 08-09-2005 05:29:02 17.1 C 11.5 g/m*3 17.1 C 0 km/h
1468 08-09-2005 05:41:02 17 C 11.43 g/m*3 17 C 0 km/h
1469 08-09-2005 05:53:02 17 C 11.43 g/m*3 17 C 0 km/h
1470 08-09-2005 06:05:03 17 C 11.43 g/m*3 17 C 0 km/h
1471 08-09-2005 06:17:02 17 C 11.43 g/m*3 17 C 0 km/h
1472 08-09-2005 06:29:02 17 C 11.43 g/m*3 17 C 0 km/h
1473 08-09-2005 06:41:02 16.3 C 11.38 g/m*3 16.3 C 0 km/h
1474 08-09-2005 06:53:02 16.2 C 11.31 g/m*3 16.2 C 0 km/h
1475 08-09-2005 07:05:02 16.2 C 11.31 g/m*3 16.2 C 0 km/h
Sensor: Nr:Datum:Temp:Abs-Feuchte:Windchill:Wind:
Aussen-T/F 1476 08-09-2005 07:17:03 16.3 C 11.52 g/m*3 16.3 C 0 km/h
1477 08-09-2005 07:29:03 16.2 C 11.45 g/m*3 16.2 C 0 km/h
1478 08-09-2005 07:41:02 16.1 C 11.38 g/m*3 16.1 C 0 km/h
1479 08-09-2005 07:53:02 16.2 C 11.45 g/m*3 16.2 C 0 km/h
1480 08-09-2005 08:05:01 16.3 C 11.52 g/m*3 16.3 C 0 km/h
1481 08-09-2005 08:17:02 16.3 C 11.65 g/m*3 16.3 C 0 km/h
1482 08-09-2005 08:29:02 16.4 C 11.58 g/m*3 16.4 C 0 km/h
1483 08-09-2005 08:41:02 16.6 C 11.72 g/m*3 16.6 C 0 km/h
1484 08-09-2005 08:53:02 16.8 C 12.01 g/m*3 16.8 C 0 km/h
1485 08-09-2005 09:05:02 17.1 C 12.08 g/m*3 17.1 C 0 km/h
1486 08-09-2005 09:17:03 17.3 C 12.08 g/m*3 17.3 C 0 km/h
1487 08-09-2005 09:29:03 17.8 C 12.29 g/m*3 17.8 C 0 km/h
1488 08-09-2005 09:41:02 18.2 C 12.28 g/m*3 18.2 C 0 km/h
1489 08-09-2005 09:53:01 18.7 C 12.33 g/m*3 18.7 C 0 km/h
1490 08-09-2005 10:05:02 19.2 C 12.37 g/m*3 19.2 C 0 km/h
1491 08-09-2005 10:17:01 19.8 C 12.3 g/m*3 19.8 C 0 km/h
1492 08-09-2005 10:29:01 20.6 C 12.53 g/m*3 20.6 C 0 km/h
1493 08-09-2005 10:41:02 21.1 C 12.71 g/m*3 21.1 C 0 km/h
1494 08-09-2005 10:53:02 21.5 C 12.63 g/m*3 21.5 C 0 km/h
1495 08-09-2005 11:05:02 22 C 12.81 g/m*3 22 C 0 km/h
1496 08-09-2005 11:17:02 22.7 C 12.93 g/m*3 22.7 C 0 km/h
1497 08-09-2005 11:29:02 23.4 C 12.41 g/m*3 23.4 C 0 km/h
1498 08-09-2005 11:41:02 23.7 C 12.62 g/m*3 23.7 C 0 km/h
1499 08-09-2005 11:53:02 24.6 C 12.83 g/m*3 24.6 C 0 km/h
1500 08-09-2005 12:05:02 25.4 C 12.01 g/m*3 25.4 C 0 km/h
Sensor: Nr:Datum:Temp:Abs-Feuchte:Windchill:Wind:
Aussen-T/F 1501 08-09-2005 12:17:02 26.1 C 12 g/m*3 26.1 C 0 km/h
1502 08-09-2005 12:29:02 26.5 C 12.02 g/m*3 26.5 C 0 km/h
1503 08-09-2005 12:41:02 26.5 C 12.27 g/m*3 26.5 C 0 km/h
1504 08-09-2005 12:53:01 27 C 11.84 g/m*3 27 C 0 km/h
1505 08-09-2005 13:05:01 27.4 C 11.84 g/m*3 27.4 C 0 km/h
1506 08-09-2005 13:17:02 28 C 11.69 g/m*3 28 C 0 km/h
1507 08-09-2005 13:29:02 28.6 C 10.96 g/m*3 28.6 C 0 km/h
1508 08-09-2005 13:41:01 29 C 11.49 g/m*3 29 C 0 km/h
1509 08-09-2005 13:53:02 29.3 C 11.39 g/m*3 29.3 C 0 km/h
1510 08-09-2005 14:05:02 29.4 C 11.45 g/m*3 29.4 C 0 km/h
1511 08-09-2005 14:17:02 29.4 C 11.45 g/m*3 29.4 C 0 km/h
1512 08-09-2005 14:29:02 30 C 11.83 g/m*3 30 C 0 km/h
1513 08-09-2005 14:41:02 30.7 C 11.02 g/m*3 30.7 C 0 km/h
1514 08-09-2005 14:53:02 31.2 C 9.7 g/m*3 31.2 C 0 km/h
1515 08-09-2005 15:05:02 31.3 C 9.76 g/m*3 31.3 C 0 km/h
1516 08-09-2005 15:17:02 29.7 C 11.34 g/m*3 29.7 C 0 km/h
1517 08-09-2005 15:29:02 28.6 C 11.24 g/m*3 28.6 C 0 km/h
1518 08-09-2005 15:41:02 29.6 C 10.68 g/m*3 29.6 C 0 km/h
1519 08-09-2005 15:53:02 28.5 C 11.18 g/m*3 28.5 C 0 km/h
1520 08-09-2005 16:05:01 28.8 C 11.08 g/m*3 28.8 C 0 km/h
1521 08-09-2005 16:17:02 28.2 C 11.27 g/m*3 28.2 C 0 km/h
1522 08-09-2005 16:29:02 30.1 C 10.67 g/m*3 30.1 C 0 km/h
1523 08-09-2005 16:41:02 31.3 C 10.08 g/m*3 31.3 C 0 km/h
1524 08-09-2005 16:53:02 31.9 C 9.4 g/m*3 31.9 C 0 km/h
1525 08-09-2005 17:05:02 31.8 C 9.02 g/m*3 31.8 C 0 km/h
Sensor: Nr:Datum:Temp:Abs-Feuchte:Windchill:Wind:
Aussen-T/F 1526 08-09-2005 17:17:02 31.8 C 9.35 g/m*3 31.8 C 0 km/h
1527 08-09-2005 17:29:02 32.4 C 8.97 g/m*3 32.4 C 0 km/h
1528 08-09-2005 17:41:03 32.6 C 8.71 g/m*3 32.6 C 0 km/h
1529 08-09-2005 17:53:02 32.7 C 8.41 g/m*3 32.7 C 0 km/h
1530 08-09-2005 18:05:02 32.7 C 8.41 g/m*3 32.7 C 0 km/h
1531 08-09-2005 18:17:02 32.7 C 8.76 g/m*3 32.7 C 0 km/h
1532 08-09-2005 18:29:02 32.5 C 8.67 g/m*3 32.5 C 0 km/h
1533 08-09-2005 18:41:02 32.1 C 9.16 g/m*3 32.1 C 0 km/h
1534 08-09-2005 18:53:02 31.8 C 9.02 g/m*3 31.8 C 0 km/h
1535 08-09-2005 19:05:02 30.6 C 9.08 g/m*3 30.6 C 0 km/h
1536 08-09-2005 19:17:02 29.3 C 10.22 g/m*3 29.3 C 0 km/h
1537 08-09-2005 19:29:02 28.7 C 10.46 g/m*3 28.7 C 0 km/h
1538 08-09-2005 19:41:02 28 C 10.88 g/m*3 28 C 0 km/h
1539 08-09-2005 19:53:02 27.1 C 11.13 g/m*3 27.1 C 0 km/h
1540 08-09-2005 20:05:02 26.5 C 11.01 g/m*3 26.5 C 0 km/h
1541 08-09-2005 20:17:03 26 C 10.96 g/m*3 26 C 0 km/h
1542 08-09-2005 20:29:03 25.8 C 12.04 g/m*3 25.8 C 0 km/h
1543 08-09-2005 20:41:02 25.1 C 12.04 g/m*3 25.1 C 0 km/h
1544 08-09-2005 20:53:02 24.7 C 12 g/m*3 24.7 C 0 km/h
1545 08-09-2005 21:05:01 24.3 C 11.95 g/m*3 24.3 C 0 km/h
1546 08-09-2005 21:17:02 23.8 C 11.83 g/m*3 23.8 C 0 km/h
1547 08-09-2005 21:29:02 23.9 C 11.47 g/m*3 23.9 C 0 km/h
1548 08-09-2005 21:41:02 23.8 C 12.05 g/m*3 23.8 C 0 km/h
1549 08-09-2005 21:53:02 23.8 C 11.83 g/m*3 23.8 C 0 km/h
1550 08-09-2005 22:05:02 23.5 C 11.63 g/m*3 23.5 C 0 km/h
Sensor: Nr:Datum:Temp:Abs-Feuchte:Windchill:Wind:
Aussen-T/F 1551 08-09-2005 22:17:02 23.5 C 11.84 g/m*3 23.5 C 0 km/h
1552 08-09-2005 22:29:02 23.3 C 11.71 g/m*3 23.3 C 0 km/h
1553 08-09-2005 22:41:02 23.1 C 11.78 g/m*3 23.1 C 0 km/h
1554 08-09-2005 22:53:02 22.7 C 12.12 g/m*3 22.7 C 0 km/h
1555 08-09-2005 23:05:01 22.3 C 12.05 g/m*3 22.3 C 0 km/h
1556 08-09-2005 23:17:02 22 C 12.03 g/m*3 22 C 0 km/h
1557 08-09-2005 23:29:02 21.6 C 12.14 g/m*3 21.6 C 0 km/h
1558 08-09-2005 23:41:01 21.4 C 12 g/m*3 21.4 C 0 km/h
1559 08-09-2005 23:53:02 21.3 C 12.12 g/m*3 21.3 C 0 km/h
1560 09-09-2005 00:05:01 21 C 12.09 g/m*3 21 C 0 km/h
1561 09-09-2005 00:17:03 20.8 C 12.31 g/m*3 20.8 C 0 km/h
1562 09-09-2005 00:29:03 20.6 C 12.17 g/m*3 20.6 C 0 km/h
1563 09-09-2005 00:41:02 20.5 C 12.1 g/m*3 20.5 C 0 km/h
1564 09-09-2005 00:53:02 20.3 C 12.31 g/m*3 20.3 C 0 km/h
1565 09-09-2005 01:05:02 20 C 12.1 g/m*3 20 C 0 km/h
1566 09-09-2005 01:17:02 19.8 C 12.47 g/m*3 19.8 C 0 km/h
1567 09-09-2005 01:29:02 19.7 C 12.4 g/m*3 19.7 C 0 km/h
1568 09-09-2005 01:41:02 19.4 C 12.35 g/m*3 19.4 C 0 km/h
1569 09-09-2005 01:53:02 19.2 C 12.2 g/m*3 19.2 C 0 km/h
1570 09-09-2005 02:05:01 19.2 C 12.2 g/m*3 19.2 C 0 km/h
1571 09-09-2005 02:17:02 19 C 12.22 g/m*3 19 C 0 km/h
1572 09-09-2005 02:29:02 18.8 C 12.4 g/m*3 18.8 C 0 km/h
1573 09-09-2005 02:41:02 18.7 C 12.65 g/m*3 18.7 C 0 km/h
1574 09-09-2005 02:54:03 18.5 C 12.5 g/m*3 18.5 C 0 km/h
1575 09-09-2005 03:06:03 18.3 C 12.51 g/m*3 18.3 C 0 km/h
Sensor: Nr:Datum:Temp:Abs-Feuchte:Windchill:Wind:
Aussen-T/F 1576 09-09-2005 03:18:03 18.3 C 12.66 g/m*3 18.3 C 0 km/h
1577 09-09-2005 03:30:03 18.2 C 12.43 g/m*3 18.2 C 0 km/h
1578 09-09-2005 03:42:02 18 C 12.13 g/m*3 18 C 0 km/h
1579 09-09-2005 03:54:02 18.1 C 12.36 g/m*3 18.1 C 0 km/h
1580 09-09-2005 04:06:02 18.1 C 12.36 g/m*3 18.1 C 0 km/h
1581 09-09-2005 04:18:02 18.1 C 12.36 g/m*3 18.1 C 0 km/h
1582 09-09-2005 04:30:02 18.2 C 12.28 g/m*3 18.2 C 0 km/h
1583 09-09-2005 04:42:02 18.2 C 12.43 g/m*3 18.2 C 0 km/h
1584 09-09-2005 04:54:03 17.9 C 12.67 g/m*3 17.9 C 0 km/h
1585 09-09-2005 05:06:02 18.1 C 12.52 g/m*3 18.1 C 0 km/h
1586 09-09-2005 05:18:02 18 C 12.29 g/m*3 18 C 0 km/h
1587 09-09-2005 05:30:02 18.1 C 12.52 g/m*3 18.1 C 0 km/h
1588 09-09-2005 05:42:02 18.1 C 12.52 g/m*3 18.1 C 0 km/h
1589 09-09-2005 05:54:02 17.9 C 12.37 g/m*3 17.9 C 0 km/h
1590 09-09-2005 06:06:01 17.6 C 12.15 g/m*3 17.6 C 0 km/h
1591 09-09-2005 06:18:01 17.3 C 12.08 g/m*3 17.3 C 0 km/h
1592 09-09-2005 06:30:01 17.2 C 12.15 g/m*3 17.2 C 0 km/h
1593 09-09-2005 06:42:02 17 C 12.01 g/m*3 17 C 0 km/h
1594 09-09-2005 06:54:02 16.9 C 12.08 g/m*3 16.9 C 0 km/h
1595 09-09-2005 07:06:02 16.9 C 12.08 g/m*3 16.9 C 0 km/h
1596 09-09-2005 07:18:02 16.7 C 12.22 g/m*3 16.7 C 0 km/h
1597 09-09-2005 07:30:02 16.7 C 12.22 g/m*3 16.7 C 0 km/h
1598 09-09-2005 07:42:02 16.7 C 12.22 g/m*3 16.7 C 0 km/h
1599 09-09-2005 07:54:02 16.6 C 12.43 g/m*3 16.6 C 0 km/h
1600 09-09-2005 08:06:01 16.7 C 12.51 g/m*3 16.7 C 0 km/h
Sensor: Nr:Datum:Temp:Abs-Feuchte:Windchill:Wind:
Aussen-T/F 1601 09-09-2005 08:18:02 17 C 12.59 g/m*3 17 C 0 km/h
1602 09-09-2005 08:30:02 16.9 C 12.51 g/m*3 16.9 C 0 km/h
1603 09-09-2005 08:42:02 17 C 12.44 g/m*3 17 C 0 km/h
1604 09-09-2005 08:54:02 17.4 C 12.75 g/m*3 17.4 C 0 km/h
1605 09-09-2005 09:06:02 17.7 C 12.82 g/m*3 17.7 C 0 km/h
1606 09-09-2005 09:18:02 17.9 C 12.83 g/m*3 17.9 C 0 km/h
1607 09-09-2005 09:30:02 18.2 C 12.75 g/m*3 18.2 C 0 km/h
1608 09-09-2005 09:42:02 18.8 C 12.88 g/m*3 18.8 C 0 km/h
1609 09-09-2005 09:54:01 19.1 C 12.79 g/m*3 19.1 C 0 km/h
1610 09-09-2005 10:06:02 19.3 C 12.77 g/m*3 19.3 C 0 km/h
1611 09-09-2005 10:18:01 19.9 C 13.23 g/m*3 19.9 C 0 km/h
1612 09-09-2005 10:30:01 20.4 C 13.27 g/m*3 20.4 C 0 km/h
1613 09-09-2005 10:42:01 21 C 13.19 g/m*3 21 C 0 km/h
1614 09-09-2005 10:54:02 21.6 C 13.28 g/m*3 21.6 C 0 km/h
1615 09-09-2005 11:06:02 21.9 C 13.12 g/m*3 21.9 C 0 km/h
1616 09-09-2005 11:18:03 22.5 C 13.38 g/m*3 22.5 C 0 km/h
1617 09-09-2005 11:30:03 22.8 C 12.4 g/m*3 22.8 C 0 km/h
1618 09-09-2005 11:42:02 23.6 C 12.34 g/m*3 23.6 C 0 km/h
1619 09-09-2005 11:54:02 24.3 C 12.39 g/m*3 24.3 C 0 km/h
1620 09-09-2005 12:06:01 25.1 C 12.04 g/m*3 25.1 C 0 km/h
1621 09-09-2005 12:18:02 25.8 C 12.04 g/m*3 25.8 C 0 km/h
1622 09-09-2005 12:30:02 25.8 C 11.8 g/m*3 25.8 C 0 km/h
1623 09-09-2005 12:42:01 25.9 C 11.86 g/m*3 25.9 C 0 km/h
1624 09-09-2005 12:54:02 25.8 C 12.28 g/m*3 25.8 C 0 km/h
1625 09-09-2005 13:06:01 25.8 C 13 g/m*3 25.8 C 0 km/h
Sensor: Nr:Datum:Temp:Abs-Feuchte:Windchill:Wind:
Aussen-T/F 1626 09-09-2005 13:18:02 25.9 C 12.83 g/m*3 25.9 C 0 km/h
1627 09-09-2005 13:30:02 26.2 C 12.8 g/m*3 26.2 C 0 km/h
1628 09-09-2005 13:42:02 26.2 C 12.56 g/m*3 26.2 C 0 km/h
1629 09-09-2005 13:54:02 26.8 C 12.47 g/m*3 26.8 C 0 km/h
1630 09-09-2005 14:06:02 27.6 C 11.71 g/m*3 27.6 C 0 km/h
1631 09-09-2005 14:18:02 27.3 C 10.73 g/m*3 27.3 C 0 km/h
1632 09-09-2005 14:30:02 27.1 C 11.13 g/m*3 27.1 C 0 km/h
1633 09-09-2005 14:42:02 27 C 11.58 g/m*3 27 C 0 km/h
1634 09-09-2005 14:54:02 27 C 12.35 g/m*3 27 C 0 km/h
1635 09-09-2005 15:06:02 27 C 12.1 g/m*3 27 C 0 km/h
1636 09-09-2005 15:18:01 26.6 C 11.83 g/m*3 26.6 C 0 km/h
1637 09-09-2005 15:30:01 26.6 C 12.08 g/m*3 26.6 C 0 km/h
1638 09-09-2005 15:42:02 26 C 12.17 g/m*3 26 C 0 km/h
1639 09-09-2005 15:54:02 25.7 C 12.45 g/m*3 25.7 C 0 km/h
1640 09-09-2005 16:06:02 25.7 C 12.69 g/m*3 25.7 C 0 km/h
1641 09-09-2005 16:18:03 25.4 C 12.71 g/m*3 25.4 C 0 km/h
1642 09-09-2005 16:30:03 25.3 C 12.64 g/m*3 25.3 C 0 km/h
1643 09-09-2005 16:42:02 25.2 C 12.34 g/m*3 25.2 C 0 km/h
1644 09-09-2005 16:54:02 25.2 C 12.57 g/m*3 25.2 C 0 km/h
1645 09-09-2005 17:06:01 25.4 C 12.48 g/m*3 25.4 C 0 km/h
1646 09-09-2005 17:18:02 25.4 C 12.48 g/m*3 25.4 C 0 km/h
1647 09-09-2005 17:30:02 25.4 C 12.71 g/m*3 25.4 C 0 km/h
1648 09-09-2005 17:42:02 25.4 C 12.71 g/m*3 25.4 C 0 km/h
1649 09-09-2005 17:54:02 25.3 C 12.88 g/m*3 25.3 C 0 km/h
1650 09-09-2005 18:06:01 25.3 C 12.88 g/m*3 25.3 C 0 km/h
Sensor: Nr:Datum:Temp:Abs-Feuchte:Windchill:Wind:
Aussen-T/F 1651 09-09-2005 18:18:02 25.1 C 13.2 g/m*3 25.1 C 0 km/h
1652 09-09-2005 18:30:02 24.9 C 12.13 g/m*3 24.9 C 0 km/h
1653 09-09-2005 18:42:02 24.8 C 11.84 g/m*3 24.8 C 0 km/h
1654 09-09-2005 18:54:02 24.7 C 11.77 g/m*3 24.7 C 0 km/h
1655 09-09-2005 19:06:03 24.6 C 11.7 g/m*3 24.6 C 0 km/h
1656 09-09-2005 19:18:02 24.3 C 11.51 g/m*3 24.3 C 0 km/h
1657 09-09-2005 19:30:02 24.3 C 11.73 g/m*3 24.3 C 0 km/h
1658 09-09-2005 19:42:02 24.1 C 12.03 g/m*3 24.1 C 0 km/h
1659 09-09-2005 19:54:02 23.3 C 12.13 g/m*3 23.3 C 0 km/h
1660 09-09-2005 20:06:02 23.1 C 12.2 g/m*3 23.1 C 0 km/h
1661 09-09-2005 20:18:02 22.9 C 12.26 g/m*3 22.9 C 0 km/h
1662 09-09-2005 20:30:02 22.6 C 12.46 g/m*3 22.6 C 0 km/h
1663 09-09-2005 20:42:03 22.3 C 12.44 g/m*3 22.3 C 0 km/h
1664 09-09-2005 20:54:03 21.9 C 12.54 g/m*3 21.9 C 0 km/h
1665 09-09-2005 21:06:02 21.8 C 12.47 g/m*3 21.8 C 0 km/h
1666 09-09-2005 21:18:02 21.8 C 12.66 g/m*3 21.8 C 0 km/h
1667 09-09-2005 21:30:02 21.8 C 12.66 g/m*3 21.8 C 0 km/h
1668 09-09-2005 21:42:03 21.7 C 12.59 g/m*3 21.7 C 0 km/h
1669 09-09-2005 21:55:02 21.6 C 12.52 g/m*3 21.6 C 0 km/h
1670 09-09-2005 22:07:02 21.6 C 12.52 g/m*3 21.6 C 0 km/h
1671 09-09-2005 22:19:02 21.6 C 12.71 g/m*3 21.6 C 0 km/h
1672 09-09-2005 22:31:02 21.5 C 12.63 g/m*3 21.5 C 0 km/h
1673 09-09-2005 22:43:02 21.5 C 12.63 g/m*3 21.5 C 0 km/h
1674 09-09-2005 22:55:02 21.3 C 12.68 g/m*3 21.3 C 0 km/h
1675 09-09-2005 23:07:02 21.2 C 12.79 g/m*3 21.2 C 0 km/h
Sensor: Nr:Datum:Temp:Abs-Feuchte:Windchill:Wind:
Aussen-T/F 1676 09-09-2005 23:19:02 21 C 12.64 g/m*3 21 C 0 km/h
1677 09-09-2005 23:31:02 20.9 C 12.75 g/m*3 20.9 C 0 km/h
1678 09-09-2005 23:43:02 20.8 C 12.86 g/m*3 20.8 C 0 km/h
1679 09-09-2005 23:55:02 20.7 C 12.78 g/m*3 20.7 C 0 km/h
1680 10-09-2005 00:07:02 20.5 C 12.81 g/m*3 20.5 C 0 km/h
1681 10-09-2005 00:19:02 20.2 C 12.59 g/m*3 20.2 C 0 km/h
1682 10-09-2005 00:31:02 20 C 12.62 g/m*3 20 C 0 km/h
1683 10-09-2005 00:43:03 19.8 C 12.81 g/m*3 19.8 C 0 km/h
1684 10-09-2005 00:55:03 19.6 C 12.49 g/m*3 19.6 C 0 km/h
1685 10-09-2005 01:07:03 19.4 C 12.85 g/m*3 19.4 C 0 km/h
1686 10-09-2005 01:19:03 19.3 C 12.77 g/m*3 19.3 C 0 km/h
1687 10-09-2005 01:31:03 19.2 C 12.7 g/m*3 19.2 C 0 km/h
1688 10-09-2005 01:43:03 19 C 12.55 g/m*3 19 C 0 km/h
1689 10-09-2005 01:55:03 18.9 C 12.8 g/m*3 18.9 C 0 km/h
1690 10-09-2005 02:07:03 18.8 C 12.72 g/m*3 18.8 C 0 km/h
1691 10-09-2005 02:19:03 18.7 C 12.81 g/m*3 18.7 C 0 km/h
1692 10-09-2005 02:31:03 18.4 C 12.58 g/m*3 18.4 C 0 km/h
1693 10-09-2005 02:43:03 18.4 C 12.74 g/m*3 18.4 C 0 km/h
1694 10-09-2005 02:55:03 18.2 C 12.75 g/m*3 18.2 C 0 km/h
1695 10-09-2005 03:07:03 18.1 C 12.67 g/m*3 18.1 C 0 km/h
1696 10-09-2005 03:19:03 18 C 12.59 g/m*3 18 C 0 km/h
1697 10-09-2005 03:31:03 17.9 C 12.83 g/m*3 17.9 C 0 km/h
1698 10-09-2005 03:43:03 18 C 12.9 g/m*3 18 C 0 km/h
1699 10-09-2005 03:55:03 18 C 12.75 g/m*3 18 C 0 km/h
1700 10-09-2005 04:07:03 17.9 C 12.98 g/m*3 17.9 C 0 km/h
Sensor: Nr:Datum:Temp:Abs-Feuchte:Windchill:Wind:
Aussen-T/F 1701 10-09-2005 04:19:03 17.9 C 12.98 g/m*3 17.9 C 0 km/h
1702 10-09-2005 04:31:03 18.1 C 12.98 g/m*3 18.1 C 0 km/h
1703 10-09-2005 04:43:04 17.8 C 12.75 g/m*3 17.8 C 0 km/h
1704 10-09-2005 04:55:04 17.7 C 12.82 g/m*3 17.7 C 0 km/h
1705 10-09-2005 05:07:04 17.7 C 12.82 g/m*3 17.7 C 0 km/h
1706 10-09-2005 05:19:04 17.5 C 12.67 g/m*3 17.5 C 0 km/h
1707 10-09-2005 05:31:04 17.4 C 12.75 g/m*3 17.4 C 0 km/h
1708 10-09-2005 05:43:04 17.4 C 12.75 g/m*3 17.4 C 0 km/h
1709 10-09-2005 05:55:04 17.4 C 12.75 g/m*3 17.4 C 0 km/h
1710 10-09-2005 06:07:04 17.4 C 12.75 g/m*3 17.4 C 0 km/h
1711 10-09-2005 06:19:04 17.5 C 12.82 g/m*3 17.5 C 0 km/h
1712 10-09-2005 06:31:04 17.6 C 12.9 g/m*3 17.6 C 0 km/h
1713 10-09-2005 06:43:04 17.7 C 12.82 g/m*3 17.7 C 0 km/h
1714 10-09-2005 06:55:04 17.6 C 12.75 g/m*3 17.6 C 0 km/h
1715 10-09-2005 07:07:04 17.6 C 12.9 g/m*3 17.6 C 0 km/h
1716 10-09-2005 07:19:04 17.7 C 12.98 g/m*3 17.7 C 0 km/h
1717 10-09-2005 07:31:04 17.7 C 12.82 g/m*3 17.7 C 0 km/h
1718 10-09-2005 07:43:04 17.8 C 12.9 g/m*3 17.8 C 0 km/h
1719 10-09-2005 07:55:04 17.9 C 12.98 g/m*3 17.9 C 0 km/h
1720 10-09-2005 08:07:04 18.1 C 12.82 g/m*3 18.1 C 0 km/h
1721 10-09-2005 08:19:04 18.1 C 12.82 g/m*3 18.1 C 0 km/h
1722 10-09-2005 08:31:04 18.1 C 12.82 g/m*3 18.1 C 0 km/h
1723 10-09-2005 08:43:05 18.2 C 12.9 g/m*3 18.2 C 0 km/h
1724 10-09-2005 08:55:05 18.5 C 12.97 g/m*3 18.5 C 0 km/h
1725 10-09-2005 09:07:05 18.9 C 12.96 g/m*3 18.9 C 0 km/h
Sensor: Nr:Datum:Temp:Abs-Feuchte:Windchill:Wind:
Aussen-T/F 1726 10-09-2005 09:19:05 19.1 C 12.79 g/m*3 19.1 C 0 km/h
1727 10-09-2005 09:31:05 19.2 C 12.7 g/m*3 19.2 C 0 km/h
1728 10-09-2005 09:43:05 19.3 C 12.94 g/m*3 19.3 C 0 km/h
1729 10-09-2005 09:55:05 19.6 C 13 g/m*3 19.6 C 0 km/h
1730 10-09-2005 10:07:05 19.9 C 12.89 g/m*3 19.9 C 0 km/h
1731 10-09-2005 10:19:05 20.2 C 12.94 g/m*3 20.2 C 0 km/h
1732 10-09-2005 10:31:05 20.4 C 12.91 g/m*3 20.4 C 0 km/h
1733 10-09-2005 10:43:05 20.7 C 12.78 g/m*3 20.7 C 0 km/h
1734 10-09-2005 10:55:02 21.2 C 12.6 g/m*3 21.2 C 0 km/h
1735 10-09-2005 11:07:01 22 C 13 g/m*3 22 C 0 km/h
1736 10-09-2005 11:19:02 22.3 C 12.64 g/m*3 22.3 C 0 km/h
1737 10-09-2005 11:31:02 23.1 C 13.02 g/m*3 23.1 C 0 km/h
1738 10-09-2005 11:43:03 23.6 C 12.97 g/m*3 23.6 C 0 km/h
1739 10-09-2005 11:55:02 23.8 C 12.91 g/m*3 23.8 C 0 km/h
1740 10-09-2005 12:07:03 23.8 C 12.69 g/m*3 23.8 C 0 km/h
1741 10-09-2005 12:19:02 24.1 C 12.25 g/m*3 24.1 C 0 km/h
1742 10-09-2005 12:31:03 24 C 11.75 g/m*3 24 C 0 km/h
1743 10-09-2005 12:43:03 24.2 C 12.32 g/m*3 24.2 C 0 km/h
1744 10-09-2005 12:55:03 24 C 12.4 g/m*3 24 C 0 km/h
1745 10-09-2005 13:07:02 24 C 12.18 g/m*3 24 C 0 km/h
1746 10-09-2005 13:19:03 24.5 C 12.31 g/m*3 24.5 C 0 km/h
1747 10-09-2005 13:31:02 24.7 C 12 g/m*3 24.7 C 0 km/h
1748 10-09-2005 13:43:02 25.1 C 11.81 g/m*3 25.1 C 0 km/h
1749 10-09-2005 13:55:02 25.4 C 11.77 g/m*3 25.4 C 0 km/h
1750 10-09-2005 14:07:02 26.1 C 11.75 g/m*3 26.1 C 0 km/h
Sensor: Nr:Datum:Temp:Abs-Feuchte:Windchill:Wind:
Aussen-T/F 1751 10-09-2005 14:19:02 26.3 C 12.13 g/m*3 26.3 C 0 km/h
1752 10-09-2005 14:31:02 27.2 C 11.19 g/m*3 27.2 C 0 km/h
1753 10-09-2005 14:43:02 28.2 C 10.72 g/m*3 28.2 C 0 km/h
1754 10-09-2005 14:55:02 27.8 C 9.95 g/m*3 27.8 C 0 km/h
1755 10-09-2005 15:07:01 28 C 9.52 g/m*3 28 C 0 km/h
1756 10-09-2005 15:19:01 29 C 9.77 g/m*3 29 C 0 km/h
1757 10-09-2005 15:31:02 28.8 C 9.38 g/m*3 28.8 C 0 km/h
1758 10-09-2005 15:43:02 30 C 9.7 g/m*3 30 C 0 km/h
1759 10-09-2005 15:55:02 30.4 C 9.3 g/m*3 30.4 C 0 km/h
1760 10-09-2005 16:07:01 30.1 C 9.15 g/m*3 30.1 C 0 km/h
1761 10-09-2005 16:19:01 30.4 C 8.99 g/m*3 30.4 C 0 km/h
1762 10-09-2005 16:31:02 31.2 C 8.73 g/m*3 31.2 C 0 km/h
1763 10-09-2005 16:43:02 30.2 C 8.89 g/m*3 30.2 C 0 km/h
1764 10-09-2005 16:55:02 29.8 C 9 g/m*3 29.8 C 0 km/h
1765 10-09-2005 17:07:02 29.1 C 8.95 g/m*3 29.1 C 0 km/h
1766 10-09-2005 17:19:02 27.9 C 9.47 g/m*3 27.9 C 0 km/h
1767 10-09-2005 17:31:02 27.2 C 9.63 g/m*3 27.2 C 0 km/h
1768 10-09-2005 17:43:02 26.3 C 9.9 g/m*3 26.3 C 0 km/h
1769 10-09-2005 17:55:02 26.3 C 10.64 g/m*3 26.3 C 0 km/h
1770 10-09-2005 18:07:02 26.2 C 10.59 g/m*3 26.2 C 0 km/h
1771 10-09-2005 18:19:02 25.7 C 10.77 g/m*3 25.7 C 0 km/h
1772 10-09-2005 18:31:02 26 C 11.2 g/m*3 26 C 0 km/h
1773 10-09-2005 18:43:02 26.1 C 11.26 g/m*3 26.1 C 0 km/h
1774 10-09-2005 18:55:01 26.1 C 11.51 g/m*3 26.1 C 0 km/h
1775 10-09-2005 19:07:01 25.6 C 12.14 g/m*3 25.6 C 0 km/h
Sensor: Nr:Datum:Temp:Abs-Feuchte:Windchill:Wind:
Aussen-T/F 1776 10-09-2005 19:19:02 25.3 C 11.94 g/m*3 25.3 C 0 km/h
1777 10-09-2005 19:31:01 24.9 C 11.9 g/m*3 24.9 C 0 km/h
1778 10-09-2005 19:43:02 24.5 C 11.86 g/m*3 24.5 C 0 km/h
1779 10-09-2005 19:55:02 24.3 C 11.73 g/m*3 24.3 C 0 km/h
1780 10-09-2005 20:07:02 24.1 C 11.82 g/m*3 24.1 C 0 km/h
1781 10-09-2005 20:19:01 23.3 C 12.55 g/m*3 23.3 C 0 km/h
1782 10-09-2005 20:31:02 22.5 C 12.78 g/m*3 22.5 C 0 km/h
1783 10-09-2005 20:43:02 22.5 C 12.58 g/m*3 22.5 C 0 km/h
1784 10-09-2005 20:55:01 22.8 C 12.6 g/m*3 22.8 C 0 km/h
1785 10-09-2005 21:07:02 22.7 C 12.73 g/m*3 22.7 C 0 km/h
1786 10-09-2005 21:19:02 22.9 C 12.88 g/m*3 22.9 C 0 km/h
1787 10-09-2005 21:31:01 22.8 C 12.6 g/m*3 22.8 C 0 km/h
1788 10-09-2005 21:43:01 22.9 C 12.67 g/m*3 22.9 C 0 km/h
1789 10-09-2005 21:56:02 22.1 C 10.54 g/m*3 22.1 C 0 km/h
1790 10-09-2005 22:08:02 20.1 C 10.6 g/m*3 20.1 C 0 km/h
1791 10-09-2005 22:20:02 19 C 11.57 g/m*3 19 C 0 km/h
1792 10-09-2005 22:32:02 17.9 C 12.37 g/m*3 17.9 C 0 km/h
1793 10-09-2005 22:44:02 18.1 C 12.98 g/m*3 18.1 C 0 km/h
1794 10-09-2005 22:56:02 18.1 C 13.29 g/m*3 18.1 C 0 km/h
1795 10-09-2005 23:08:02 18.3 C 13.6 g/m*3 18.3 C 0 km/h
1796 10-09-2005 23:20:03 18.1 C 13.44 g/m*3 18.1 C 0 km/h
1797 10-09-2005 23:32:03 17.7 C 13.13 g/m*3 17.7 C 0 km/h
1798 10-09-2005 23:44:03 18 C 13.36 g/m*3 18 C 0 km/h
1799 10-09-2005 23:56:03 18.3 C 13.45 g/m*3 18.3 C 0 km/h
1800 11-09-2005 00:08:03 18.4 C 13.37 g/m*3 18.4 C 0 km/h
Sensor: Nr:Datum:Temp:Abs-Feuchte:Windchill:Wind:
Aussen-T/F 1801 11-09-2005 00:20:03 18.3 C 13.45 g/m*3 18.3 C 0 km/h
1802 11-09-2005 00:32:03 18.1 C 13.44 g/m*3 18.1 C 0 km/h
1803 11-09-2005 00:44:03 18.2 C 13.68 g/m*3 18.2 C 0 km/h
1804 11-09-2005 00:56:03 18.1 C 13.75 g/m*3 18.1 C 0 km/h
1805 11-09-2005 01:08:03 18.2 C 13.83 g/m*3 18.2 C 0 km/h
1806 11-09-2005 01:20:03 18.1 C 13.75 g/m*3 18.1 C 0 km/h
1807 11-09-2005 01:32:03 18 C 13.82 g/m*3 18 C 0 km/h
1808 11-09-2005 01:44:03 17.8 C 13.81 g/m*3 17.8 C 0 km/h
1809 11-09-2005 01:56:03 17.5 C 13.57 g/m*3 17.5 C 0 km/h
1810 11-09-2005 02:08:03 17.4 C 13.49 g/m*3 17.4 C 0 km/h
1811 11-09-2005 02:20:03 17.4 C 13.49 g/m*3 17.4 C 0 km/h
1812 11-09-2005 02:32:03 17.3 C 13.41 g/m*3 17.3 C 0 km/h
1813 11-09-2005 02:44:03 17.4 C 13.49 g/m*3 17.4 C 0 km/h
1814 11-09-2005 02:56:03 17.5 C 13.72 g/m*3 17.5 C 0 km/h
1815 11-09-2005 03:08:03 17.6 C 13.8 g/m*3 17.6 C 0 km/h
1816 11-09-2005 03:20:04 17.5 C 13.72 g/m*3 17.5 C 0 km/h
1817 11-09-2005 03:32:04 17.4 C 13.63 g/m*3 17.4 C 0 km/h
1818 11-09-2005 03:44:04 17.6 C 13.8 g/m*3 17.6 C 0 km/h
1819 11-09-2005 03:56:04 17.6 C 13.8 g/m*3 17.6 C 0 km/h
1820 11-09-2005 04:08:04 17.6 C 13.65 g/m*3 17.6 C 0 km/h
1821 11-09-2005 04:20:04 17.6 C 13.65 g/m*3 17.6 C 0 km/h
1822 11-09-2005 04:32:04 17.5 C 13.57 g/m*3 17.5 C 0 km/h
1823 11-09-2005 04:44:04 17.5 C 13.72 g/m*3 17.5 C 0 km/h
1824 11-09-2005 04:56:04 17.4 C 13.63 g/m*3 17.4 C 0 km/h
1825 11-09-2005 05:08:04 17.4 C 13.63 g/m*3 17.4 C 0 km/h
Sensor: Nr:Datum:Temp:Abs-Feuchte:Windchill:Wind:
Aussen-T/F 1826 11-09-2005 05:20:04 17.6 C 13.8 g/m*3 17.6 C 0 km/h
1827 11-09-2005 05:32:04 17.7 C 13.88 g/m*3 17.7 C 0 km/h
1828 11-09-2005 05:44:04 17.6 C 13.8 g/m*3 17.6 C 0 km/h
1829 11-09-2005 05:56:04 17.7 C 13.88 g/m*3 17.7 C 0 km/h
1830 11-09-2005 06:08:04 17.7 C 13.88 g/m*3 17.7 C 0 km/h
1831 11-09-2005 06:20:04 17.9 C 14.05 g/m*3 17.9 C 0 km/h
1832 11-09-2005 06:32:04 17.7 C 13.88 g/m*3 17.7 C 0 km/h
1833 11-09-2005 06:44:04 17.7 C 13.88 g/m*3 17.7 C 0 km/h
1834 11-09-2005 06:56:04 17.8 C 13.81 g/m*3 17.8 C 0 km/h
1835 11-09-2005 07:08:04 17.8 C 13.81 g/m*3 17.8 C 0 km/h
1836 11-09-2005 07:20:04 17.8 C 13.81 g/m*3 17.8 C 0 km/h
1837 11-09-2005 07:32:05 17.7 C 13.73 g/m*3 17.7 C 0 km/h
1838 11-09-2005 07:44:05 17.7 C 13.73 g/m*3 17.7 C 0 km/h
1839 11-09-2005 07:56:05 17.7 C 13.88 g/m*3 17.7 C 0 km/h
1840 11-09-2005 08:08:05 17.7 C 13.88 g/m*3 17.7 C 0 km/h
1841 11-09-2005 08:20:05 17.8 C 13.96 g/m*3 17.8 C 0 km/h
1842 11-09-2005 08:32:05 18 C 13.98 g/m*3 18 C 0 km/h
1843 11-09-2005 08:44:05 18.2 C 14.14 g/m*3 18.2 C 0 km/h
1844 11-09-2005 08:56:05 18.2 C 13.99 g/m*3 18.2 C 0 km/h
1845 11-09-2005 09:08:05 18.3 C 13.76 g/m*3 18.3 C 0 km/h
1846 11-09-2005 09:20:05 18.6 C 14.01 g/m*3 18.6 C 0 km/h
1847 11-09-2005 09:32:05 18.5 C 13.92 g/m*3 18.5 C 0 km/h
1848 11-09-2005 09:44:05 18.5 C 13.77 g/m*3 18.5 C 0 km/h
1849 11-09-2005 09:56:05 18.7 C 13.93 g/m*3 18.7 C 0 km/h
1850 11-09-2005 10:08:05 18.7 C 13.77 g/m*3 18.7 C 0 km/h
Sensor: Nr:Datum:Temp:Abs-Feuchte:Windchill:Wind:
Aussen-T/F 1851 11-09-2005 10:20:05 18.9 C 13.93 g/m*3 18.9 C 0 km/h
1852 11-09-2005 10:32:02 19 C 13.85 g/m*3 19 C 0 km/h
1853 11-09-2005 10:44:02 19 C 13.85 g/m*3 19 C 0 km/h
1854 11-09-2005 10:56:03 18.9 C 13.77 g/m*3 18.9 C 0 km/h
1855 11-09-2005 11:08:03 18.7 C 13.45 g/m*3 18.7 C 0 km/h
1856 11-09-2005 11:20:03 18.6 C 13.37 g/m*3 18.6 C 0 km/h
1857 11-09-2005 11:32:02 18.6 C 13.21 g/m*3 18.6 C 0 km/h
1858 11-09-2005 11:44:02 18.7 C 13.29 g/m*3 18.7 C 0 km/h
1859 11-09-2005 11:56:02 18.9 C 13.45 g/m*3 18.9 C 0 km/h
1860 11-09-2005 12:08:02 18.7 C 13.29 g/m*3 18.7 C 0 km/h
1861 11-09-2005 12:20:02 18.7 C 13.29 g/m*3 18.7 C 0 km/h
1862 11-09-2005 12:32:01 18.6 C 13.21 g/m*3 18.6 C 0 km/h
1863 11-09-2005 12:44:01 18.5 C 13.13 g/m*3 18.5 C 0 km/h
1864 11-09-2005 12:56:02 18.4 C 13.37 g/m*3 18.4 C 0 km/h
1865 11-09-2005 13:08:02 18.4 C 13.53 g/m*3 18.4 C 0 km/h
1866 11-09-2005 13:20:02 18.4 C 13.68 g/m*3 18.4 C 0 km/h
1867 11-09-2005 13:32:02 18.4 C 13.68 g/m*3 18.4 C 0 km/h
1868 11-09-2005 13:44:02 18.3 C 13.76 g/m*3 18.3 C 0 km/h
1869 11-09-2005 13:56:02 18.1 C 13.75 g/m*3 18.1 C 0 km/h
1870 11-09-2005 14:08:02 18.2 C 13.83 g/m*3 18.2 C 0 km/h
1871 11-09-2005 14:20:02 18.2 C 13.99 g/m*3 18.2 C 0 km/h
1872 11-09-2005 14:32:02 18.2 C 13.99 g/m*3 18.2 C 0 km/h
1873 11-09-2005 14:44:02 18.2 C 14.14 g/m*3 18.2 C 0 km/h
1874 11-09-2005 14:56:01 18.3 C 14.23 g/m*3 18.3 C 0 km/h
1875 11-09-2005 15:08:01 18.3 C 14.23 g/m*3 18.3 C 0 km/h
Sensor: Nr:Datum:Temp:Abs-Feuchte:Windchill:Wind:
Aussen-T/F 1876 11-09-2005 15:20:02 18.3 C 14.23 g/m*3 18.3 C 0 km/h
1877 11-09-2005 15:32:02 18.3 C 14.23 g/m*3 18.3 C 0 km/h
1878 11-09-2005 15:44:02 18.3 C 14.23 g/m*3 18.3 C 0 km/h
1879 11-09-2005 15:56:02 18.4 C 14.31 g/m*3 18.4 C 0 km/h
1880 11-09-2005 16:08:01 18.4 C 14.31 g/m*3 18.4 C 0 km/h
1881 11-09-2005 16:20:01 18.7 C 14.57 g/m*3 18.7 C 0 km/h
1882 11-09-2005 16:32:02 18.6 C 14.48 g/m*3 18.6 C 0 km/h
1883 11-09-2005 16:44:02 18.5 C 14.24 g/m*3 18.5 C 0 km/h
1884 11-09-2005 16:56:02 18.4 C 14.16 g/m*3 18.4 C 0 km/h
1885 11-09-2005 17:08:02 18.7 C 14.25 g/m*3 18.7 C 0 km/h
1886 11-09-2005 17:20:02 18.6 C 14.17 g/m*3 18.6 C 0 km/h
1887 11-09-2005 17:32:03 18.8 C 14.33 g/m*3 18.8 C 0 km/h
1888 11-09-2005 17:44:03 18.6 C 14.01 g/m*3 18.6 C 0 km/h
1889 11-09-2005 17:56:02 18.7 C 14.09 g/m*3 18.7 C 0 km/h
1890 11-09-2005 18:08:02 18.6 C 14.01 g/m*3 18.6 C 0 km/h
1891 11-09-2005 18:20:02 18.5 C 13.92 g/m*3 18.5 C 0 km/h
1892 11-09-2005 18:32:03 18.5 C 14.08 g/m*3 18.5 C 0 km/h
1893 11-09-2005 18:44:04 18.5 C 13.92 g/m*3 18.5 C 0 km/h
1894 11-09-2005 18:56:02 18.5 C 14.08 g/m*3 18.5 C 0 km/h
1895 11-09-2005 19:08:02 18.4 C 14 g/m*3 18.4 C 0 km/h
1896 11-09-2005 19:20:01 18.3 C 14.07 g/m*3 18.3 C 0 km/h
1897 11-09-2005 19:32:02 18.3 C 14.07 g/m*3 18.3 C 0 km/h
1898 11-09-2005 19:44:02 18.2 C 14.14 g/m*3 18.2 C 0 km/h
1899 11-09-2005 19:56:01 18.1 C 14.06 g/m*3 18.1 C 0 km/h
1900 11-09-2005 20:08:01 18 C 13.98 g/m*3 18 C 0 km/h
Sensor: Nr:Datum:Temp:Abs-Feuchte:Windchill:Wind:
Aussen-T/F 1901 11-09-2005 20:20:02 18.1 C 14.21 g/m*3 18.1 C 0 km/h
1902 11-09-2005 20:32:02 18.1 C 14.21 g/m*3 18.1 C 0 km/h
1903 11-09-2005 20:44:02 18.1 C 14.21 g/m*3 18.1 C 0 km/h
1904 11-09-2005 20:56:02 18.1 C 14.21 g/m*3 18.1 C 0 km/h
1905 11-09-2005 21:08:02 17.9 C 14.2 g/m*3 17.9 C 0 km/h
1906 11-09-2005 21:20:01 17.9 C 14.35 g/m*3 17.9 C 0 km/h
1907 11-09-2005 21:32:02 18.2 C 14.46 g/m*3 18.2 C 0 km/h
1908 11-09-2005 21:44:02 18.2 C 14.46 g/m*3 18.2 C 0 km/h
1909 11-09-2005 21:56:01 17.8 C 14.27 g/m*3 17.8 C 0 km/h
1910 11-09-2005 22:08:01 18.1 C 14.37 g/m*3 18.1 C 0 km/h
1911 11-09-2005 22:20:02 18.1 C 14.37 g/m*3 18.1 C 0 km/h
1912 11-09-2005 22:32:01 18 C 14.28 g/m*3 18 C 0 km/h
1913 11-09-2005 22:44:01 18.1 C 14.52 g/m*3 18.1 C 0 km/h
1914 11-09-2005 22:56:02 17.9 C 14.5 g/m*3 17.9 C 0 km/h
1915 11-09-2005 23:08:01 17.8 C 14.42 g/m*3 17.8 C 0 km/h
1916 11-09-2005 23:20:02 17.8 C 14.42 g/m*3 17.8 C 0 km/h
1917 11-09-2005 23:32:01 17.8 C 14.42 g/m*3 17.8 C 0 km/h
1918 11-09-2005 23:44:01 17.8 C 14.42 g/m*3 17.8 C 0 km/h
1919 11-09-2005 23:56:02 17.7 C 14.33 g/m*3 17.7 C 0 km/h
1920 12-09-2005 00:08:02 17.7 C 14.33 g/m*3 17.7 C 0 km/h
1921 12-09-2005 00:20:02 17.8 C 14.42 g/m*3 17.8 C 0 km/h
1922 12-09-2005 00:32:02 17.8 C 14.42 g/m*3 17.8 C 0 km/h
1923 12-09-2005 00:44:02 17.7 C 14.33 g/m*3 17.7 C 0 km/h
1924 12-09-2005 00:56:02 17.6 C 14.25 g/m*3 17.6 C 0 km/h
1925 12-09-2005 01:08:02 17.6 C 14.25 g/m*3 17.6 C 0 km/h
Sensor: Nr:Datum:Temp:Abs-Feuchte:Windchill:Wind:
Aussen-T/F 1926 12-09-2005 01:20:02 17.5 C 14.16 g/m*3 17.5 C 0 km/h
1927 12-09-2005 01:32:02 17.5 C 14.16 g/m*3 17.5 C 0 km/h
1928 12-09-2005 01:44:02 17.3 C 14 g/m*3 17.3 C 0 km/h
1929 12-09-2005 01:56:01 17.2 C 13.91 g/m*3 17.2 C 0 km/h
1930 12-09-2005 02:08:02 17.2 C 13.91 g/m*3 17.2 C 0 km/h
1931 12-09-2005 02:20:01 17.1 C 13.83 g/m*3 17.1 C 0 km/h
1932 12-09-2005 02:32:02 17.1 C 13.83 g/m*3 17.1 C 0 km/h
1933 12-09-2005 02:44:02 17.1 C 13.83 g/m*3 17.1 C 0 km/h
1934 12-09-2005 02:57:03 17 C 13.75 g/m*3 17 C 0 km/h
1935 12-09-2005 03:09:03 16.9 C 13.66 g/m*3 16.9 C 0 km/h
1936 12-09-2005 03:21:04 16.9 C 13.66 g/m*3 16.9 C 0 km/h
1937 12-09-2005 03:33:01 16.8 C 13.58 g/m*3 16.8 C 0 km/h
1938 12-09-2005 03:45:01 16.8 C 13.58 g/m*3 16.8 C 0 km/h
1939 12-09-2005 03:57:01 16.9 C 13.66 g/m*3 16.9 C 0 km/h
1940 12-09-2005 04:09:02 16.8 C 13.58 g/m*3 16.8 C 0 km/h
1941 12-09-2005 04:21:02 16.8 C 13.58 g/m*3 16.8 C 0 km/h
1942 12-09-2005 04:33:02 16.8 C 13.58 g/m*3 16.8 C 0 km/h
1943 12-09-2005 04:45:03 16.7 C 13.5 g/m*3 16.7 C 0 km/h
1944 12-09-2005 04:57:03 16.7 C 13.5 g/m*3 16.7 C 0 km/h
1945 12-09-2005 05:09:03 16.7 C 13.5 g/m*3 16.7 C 0 km/h
1946 12-09-2005 05:21:03 16.7 C 13.5 g/m*3 16.7 C 0 km/h
1947 12-09-2005 05:33:03 16.6 C 13.42 g/m*3 16.6 C 0 km/h
1948 12-09-2005 05:45:02 16.7 C 13.5 g/m*3 16.7 C 0 km/h
1949 12-09-2005 05:57:02 16.6 C 13.42 g/m*3 16.6 C 0 km/h
1950 12-09-2005 06:09:02 16.6 C 13.42 g/m*3 16.6 C 0 km/h
Sensor: Nr:Datum:Temp:Abs-Feuchte:Windchill:Wind:
Aussen-T/F 1951 12-09-2005 06:21:02 16.6 C 13.42 g/m*3 16.6 C 0 km/h
1952 12-09-2005 06:33:02 16.6 C 13.42 g/m*3 16.6 C 0 km/h
1953 12-09-2005 06:45:02 16.5 C 13.34 g/m*3 16.5 C 0 km/h
1954 12-09-2005 06:57:02 16.5 C 13.34 g/m*3 16.5 C 0 km/h
1955 12-09-2005 07:09:02 16.4 C 13.26 g/m*3 16.4 C 0 km/h
1956 12-09-2005 07:21:02 16.5 C 13.34 g/m*3 16.5 C 0 km/h
1957 12-09-2005 07:33:03 16.4 C 13.26 g/m*3 16.4 C 0 km/h
1958 12-09-2005 07:45:01 16.5 C 13.34 g/m*3 16.5 C 0 km/h
1959 12-09-2005 07:57:01 16.5 C 13.34 g/m*3 16.5 C 0 km/h
1960 12-09-2005 08:09:02 16.5 C 13.34 g/m*3 16.5 C 0 km/h
1961 12-09-2005 08:21:02 16.5 C 13.34 g/m*3 16.5 C 0 km/h
1962 12-09-2005 08:33:01 16.5 C 13.34 g/m*3 16.5 C 0 km/h
1963 12-09-2005 08:45:02 16.6 C 13.42 g/m*3 16.6 C 0 km/h
1964 12-09-2005 08:57:02 16.5 C 13.34 g/m*3 16.5 C 0 km/h
1965 12-09-2005 09:09:01 16.6 C 13.42 g/m*3 16.6 C 0 km/h
1966 12-09-2005 09:21:01 16.6 C 13.42 g/m*3 16.6 C 0 km/h
1967 12-09-2005 09:33:02 16.6 C 13.42 g/m*3 16.6 C 0 km/h
1968 12-09-2005 09:45:02 16.7 C 13.5 g/m*3 16.7 C 0 km/h
1969 12-09-2005 09:57:02 16.7 C 13.5 g/m*3 16.7 C 0 km/h
1970 12-09-2005 10:09:03 16.8 C 13.44 g/m*3 16.8 C 0 km/h
1971 12-09-2005 10:21:02 16.9 C 13.38 g/m*3 16.9 C 0 km/h
1972 12-09-2005 10:33:02 17 C 13.17 g/m*3 17 C 0 km/h
1973 12-09-2005 10:45:02 17.1 C 13.1 g/m*3 17.1 C 0 km/h
1974 12-09-2005 10:57:02 17.2 C 13.03 g/m*3 17.2 C 0 km/h
1975 12-09-2005 11:09:02 17.3 C 13.11 g/m*3 17.3 C 0 km/h
Sensor: Nr:Datum:Temp:Abs-Feuchte:Windchill:Wind:
Aussen-T/F 1976 12-09-2005 11:21:03 17.3 C 12.96 g/m*3 17.3 C 0 km/h
1977 12-09-2005 11:33:02 17.3 C 12.96 g/m*3 17.3 C 0 km/h
1978 12-09-2005 11:45:02 17.2 C 12.74 g/m*3 17.2 C 0 km/h
1979 12-09-2005 11:57:02 17.1 C 12.66 g/m*3 17.1 C 0 km/h
1980 12-09-2005 12:09:01 16.8 C 12.72 g/m*3 16.8 C 0 km/h
1981 12-09-2005 12:21:02 16.7 C 12.79 g/m*3 16.7 C 0 km/h
1982 12-09-2005 12:33:01 16.6 C 12.71 g/m*3 16.6 C 0 km/h
1983 12-09-2005 12:45:02 16.6 C 12.71 g/m*3 16.6 C 0 km/h
1984 12-09-2005 12:57:02 16.7 C 12.79 g/m*3 16.7 C 0 km/h
1985 12-09-2005 13:09:03 16.7 C 12.79 g/m*3 16.7 C 0 km/h
1986 12-09-2005 13:21:02 16.8 C 12.72 g/m*3 16.8 C 0 km/h
1987 12-09-2005 13:33:03 16.9 C 12.8 g/m*3 16.9 C 0 km/h
1988 12-09-2005 13:45:02 17.2 C 12.74 g/m*3 17.2 C 0 km/h
1989 12-09-2005 13:57:02 17.3 C 12.52 g/m*3 17.3 C 0 km/h
1990 12-09-2005 14:09:02 17.6 C 12.75 g/m*3 17.6 C 0 km/h
1991 12-09-2005 14:21:02 17.5 C 12.67 g/m*3 17.5 C 0 km/h
1992 12-09-2005 14:33:02 17.4 C 12.6 g/m*3 17.4 C 0 km/h
1993 12-09-2005 14:45:02 17.3 C 12.37 g/m*3 17.3 C 0 km/h
1994 12-09-2005 14:57:02 17.3 C 12.37 g/m*3 17.3 C 0 km/h
1995 12-09-2005 15:09:02 17.3 C 12.23 g/m*3 17.3 C 0 km/h
1996 12-09-2005 15:21:02 17.2 C 12.15 g/m*3 17.2 C 0 km/h
1997 12-09-2005 15:33:02 17.2 C 12.15 g/m*3 17.2 C 0 km/h
1998 12-09-2005 15:45:02 17.4 C 12.3 g/m*3 17.4 C 0 km/h
1999 12-09-2005 15:57:02 17.3 C 11.93 g/m*3 17.3 C 0 km/h
2000 12-09-2005 16:09:02 17.2 C 12.01 g/m*3 17.2 C 0 km/h
Sensor: Nr:Datum:Temp:Abs-Feuchte:Windchill:Wind:
Aussen-T/F 2001 12-09-2005 16:21:03 17.2 C 12.01 g/m*3 17.2 C 0 km/h
2002 12-09-2005 16:33:02 17.2 C 11.86 g/m*3 17.2 C 0 km/h
2003 12-09-2005 16:45:02 17.2 C 12.01 g/m*3 17.2 C 0 km/h
2004 12-09-2005 16:57:02 17.1 C 11.94 g/m*3 17.1 C 0 km/h
2005 12-09-2005 17:09:02 17.1 C 11.94 g/m*3 17.1 C 0 km/h
2006 12-09-2005 17:21:02 17.1 C 11.94 g/m*3 17.1 C 0 km/h
2007 12-09-2005 17:33:02 17 C 12.01 g/m*3 17 C 0 km/h
2008 12-09-2005 17:45:02 16.9 C 12.08 g/m*3 16.9 C 0 km/h
2009 12-09-2005 17:57:02 16.4 C 12 g/m*3 16.4 C 0 km/h
2010 12-09-2005 18:09:02 16.3 C 12.21 g/m*3 16.3 C 0 km/h
2011 12-09-2005 18:21:02 16.4 C 12.56 g/m*3 16.4 C 0 km/h
2012 12-09-2005 18:33:02 16.1 C 12.34 g/m*3 16.1 C 0 km/h
2013 12-09-2005 18:45:02 15.9 C 12.59 g/m*3 15.9 C 0 km/h
2014 12-09-2005 18:57:02 16 C 12.53 g/m*3 16 C 0 km/h
2015 12-09-2005 19:09:02 15.9 C 12.59 g/m*3 15.9 C 0 km/h
2016 12-09-2005 19:21:02 15.9 C 12.73 g/m*3 15.9 C 0 km/h
2017 12-09-2005 19:33:02 15.9 C 12.73 g/m*3 15.9 C 0 km/h
2018 12-09-2005 19:45:02 15.9 C 12.73 g/m*3 15.9 C 0 km/h
2019 12-09-2005 19:57:02 15.8 C 12.65 g/m*3 15.8 C 0 km/h
2020 12-09-2005 20:09:02 15.9 C 12.73 g/m*3 15.9 C 0 km/h
2021 12-09-2005 20:21:03 15.9 C 12.87 g/m*3 15.9 C 0 km/h
2022 12-09-2005 20:33:02 16 C 12.81 g/m*3 16 C 0 km/h
2023 12-09-2005 20:45:02 15.9 C 12.87 g/m*3 15.9 C 0 km/h
2024 12-09-2005 20:57:02 15.9 C 12.87 g/m*3 15.9 C 0 km/h
2025 12-09-2005 21:09:01 15.9 C 12.87 g/m*3 15.9 C 0 km/h
Sensor: Nr:Datum:Temp:Abs-Feuchte:Windchill:Wind:
Aussen-T/F 2026 12-09-2005 21:21:02 15.9 C 12.87 g/m*3 15.9 C 0 km/h
2027 12-09-2005 21:33:02 16 C 12.81 g/m*3 16 C 0 km/h
2028 12-09-2005 21:45:02 16.1 C 12.88 g/m*3 16.1 C 0 km/h
2029 12-09-2005 21:57:02 16.1 C 12.88 g/m*3 16.1 C 0 km/h
2030 12-09-2005 22:09:02 16.1 C 12.88 g/m*3 16.1 C 0 km/h
2031 12-09-2005 22:21:03 15.9 C 12.87 g/m*3 15.9 C 0 km/h
2032 12-09-2005 22:33:02 15.8 C 12.79 g/m*3 15.8 C 0 km/h
2033 12-09-2005 22:45:02 15.6 C 12.63 g/m*3 15.6 C 0 km/h
2034 12-09-2005 22:57:02 15.7 C 12.71 g/m*3 15.7 C 0 km/h
2035 12-09-2005 23:09:01 15.5 C 12.56 g/m*3 15.5 C 0 km/h
2036 12-09-2005 23:21:02 15.6 C 12.63 g/m*3 15.6 C 0 km/h
2037 12-09-2005 23:33:02 15.6 C 12.63 g/m*3 15.6 C 0 km/h
2038 12-09-2005 23:45:02 15.6 C 12.63 g/m*3 15.6 C 0 km/h
2039 12-09-2005 23:57:03 15.7 C 12.71 g/m*3 15.7 C 0 km/h
2040 13-09-2005 00:09:02 15.8 C 12.79 g/m*3 15.8 C 0 km/h
2041 13-09-2005 00:21:03 15.6 C 12.63 g/m*3 15.6 C 0 km/h
2042 13-09-2005 00:33:02 15.8 C 12.79 g/m*3 15.8 C 0 km/h
2043 13-09-2005 00:45:03 15.8 C 12.79 g/m*3 15.8 C 0 km/h
2044 13-09-2005 00:57:03 15.7 C 12.71 g/m*3 15.7 C 0 km/h
2045 13-09-2005 01:09:03 15.7 C 12.71 g/m*3 15.7 C 0 km/h
2046 13-09-2005 01:21:03 15.8 C 12.79 g/m*3 15.8 C 0 km/h
2047 13-09-2005 01:33:03 15.7 C 12.71 g/m*3 15.7 C 0 km/h
2048 13-09-2005 01:45:02 15.4 C 12.48 g/m*3 15.4 C 0 km/h
2049 13-09-2005 01:57:02 15.6 C 12.63 g/m*3 15.6 C 0 km/h
2050 13-09-2005 02:09:03 15.3 C 12.41 g/m*3 15.3 C 0 km/h
Sensor: Nr:Datum:Temp:Abs-Feuchte:Windchill:Wind:
Aussen-T/F 2051 13-09-2005 02:21:03 15.6 C 12.63 g/m*3 15.6 C 0 km/h
2052 13-09-2005 02:33:03 15.5 C 12.56 g/m*3 15.5 C 0 km/h
2053 13-09-2005 02:46:04 15.5 C 12.56 g/m*3 15.5 C 0 km/h
2054 13-09-2005 02:58:04 15.5 C 12.56 g/m*3 15.5 C 0 km/h
2055 13-09-2005 03:10:04 15.4 C 12.48 g/m*3 15.4 C 0 km/h
2056 13-09-2005 03:22:04 15.4 C 12.48 g/m*3 15.4 C 0 km/h
2057 13-09-2005 03:34:02 15.5 C 12.43 g/m*3 15.5 C 0 km/h
2058 13-09-2005 03:46:02 15.2 C 12.2 g/m*3 15.2 C 0 km/h
2059 13-09-2005 03:58:02 15.2 C 12.07 g/m*3 15.2 C 0 km/h
2060 13-09-2005 04:10:02 15.2 C 11.94 g/m*3 15.2 C 0 km/h
2061 13-09-2005 04:22:02 15.1 C 11.87 g/m*3 15.1 C 0 km/h
2062 13-09-2005 04:34:02 15 C 11.67 g/m*3 15 C 0 km/h
2063 13-09-2005 04:46:01 14.8 C 11.53 g/m*3 14.8 C 0 km/h
2064 13-09-2005 04:58:01 14.8 C 11.53 g/m*3 14.8 C 0 km/h
2065 13-09-2005 05:10:01 14.7 C 11.46 g/m*3 14.7 C 0 km/h
2066 13-09-2005 05:22:01 14.7 C 11.46 g/m*3 14.7 C 0 km/h
2067 13-09-2005 05:34:01 14.6 C 11.39 g/m*3 14.6 C 0 km/h
2068 13-09-2005 05:46:01 14.6 C 11.51 g/m*3 14.6 C 0 km/h
2069 13-09-2005 05:58:01 14.5 C 11.44 g/m*3 14.5 C 0 km/h
2070 13-09-2005 06:10:02 14.5 C 11.44 g/m*3 14.5 C 0 km/h
2071 13-09-2005 06:22:02 14.5 C 11.32 g/m*3 14.5 C 0 km/h
2072 13-09-2005 06:34:01 14.3 C 11.18 g/m*3 14.3 C 0 km/h
2073 13-09-2005 06:46:02 14 C 10.86 g/m*3 14 C 0 km/h
2074 13-09-2005 06:58:02 13.5 C 10.64 g/m*3 13.5 C 0 km/h
2075 13-09-2005 07:10:01 13.2 C 10.45 g/m*3 13.2 C 0 km/h
Sensor: Nr:Datum:Temp:Abs-Feuchte:Windchill:Wind:
Aussen-T/F 2076 13-09-2005 07:22:01 13.1 C 10.38 g/m*3 13.1 C 0 km/h
2077 13-09-2005 07:34:02 13.1 C 10.5 g/m*3 13.1 C 0 km/h
2078 13-09-2005 07:46:03 13.1 C 10.5 g/m*3 13.1 C 0 km/h
2079 13-09-2005 07:58:03 12.9 C 10.37 g/m*3 12.9 C 0 km/h
2080 13-09-2005 08:10:02 12.9 C 10.48 g/m*3 12.9 C 0 km/h
2081 13-09-2005 08:22:02 12.8 C 10.42 g/m*3 12.8 C 0 km/h
2082 13-09-2005 08:34:02 12.9 C 10.48 g/m*3 12.9 C 0 km/h
2083 13-09-2005 08:46:02 13.1 C 10.5 g/m*3 13.1 C 0 km/h
2084 13-09-2005 08:58:02 13.1 C 10.5 g/m*3 13.1 C 0 km/h
2085 13-09-2005 09:10:01 13.2 C 10.56 g/m*3 13.2 C 0 km/h
2086 13-09-2005 09:22:02 13.2 C 10.56 g/m*3 13.2 C 0 km/h
2087 13-09-2005 09:34:02 13.5 C 10.76 g/m*3 13.5 C 0 km/h
2088 13-09-2005 09:46:02 13.7 C 10.89 g/m*3 13.7 C 0 km/h
2089 13-09-2005 09:58:02 14.1 C 11.17 g/m*3 14.1 C 0 km/h
2090 13-09-2005 10:10:02 14.5 C 11.44 g/m*3 14.5 C 0 km/h
2091 13-09-2005 10:22:02 15 C 11.67 g/m*3 15 C 0 km/h
2092 13-09-2005 10:34:02 16 C 11.58 g/m*3 16 C 0 km/h
2093 13-09-2005 10:46:02 16.3 C 11.1 g/m*3 16.3 C 0 km/h
2094 13-09-2005 10:58:02 16.2 C 10.48 g/m*3 16.2 C 0 km/h
2095 13-09-2005 11:10:02 16.2 C 10.34 g/m*3 16.2 C 0 km/h
2096 13-09-2005 11:22:02 16.4 C 10.75 g/m*3 16.4 C 0 km/h
2097 13-09-2005 11:34:02 16.6 C 10.59 g/m*3 16.6 C 0 km/h
2098 13-09-2005 11:46:02 16.9 C 11.08 g/m*3 16.9 C 0 km/h
2099 13-09-2005 11:58:02 17 C 10.85 g/m*3 17 C 0 km/h
2100 13-09-2005 12:10:04 17 C 10.85 g/m*3 17 C 0 km/h
Sensor: Nr:Datum:Temp:Abs-Feuchte:Windchill:Wind:
Aussen-T/F 2101 13-09-2005 12:22:03 17.9 C 11.45 g/m*3 17.9 C 0 km/h
2102 13-09-2005 12:34:02 18.7 C 10.25 g/m*3 18.7 C 0 km/h
2103 13-09-2005 12:46:02 19.2 C 9.89 g/m*3 19.2 C 0 km/h
2104 13-09-2005 12:58:02 19.3 C 8.63 g/m*3 19.3 C 0 km/h
2105 13-09-2005 13:10:02 20.4 C 8.85 g/m*3 20.4 C 0 km/h
2106 13-09-2005 13:22:01 20.7 C 8.28 g/m*3 20.7 C 0 km/h
2107 13-09-2005 13:34:02 20.6 C 8.41 g/m*3 20.6 C 0 km/h
2108 13-09-2005 13:46:02 21.5 C 8.49 g/m*3 21.5 C 0 km/h
2109 13-09-2005 13:58:02 21.9 C 8.3 g/m*3 21.9 C 0 km/h
2110 13-09-2005 14:10:02 22.5 C 7.99 g/m*3 22.5 C 0 km/h
2111 13-09-2005 14:22:02 23 C 8.02 g/m*3 23 C 0 km/h
2112 13-09-2005 14:34:02 23.4 C 7.57 g/m*3 23.4 C 0 km/h
2113 13-09-2005 14:46:01 23 C 7.4 g/m*3 23 C 0 km/h
2114 13-09-2005 14:58:01 22.7 C 7.48 g/m*3 22.7 C 0 km/h
2115 13-09-2005 15:10:01 22.8 C 7.52 g/m*3 22.8 C 0 km/h
2116 13-09-2005 15:22:02 23.1 C 7.65 g/m*3 23.1 C 0 km/h
2117 13-09-2005 15:34:01 22.4 C 7.35 g/m*3 22.4 C 0 km/h
2118 13-09-2005 15:46:02 22.3 C 8.69 g/m*3 22.3 C 0 km/h
2119 13-09-2005 15:58:03 22.9 C 9.2 g/m*3 22.9 C 0 km/h
2120 13-09-2005 16:10:01 23.7 C 7.49 g/m*3 23.7 C 0 km/h
2121 13-09-2005 16:22:02 24.5 C 7.39 g/m*3 24.5 C 0 km/h
2122 13-09-2005 16:34:02 25.1 C 7.18 g/m*3 25.1 C 0 km/h
2123 13-09-2005 16:46:02 23.9 C 6.92 g/m*3 23.9 C 0 km/h
2124 13-09-2005 16:58:02 24.7 C 7.47 g/m*3 24.7 C 0 km/h
2125 13-09-2005 17:10:02 25.1 C 7.18 g/m*3 25.1 C 0 km/h
Sensor: Nr:Datum:Temp:Abs-Feuchte:Windchill:Wind:
Aussen-T/F 2126 13-09-2005 17:22:03 24.7 C 6.79 g/m*3 24.7 C 0 km/h
2127 13-09-2005 17:34:02 24.6 C 7.88 g/m*3 24.6 C 0 km/h
2128 13-09-2005 17:46:02 23.9 C 8.87 g/m*3 23.9 C 0 km/h
2129 13-09-2005 17:58:02 23.6 C 8.72 g/m*3 23.6 C 0 km/h
2130 13-09-2005 18:10:02 25.4 C 9.18 g/m*3 25.4 C 0 km/h
2131 13-09-2005 18:22:01 25.1 C 7.18 g/m*3 25.1 C 0 km/h
2132 13-09-2005 18:34:02 24.8 C 7.28 g/m*3 24.8 C 0 km/h
2133 13-09-2005 18:46:02 24.5 C 7.16 g/m*3 24.5 C 0 km/h
2134 13-09-2005 18:58:02 24.5 C 8.73 g/m*3 24.5 C 0 km/h
2135 13-09-2005 19:10:02 23 C 8.43 g/m*3 23 C 0 km/h
2136 13-09-2005 19:22:02 21.7 C 8.58 g/m*3 21.7 C 0 km/h
2137 13-09-2005 19:34:02 20.2 C 8.57 g/m*3 20.2 C 0 km/h
2138 13-09-2005 19:46:02 18.9 C 8.59 g/m*3 18.9 C 0 km/h
2139 13-09-2005 19:58:02 18.3 C 8.44 g/m*3 18.3 C 0 km/h
2140 13-09-2005 20:10:02 17.8 C 8.65 g/m*3 17.8 C 0 km/h
2141 13-09-2005 20:22:03 17.5 C 8.35 g/m*3 17.5 C 0 km/h
2142 13-09-2005 20:34:03 17.1 C 8.73 g/m*3 17.1 C 0 km/h
2143 13-09-2005 20:46:02 16.9 C 9.06 g/m*3 16.9 C 0 km/h
2144 13-09-2005 20:58:03 16.8 C 9.58 g/m*3 16.8 C 0 km/h
2145 13-09-2005 21:10:02 16.5 C 9.55 g/m*3 16.5 C 0 km/h
2146 13-09-2005 21:22:02 16.2 C 9.24 g/m*3 16.2 C 0 km/h
2147 13-09-2005 21:34:02 16 C 9.26 g/m*3 16 C 0 km/h
2148 13-09-2005 21:46:02 15.7 C 9.37 g/m*3 15.7 C 0 km/h
2149 13-09-2005 21:58:02 15.5 C 9.39 g/m*3 15.5 C 0 km/h
2150 13-09-2005 22:10:02 15.3 C 9.53 g/m*3 15.3 C 0 km/h
Sensor: Nr:Datum:Temp:Abs-Feuchte:Windchill:Wind:
Aussen-T/F 2151 13-09-2005 22:22:03 15.1 C 9.55 g/m*3 15.1 C 0 km/h
2152 13-09-2005 22:34:02 14.8 C 9.5 g/m*3 14.8 C 0 km/h
2153 13-09-2005 22:46:02 14.7 C 9.57 g/m*3 14.7 C 0 km/h
2154 13-09-2005 22:58:02 14.5 C 9.58 g/m*3 14.5 C 0 km/h
2155 13-09-2005 23:10:02 14.4 C 9.64 g/m*3 14.4 C 0 km/h
2156 13-09-2005 23:22:02 14.1 C 9.59 g/m*3 14.1 C 0 km/h
2157 13-09-2005 23:34:02 14 C 9.65 g/m*3 14 C 0 km/h
2158 13-09-2005 23:46:02 13.9 C 9.71 g/m*3 13.9 C 0 km/h
2159 13-09-2005 23:58:02 13.9 C 9.71 g/m*3 13.9 C 0 km/h
2160 14-09-2005 00:10:01 13.7 C 9.71 g/m*3 13.7 C 0 km/h
2161 14-09-2005 00:22:03 13.5 C 9.59 g/m*3 13.5 C 0 km/h
2162 14-09-2005 00:34:02 13.4 C 9.53 g/m*3 13.4 C 0 km/h
2163 14-09-2005 00:46:01 13.3 C 9.59 g/m*3 13.3 C 0 km/h
2164 14-09-2005 00:58:01 13.2 C 9.53 g/m*3 13.2 C 0 km/h
2165 14-09-2005 01:10:01 13.1 C 9.59 g/m*3 13.1 C 0 km/h
2166 14-09-2005 01:22:02 12.9 C 9.58 g/m*3 12.9 C 0 km/h
2167 14-09-2005 01:34:02 12.8 C 9.63 g/m*3 12.8 C 0 km/h
2168 14-09-2005 01:46:02 12.6 C 9.51 g/m*3 12.6 C 0 km/h
2169 14-09-2005 01:58:02 12.5 C 9.46 g/m*3 12.5 C 0 km/h
2170 14-09-2005 02:10:02 12.4 C 9.4 g/m*3 12.4 C 0 km/h
2171 14-09-2005 02:22:02 12.2 C 9.28 g/m*3 12.2 C 0 km/h
2172 14-09-2005 02:34:02 12.2 C 9.28 g/m*3 12.2 C 0 km/h
2173 14-09-2005 02:47:04 12.1 C 9.22 g/m*3 12.1 C 0 km/h
2174 14-09-2005 02:59:04 12.1 C 9.33 g/m*3 12.1 C 0 km/h
2175 14-09-2005 03:11:04 11.8 C 9.26 g/m*3 11.8 C 0 km/h
Sensor: Nr:Datum:Temp:Abs-Feuchte:Windchill:Wind:
Aussen-T/F 2176 14-09-2005 03:23:04 11.7 C 9.31 g/m*3 11.7 C 0 km/h
2177 14-09-2005 03:35:02 11.6 C 9.25 g/m*3 11.6 C 0 km/h
2178 14-09-2005 03:47:03 11.6 C 9.15 g/m*3 11.6 C 0 km/h
2179 14-09-2005 03:59:03 11.5 C 9.19 g/m*3 11.5 C 0 km/h
2180 14-09-2005 04:11:02 11.4 C 9.03 g/m*3 11.4 C 0 km/h
2181 14-09-2005 04:23:02 11.4 C 9.14 g/m*3 11.4 C 0 km/h
2182 14-09-2005 04:35:01 11.3 C 9.08 g/m*3 11.3 C 0 km/h
2183 14-09-2005 04:47:02 11.1 C 8.96 g/m*3 11.1 C 0 km/h
2184 14-09-2005 04:59:02 11.1 C 8.96 g/m*3 11.1 C 0 km/h
2185 14-09-2005 05:11:02 11 C 8.91 g/m*3 11 C 0 km/h
2186 14-09-2005 05:23:02 11.1 C 9.07 g/m*3 11.1 C 0 km/h
2187 14-09-2005 05:35:02 11.1 C 9.07 g/m*3 11.1 C 0 km/h
2188 14-09-2005 05:47:02 11.2 C 9.22 g/m*3 11.2 C 0 km/h
2189 14-09-2005 05:59:02 11.2 C 9.22 g/m*3 11.2 C 0 km/h
2190 14-09-2005 06:11:02 11.3 C 9.28 g/m*3 11.3 C 0 km/h
2191 14-09-2005 06:23:02 11.3 C 9.38 g/m*3 11.3 C 0 km/h
2192 14-09-2005 06:35:02 11.3 C 9.38 g/m*3 11.3 C 0 km/h
2193 14-09-2005 06:47:02 11.3 C 9.38 g/m*3 11.3 C 0 km/h
2194 14-09-2005 06:59:02 11.3 C 9.38 g/m*3 11.3 C 0 km/h
2195 14-09-2005 07:11:02 11.4 C 9.44 g/m*3 11.4 C 0 km/h
2196 14-09-2005 07:23:02 11.5 C 9.5 g/m*3 11.5 C 0 km/h
2197 14-09-2005 07:35:02 11.5 C 9.5 g/m*3 11.5 C 0 km/h
2198 14-09-2005 07:47:02 11.6 C 9.56 g/m*3 11.6 C 0 km/h
2199 14-09-2005 07:59:02 11.7 C 9.62 g/m*3 11.7 C 0 km/h
2200 14-09-2005 08:11:02 11.7 C 9.62 g/m*3 11.7 C 0 km/h
Sensor: Nr:Datum:Temp:Abs-Feuchte:Windchill:Wind:
Aussen-T/F 2201 14-09-2005 08:23:03 12 C 9.7 g/m*3 12 C 0 km/h
2202 14-09-2005 08:35:02 12.3 C 9.77 g/m*3 12.3 C 0 km/h
2203 14-09-2005 08:47:02 12.5 C 9.89 g/m*3 12.5 C 0 km/h
2204 14-09-2005 08:59:02 12.9 C 10.03 g/m*3 12.9 C 0 km/h
2205 14-09-2005 09:11:01 13.3 C 9.94 g/m*3 13.3 C 0 km/h
2206 14-09-2005 09:23:02 13.5 C 10.06 g/m*3 13.5 C 0 km/h
2207 14-09-2005 09:35:02 14 C 10.13 g/m*3 14 C 0 km/h
2208 14-09-2005 09:47:02 14.1 C 9.95 g/m*3 14.1 C 0 km/h
2209 14-09-2005 09:59:02 14.2 C 10.01 g/m*3 14.2 C 0 km/h
2210 14-09-2005 10:11:02 14.5 C 10.07 g/m*3 14.5 C 0 km/h
2211 14-09-2005 10:23:02 14.8 C 10.13 g/m*3 14.8 C 0 km/h
2212 14-09-2005 10:35:02 15.3 C 10.19 g/m*3 15.3 C 0 km/h
2213 14-09-2005 10:47:02 15.6 C 10.24 g/m*3 15.6 C 0 km/h
2214 14-09-2005 10:59:02 16.2 C 10.2 g/m*3 16.2 C 0 km/h
2215 14-09-2005 11:11:02 16.6 C 10.17 g/m*3 16.6 C 0 km/h
2216 14-09-2005 11:23:02 16.8 C 10.15 g/m*3 16.8 C 0 km/h
2217 14-09-2005 11:35:02 17.2 C 10.1 g/m*3 17.2 C 0 km/h
2218 14-09-2005 11:47:02 17.3 C 10.02 g/m*3 17.3 C 0 km/h
2219 14-09-2005 11:59:02 18.2 C 9.95 g/m*3 18.2 C 0 km/h
2220 14-09-2005 12:11:01 18.7 C 9.77 g/m*3 18.7 C 0 km/h
2221 14-09-2005 12:23:02 19.5 C 9.73 g/m*3 19.5 C 0 km/h
2222 14-09-2005 12:35:02 19.8 C 9.74 g/m*3 19.8 C 0 km/h
2223 14-09-2005 12:47:02 20.1 C 9.21 g/m*3 20.1 C 0 km/h
2224 14-09-2005 12:59:02 20.3 C 9.67 g/m*3 20.3 C 0 km/h
2225 14-09-2005 13:11:02 20.4 C 9.55 g/m*3 20.4 C 0 km/h
Sensor: Nr:Datum:Temp:Abs-Feuchte:Windchill:Wind:
Aussen-T/F 2226 14-09-2005 13:23:02 20.8 C 9.78 g/m*3 20.8 C 0 km/h
2227 14-09-2005 13:35:02 21.5 C 9.62 g/m*3 21.5 C 0 km/h
2228 14-09-2005 13:47:02 22.1 C 9.37 g/m*3 22.1 C 0 km/h
2229 14-09-2005 13:59:02 22.5 C 9.19 g/m*3 22.5 C 0 km/h
2230 14-09-2005 14:11:02 22.4 C 8.94 g/m*3 22.4 C 0 km/h
2231 14-09-2005 14:23:03 22.5 C 8.79 g/m*3 22.5 C 0 km/h
2232 14-09-2005 14:35:02 22.8 C 8.13 g/m*3 22.8 C 0 km/h
2233 14-09-2005 14:47:01 22.9 C 8.38 g/m*3 22.9 C 0 km/h
2234 14-09-2005 14:59:01 23.3 C 8.57 g/m*3 23.3 C 0 km/h
2235 14-09-2005 15:11:01 23.5 C 8.25 g/m*3 23.5 C 0 km/h
2236 14-09-2005 15:23:01 24.3 C 7.97 g/m*3 24.3 C 0 km/h
2237 14-09-2005 15:35:02 23.7 C 8.34 g/m*3 23.7 C 0 km/h
2238 14-09-2005 15:47:02 23 C 7.6 g/m*3 23 C 0 km/h
2239 14-09-2005 15:59:02 23.8 C 7.96 g/m*3 23.8 C 0 km/h
2240 14-09-2005 16:11:02 23.7 C 7.7 g/m*3 23.7 C 0 km/h
2241 14-09-2005 16:23:02 23.8 C 7.74 g/m*3 23.8 C 0 km/h
2242 14-09-2005 16:35:02 23.3 C 7.74 g/m*3 23.3 C 0 km/h
2243 14-09-2005 16:47:03 22.8 C 8.13 g/m*3 22.8 C 0 km/h
2244 14-09-2005 16:59:03 22.6 C 8.24 g/m*3 22.6 C 0 km/h
2245 14-09-2005 17:11:02 22.5 C 8.39 g/m*3 22.5 C 0 km/h
2246 14-09-2005 17:23:02 22.3 C 8.49 g/m*3 22.3 C 0 km/h
2247 14-09-2005 17:35:03 22.1 C 8.2 g/m*3 22.1 C 0 km/h
2248 14-09-2005 17:47:02 21.9 C 8.68 g/m*3 21.9 C 0 km/h
2249 14-09-2005 17:59:02 21.8 C 8.63 g/m*3 21.8 C 0 km/h
2250 14-09-2005 18:11:01 21.6 C 9.1 g/m*3 21.6 C 0 km/h
Sensor: Nr:Datum:Temp:Abs-Feuchte:Windchill:Wind:
Aussen-T/F 2251 14-09-2005 18:23:02 21.5 C 9.05 g/m*3 21.5 C 0 km/h
2252 14-09-2005 18:35:02 21.3 C 9.13 g/m*3 21.3 C 0 km/h
2253 14-09-2005 18:47:01 20.8 C 9.23 g/m*3 20.8 C 0 km/h
2254 14-09-2005 18:59:01 19.9 C 10.31 g/m*3 19.9 C 0 km/h
2255 14-09-2005 19:11:01 19.1 C 11.31 g/m*3 19.1 C 0 km/h
2256 14-09-2005 19:23:02 19.1 C 10.98 g/m*3 19.1 C 0 km/h
2257 14-09-2005 19:35:02 19.1 C 10.82 g/m*3 19.1 C 0 km/h
2258 14-09-2005 19:47:02 19 C 10.92 g/m*3 19 C 0 km/h
2259 14-09-2005 19:59:03 19.1 C 10.82 g/m*3 19.1 C 0 km/h
2260 14-09-2005 20:11:02 18.9 C 10.69 g/m*3 18.9 C 0 km/h
2261 14-09-2005 20:23:02 18.2 C 11.19 g/m*3 18.2 C 0 km/h
2262 14-09-2005 20:35:02 18.5 C 11.39 g/m*3 18.5 C 0 km/h
2263 14-09-2005 20:47:02 18.6 C 11.3 g/m*3 18.6 C 0 km/h
2264 14-09-2005 20:59:02 18.6 C 11.3 g/m*3 18.6 C 0 km/h
2265 14-09-2005 21:11:02 18.7 C 11.37 g/m*3 18.7 C 0 km/h
2266 14-09-2005 21:23:02 18.7 C 11.21 g/m*3 18.7 C 0 km/h
2267 14-09-2005 21:35:02 18.7 C 11.05 g/m*3 18.7 C 0 km/h
2268 14-09-2005 21:47:02 18.6 C 11.14 g/m*3 18.6 C 0 km/h
2269 14-09-2005 21:59:02 18.7 C 10.89 g/m*3 18.7 C 0 km/h
2270 14-09-2005 22:11:02 18.7 C 10.89 g/m*3 18.7 C 0 km/h
2271 14-09-2005 22:23:02 18.9 C 10.69 g/m*3 18.9 C 0 km/h
2272 14-09-2005 22:35:02 19 C 10.59 g/m*3 19 C 0 km/h
2273 14-09-2005 22:47:02 19 C 10.59 g/m*3 19 C 0 km/h
2274 14-09-2005 22:59:02 19.1 C 10.66 g/m*3 19.1 C 0 km/h
2275 14-09-2005 23:11:02 18.9 C 10.85 g/m*3 18.9 C 0 km/h
Sensor: Nr:Datum:Temp:Abs-Feuchte:Windchill:Wind:
Aussen-T/F 2276 14-09-2005 23:23:02 19 C 10.76 g/m*3 19 C 0 km/h
2277 14-09-2005 23:35:02 19.1 C 10.66 g/m*3 19.1 C 0 km/h
2278 14-09-2005 23:47:02 19.1 C 10.66 g/m*3 19.1 C 0 km/h
2279 14-09-2005 23:59:02 19.1 C 10.82 g/m*3 19.1 C 0 km/h
2280 15-09-2005 00:11:02 19.1 C 10.82 g/m*3 19.1 C 0 km/h
2281 15-09-2005 00:23:03 19.1 C 10.82 g/m*3 19.1 C 0 km/h
2282 15-09-2005 00:35:02 19.1 C 10.98 g/m*3 19.1 C 0 km/h
2283 15-09-2005 00:47:02 19 C 10.92 g/m*3 19 C 0 km/h
2284 15-09-2005 00:59:02 19 C 11.08 g/m*3 19 C 0 km/h
2285 15-09-2005 01:11:02 18.9 C 11.18 g/m*3 18.9 C 0 km/h
2286 15-09-2005 01:23:03 18.8 C 11.27 g/m*3 18.8 C 0 km/h
2287 15-09-2005 01:35:02 18.8 C 11.27 g/m*3 18.8 C 0 km/h
2288 15-09-2005 01:47:02 18.8 C 11.27 g/m*3 18.8 C 0 km/h
2289 15-09-2005 01:59:02 18.8 C 11.43 g/m*3 18.8 C 0 km/h
2290 15-09-2005 02:11:02 18.8 C 11.43 g/m*3 18.8 C 0 km/h
2291 15-09-2005 02:23:02 18.7 C 11.37 g/m*3 18.7 C 0 km/h
2292 15-09-2005 02:35:02 18.7 C 11.53 g/m*3 18.7 C 0 km/h
2293 15-09-2005 02:48:03 18.6 C 11.62 g/m*3 18.6 C 0 km/h
2294 15-09-2005 03:00:03 18.6 C 11.62 g/m*3 18.6 C 0 km/h
2295 15-09-2005 03:12:03 18.5 C 11.71 g/m*3 18.5 C 0 km/h
2296 15-09-2005 03:24:03 18.5 C 11.71 g/m*3 18.5 C 0 km/h
2297 15-09-2005 03:36:03 18.4 C 11.8 g/m*3 18.4 C 0 km/h
2298 15-09-2005 03:48:03 18.3 C 11.88 g/m*3 18.3 C 0 km/h
2299 15-09-2005 04:00:03 18.3 C 11.88 g/m*3 18.3 C 0 km/h
2300 15-09-2005 04:12:01 18.2 C 11.97 g/m*3 18.2 C 0 km/h
Sensor: Nr:Datum:Temp:Abs-Feuchte:Windchill:Wind:
Aussen-T/F 2301 15-09-2005 04:24:02 18.2 C 11.81 g/m*3 18.2 C 0 km/h
2302 15-09-2005 04:36:02 18.2 C 11.81 g/m*3 18.2 C 0 km/h
2303 15-09-2005 04:48:02 18.2 C 11.81 g/m*3 18.2 C 0 km/h
2304 15-09-2005 05:00:02 18.2 C 11.66 g/m*3 18.2 C 0 km/h
2305 15-09-2005 05:12:02 17.9 C 11.76 g/m*3 17.9 C 0 km/h
2306 15-09-2005 05:24:02 17.5 C 11.93 g/m*3 17.5 C 0 km/h
2307 15-09-2005 05:36:02 17.4 C 12 g/m*3 17.4 C 0 km/h
2308 15-09-2005 05:48:01 17.2 C 11.86 g/m*3 17.2 C 0 km/h
2309 15-09-2005 06:00:01 17.2 C 12.01 g/m*3 17.2 C 0 km/h
2310 15-09-2005 06:12:01 17.3 C 12.08 g/m*3 17.3 C 0 km/h
2311 15-09-2005 06:24:02 17.5 C 12.08 g/m*3 17.5 C 0 km/h
2312 15-09-2005 06:36:01 17.5 C 12.08 g/m*3 17.5 C 0 km/h
2313 15-09-2005 06:48:02 17.5 C 12.08 g/m*3 17.5 C 0 km/h
2314 15-09-2005 07:00:02 17.5 C 12.08 g/m*3 17.5 C 0 km/h
2315 15-09-2005 07:12:02 17.5 C 12.08 g/m*3 17.5 C 0 km/h
2316 15-09-2005 07:24:01 17.5 C 12.08 g/m*3 17.5 C 0 km/h
2317 15-09-2005 07:36:02 17.4 C 12 g/m*3 17.4 C 0 km/h
2318 15-09-2005 07:48:01 17.4 C 12 g/m*3 17.4 C 0 km/h
2319 15-09-2005 08:00:01 17.5 C 12.08 g/m*3 17.5 C 0 km/h
2320 15-09-2005 08:12:01 17.6 C 12.15 g/m*3 17.6 C 0 km/h
2321 15-09-2005 08:24:02 17.9 C 12.21 g/m*3 17.9 C 0 km/h
2322 15-09-2005 08:36:01 18 C 11.98 g/m*3 18 C 0 km/h
2323 15-09-2005 08:48:02 18 C 11.98 g/m*3 18 C 0 km/h
2324 15-09-2005 09:00:02 17.9 C 12.21 g/m*3 17.9 C 0 km/h
2325 15-09-2005 09:12:01 18.1 C 12.05 g/m*3 18.1 C 0 km/h
Sensor: Nr:Datum:Temp:Abs-Feuchte:Windchill:Wind:
Aussen-T/F 2326 15-09-2005 09:24:02 18.4 C 11.95 g/m*3 18.4 C 0 km/h
2327 15-09-2005 09:36:02 18.6 C 11.62 g/m*3 18.6 C 0 km/h
2328 15-09-2005 09:48:02 18.8 C 11.76 g/m*3 18.8 C 0 km/h
2329 15-09-2005 10:00:02 19.1 C 11.64 g/m*3 19.1 C 0 km/h
2330 15-09-2005 10:12:02 19.7 C 11.55 g/m*3 19.7 C 0 km/h
2331 15-09-2005 10:24:02 20.1 C 11.47 g/m*3 20.1 C 0 km/h
2332 15-09-2005 10:36:02 20.2 C 11.54 g/m*3 20.2 C 0 km/h
2333 15-09-2005 10:48:01 20.5 C 11.57 g/m*3 20.5 C 0 km/h
2334 15-09-2005 11:00:01 20.8 C 11.77 g/m*3 20.8 C 0 km/h
2335 15-09-2005 11:12:01 21.2 C 11.49 g/m*3 21.2 C 0 km/h
2336 15-09-2005 11:24:02 21.4 C 11.62 g/m*3 21.4 C 0 km/h
2337 15-09-2005 11:36:01 21.9 C 11.58 g/m*3 21.9 C 0 km/h
2338 15-09-2005 11:48:02 22 C 10.29 g/m*3 22 C 0 km/h
2339 15-09-2005 12:00:02 22.9 C 10.22 g/m*3 22.9 C 0 km/h
2340 15-09-2005 12:12:01 22.5 C 10.19 g/m*3 22.5 C 0 km/h
2341 15-09-2005 12:24:02 22.5 C 10.19 g/m*3 22.5 C 0 km/h
2342 15-09-2005 12:36:02 23.3 C 9.83 g/m*3 23.3 C 0 km/h
2343 15-09-2005 12:48:02 23.5 C 9.73 g/m*3 23.5 C 0 km/h
2344 15-09-2005 13:00:02 23.9 C 9.3 g/m*3 23.9 C 0 km/h
2345 15-09-2005 13:12:02 23.6 C 9.15 g/m*3 23.6 C 0 km/h
2346 15-09-2005 13:24:02 23.7 C 9.2 g/m*3 23.7 C 0 km/h
2347 15-09-2005 13:36:02 23.8 C 8.82 g/m*3 23.8 C 0 km/h
2348 15-09-2005 13:48:01 23.9 C 8.87 g/m*3 23.9 C 0 km/h
2349 15-09-2005 14:00:01 24.4 C 8.9 g/m*3 24.4 C 0 km/h
2350 15-09-2005 14:12:01 24.5 C 8.73 g/m*3 24.5 C 0 km/h
Sensor: Nr:Datum:Temp:Abs-Feuchte:Windchill:Wind:
Aussen-T/F 2351 15-09-2005 14:24:02 24.3 C 8.63 g/m*3 24.3 C 0 km/h
2352 15-09-2005 14:36:01 23.7 C 8.56 g/m*3 23.7 C 0 km/h
2353 15-09-2005 14:48:02 24 C 8.92 g/m*3 24 C 0 km/h
2354 15-09-2005 15:00:02 24.6 C 8.78 g/m*3 24.6 C 0 km/h
2355 15-09-2005 15:12:02 24.3 C 8.85 g/m*3 24.3 C 0 km/h
2356 15-09-2005 15:24:02 24.5 C 8.95 g/m*3 24.5 C 0 km/h
2357 15-09-2005 15:36:02 24.1 C 8.97 g/m*3 24.1 C 0 km/h
2358 15-09-2005 15:48:02 23.8 C 9.46 g/m*3 23.8 C 0 km/h
2359 15-09-2005 16:00:02 24 C 9.36 g/m*3 24 C 0 km/h
2360 15-09-2005 16:12:02 24.1 C 9.19 g/m*3 24.1 C 0 km/h
2361 15-09-2005 16:24:02 23.9 C 9.52 g/m*3 23.9 C 0 km/h
2362 15-09-2005 16:36:02 23.3 C 9.2 g/m*3 23.3 C 0 km/h
2363 15-09-2005 16:48:02 23.3 C 9.2 g/m*3 23.3 C 0 km/h
2364 15-09-2005 17:00:02 23.4 C 9.25 g/m*3 23.4 C 0 km/h
2365 15-09-2005 17:12:02 23.4 C 9.46 g/m*3 23.4 C 0 km/h
2366 15-09-2005 17:24:03 22.8 C 9.75 g/m*3 22.8 C 0 km/h
2367 15-09-2005 17:36:02 22.6 C 9.64 g/m*3 22.6 C 0 km/h
2368 15-09-2005 17:48:02 22.4 C 9.93 g/m*3 22.4 C 0 km/h
2369 15-09-2005 18:00:02 21.9 C 10.23 g/m*3 21.9 C 0 km/h
2370 15-09-2005 18:12:01 21.8 C 9.98 g/m*3 21.8 C 0 km/h
2371 15-09-2005 18:24:02 21.6 C 9.86 g/m*3 21.6 C 0 km/h
2372 15-09-2005 18:36:01 21.6 C 9.86 g/m*3 21.6 C 0 km/h
2373 15-09-2005 18:48:02 21.6 C 10.05 g/m*3 21.6 C 0 km/h
2374 15-09-2005 19:00:02 21.2 C 10.19 g/m*3 21.2 C 0 km/h
2375 15-09-2005 19:12:02 20.3 C 11.26 g/m*3 20.3 C 0 km/h
Sensor: Nr:Datum:Temp:Abs-Feuchte:Windchill:Wind:
Aussen-T/F 2376 15-09-2005 19:24:02 18.9 C 12.47 g/m*3 18.9 C 0 km/h
2377 15-09-2005 19:36:03 18.6 C 12.57 g/m*3 18.6 C 0 km/h
2378 15-09-2005 19:48:02 19 C 12.22 g/m*3 19 C 0 km/h
2379 15-09-2005 20:00:02 18.8 C 12.24 g/m*3 18.8 C 0 km/h
2380 15-09-2005 20:12:02 19.2 C 11.87 g/m*3 19.2 C 0 km/h
2381 15-09-2005 20:24:02 19.1 C 11.8 g/m*3 19.1 C 0 km/h
2382 15-09-2005 20:36:02 18.5 C 12.34 g/m*3 18.5 C 0 km/h
2383 15-09-2005 20:48:02 18 C 12.59 g/m*3 18 C 0 km/h
2384 15-09-2005 21:00:02 18.2 C 12.75 g/m*3 18.2 C 0 km/h
2385 15-09-2005 21:12:02 18.7 C 12.65 g/m*3 18.7 C 0 km/h
2386 15-09-2005 21:24:02 18.9 C 12.47 g/m*3 18.9 C 0 km/h
2387 15-09-2005 21:36:02 19 C 12.06 g/m*3 19 C 0 km/h
2388 15-09-2005 21:48:02 19.1 C 11.97 g/m*3 19.1 C 0 km/h
2389 15-09-2005 22:00:03 19.3 C 11.78 g/m*3 19.3 C 0 km/h
2390 15-09-2005 22:12:01 19.4 C 11.85 g/m*3 19.4 C 0 km/h
2391 15-09-2005 22:24:02 19.5 C 11.92 g/m*3 19.5 C 0 km/h
2392 15-09-2005 22:36:02 19.5 C 12.08 g/m*3 19.5 C 0 km/h
2393 15-09-2005 22:48:02 19.5 C 12.08 g/m*3 19.5 C 0 km/h
2394 15-09-2005 23:00:02 19.5 C 12.25 g/m*3 19.5 C 0 km/h
2395 15-09-2005 23:12:03 19.5 C 12.25 g/m*3 19.5 C 0 km/h
2396 15-09-2005 23:24:02 19.6 C 12.32 g/m*3 19.6 C 0 km/h
2397 15-09-2005 23:36:02 19.6 C 12.32 g/m*3 19.6 C 0 km/h
2398 15-09-2005 23:48:02 19.7 C 12.4 g/m*3 19.7 C 0 km/h
2399 16-09-2005 00:00:03 19.7 C 12.23 g/m*3 19.7 C 0 km/h
2400 16-09-2005 00:12:02 19.8 C 12.3 g/m*3 19.8 C 0 km/h
Sensor: Nr:Datum:Temp:Abs-Feuchte:Windchill:Wind:
Aussen-T/F 2401 16-09-2005 00:24:03 19.7 C 12.23 g/m*3 19.7 C 0 km/h
2402 16-09-2005 00:36:02 19.7 C 12.06 g/m*3 19.7 C 0 km/h
2403 16-09-2005 00:48:02 19.9 C 12.2 g/m*3 19.9 C 0 km/h
2404 16-09-2005 01:00:02 19.5 C 12.25 g/m*3 19.5 C 0 km/h
2405 16-09-2005 01:12:02 19.1 C 12.29 g/m*3 19.1 C 0 km/h
2406 16-09-2005 01:24:01 19.3 C 12.27 g/m*3 19.3 C 0 km/h
2407 16-09-2005 01:36:02 18.7 C 12.65 g/m*3 18.7 C 0 km/h
2408 16-09-2005 01:48:02 18.2 C 12.9 g/m*3 18.2 C 0 km/h
2409 16-09-2005 02:00:02 17.9 C 13.13 g/m*3 17.9 C 0 km/h
2410 16-09-2005 02:12:01 17.9 C 13.13 g/m*3 17.9 C 0 km/h
2411 16-09-2005 02:24:02 17.9 C 13.28 g/m*3 17.9 C 0 km/h
2412 16-09-2005 02:36:02 17.7 C 13.28 g/m*3 17.7 C 0 km/h
2413 16-09-2005 02:49:04 17.6 C 13.35 g/m*3 17.6 C 0 km/h
2414 16-09-2005 03:01:04 17.6 C 13.35 g/m*3 17.6 C 0 km/h
2415 16-09-2005 03:13:04 17.5 C 13.42 g/m*3 17.5 C 0 km/h
2416 16-09-2005 03:25:04 17.5 C 13.57 g/m*3 17.5 C 0 km/h
2417 16-09-2005 03:37:02 17.4 C 13.49 g/m*3 17.4 C 0 km/h
2418 16-09-2005 03:49:02 17.4 C 13.63 g/m*3 17.4 C 0 km/h
2419 16-09-2005 04:01:02 17.4 C 13.63 g/m*3 17.4 C 0 km/h
2420 16-09-2005 04:13:02 17.3 C 13.55 g/m*3 17.3 C 0 km/h
2421 16-09-2005 04:25:02 17.2 C 13.47 g/m*3 17.2 C 0 km/h
2422 16-09-2005 04:37:02 17.1 C 13.39 g/m*3 17.1 C 0 km/h
2423 16-09-2005 04:49:02 17.1 C 13.39 g/m*3 17.1 C 0 km/h
2424 16-09-2005 05:01:02 17 C 13.46 g/m*3 17 C 0 km/h
2425 16-09-2005 05:13:02 17 C 13.46 g/m*3 17 C 0 km/h
Sensor: Nr:Datum:Temp:Abs-Feuchte:Windchill:Wind:
Aussen-T/F 2426 16-09-2005 05:25:02 17 C 13.31 g/m*3 17 C 0 km/h
2427 16-09-2005 05:37:01 16.9 C 13.38 g/m*3 16.9 C 0 km/h
2428 16-09-2005 05:49:02 16.9 C 13.23 g/m*3 16.9 C 0 km/h
2429 16-09-2005 06:01:02 17.1 C 12.96 g/m*3 17.1 C 0 km/h
2430 16-09-2005 06:13:02 17 C 12.88 g/m*3 17 C 0 km/h
2431 16-09-2005 06:25:02 17.1 C 12.66 g/m*3 17.1 C 0 km/h
2432 16-09-2005 06:37:02 17.1 C 12.23 g/m*3 17.1 C 0 km/h
2433 16-09-2005 06:49:02 17 C 11.87 g/m*3 17 C 0 km/h
2434 16-09-2005 07:01:02 16.8 C 12.01 g/m*3 16.8 C 0 km/h
2435 16-09-2005 07:13:02 16.5 C 12.08 g/m*3 16.5 C 0 km/h
2436 16-09-2005 07:25:02 16.6 C 11.72 g/m*3 16.6 C 0 km/h
2437 16-09-2005 07:37:02 17.2 C 11.42 g/m*3 17.2 C 0 km/h
2438 16-09-2005 07:49:02 17.3 C 11.2 g/m*3 17.3 C 0 km/h
2439 16-09-2005 08:01:01 17.2 C 11.13 g/m*3 17.2 C 0 km/h
2440 16-09-2005 08:13:01 17.3 C 11.34 g/m*3 17.3 C 0 km/h
2441 16-09-2005 08:25:01 17.4 C 11.41 g/m*3 17.4 C 0 km/h
2442 16-09-2005 08:37:02 17.4 C 11.56 g/m*3 17.4 C 0 km/h
2443 16-09-2005 08:49:02 17.7 C 11.32 g/m*3 17.7 C 0 km/h
2444 16-09-2005 09:01:01 17.5 C 11.48 g/m*3 17.5 C 0 km/h
2445 16-09-2005 09:13:01 17.4 C 11.56 g/m*3 17.4 C 0 km/h
2446 16-09-2005 09:25:02 16.5 C 11.37 g/m*3 16.5 C 0 km/h
2447 16-09-2005 09:37:02 14.8 C 10.89 g/m*3 14.8 C 0 km/h
2448 16-09-2005 09:49:02 14.4 C 10.75 g/m*3 14.4 C 0 km/h
2449 16-09-2005 10:01:02 14.1 C 10.56 g/m*3 14.1 C 0 km/h
2450 16-09-2005 10:13:02 13.7 C 10.3 g/m*3 13.7 C 0 km/h
Sensor: Nr:Datum:Temp:Abs-Feuchte:Windchill:Wind:
Aussen-T/F 2451 16-09-2005 10:25:02 13.4 C 10.23 g/m*3 13.4 C 0 km/h
2452 16-09-2005 10:37:02 13.1 C 10.04 g/m*3 13.1 C 0 km/h
2453 16-09-2005 10:49:02 13 C 10.09 g/m*3 13 C 0 km/h
2454 16-09-2005 11:01:02 13.1 C 10.04 g/m*3 13.1 C 0 km/h
2455 16-09-2005 11:13:02 13.1 C 9.93 g/m*3 13.1 C 0 km/h
2456 16-09-2005 11:25:03 12.9 C 9.81 g/m*3 12.9 C 0 km/h
2457 16-09-2005 11:37:02 12.8 C 9.74 g/m*3 12.8 C 0 km/h
2458 16-09-2005 11:49:02 12.9 C 9.81 g/m*3 12.9 C 0 km/h
2459 16-09-2005 12:01:01 12.8 C 9.74 g/m*3 12.8 C 0 km/h
2460 16-09-2005 12:13:01 12.5 C 9.57 g/m*3 12.5 C 0 km/h
2461 16-09-2005 12:25:01 12.3 C 9.45 g/m*3 12.3 C 0 km/h
2462 16-09-2005 12:37:02 12.6 C 9.74 g/m*3 12.6 C 0 km/h
2463 16-09-2005 12:49:02 12.6 C 9.62 g/m*3 12.6 C 0 km/h
2464 16-09-2005 13:01:02 13.1 C 9.81 g/m*3 13.1 C 0 km/h
2465 16-09-2005 13:13:02 13.1 C 9.59 g/m*3 13.1 C 0 km/h
2466 16-09-2005 13:25:03 13.1 C 9.01 g/m*3 13.1 C 0 km/h
2467 16-09-2005 13:37:02 12.9 C 8.9 g/m*3 12.9 C 0 km/h
2468 16-09-2005 13:49:01 13.6 C 8.94 g/m*3 13.6 C 0 km/h
2469 16-09-2005 14:01:01 13.7 C 8.41 g/m*3 13.7 C 0 km/h
2470 16-09-2005 14:13:01 13.9 C 7.79 g/m*3 13.9 C 0 km/h
2471 16-09-2005 14:25:02 14.4 C 7.91 g/m*3 14.4 C 0 km/h
2472 16-09-2005 14:37:02 15 C 7.82 g/m*3 15 C 0 km/h
2473 16-09-2005 14:49:03 14.9 C 7.39 g/m*3 14.9 C 0 km/h
2474 16-09-2005 15:01:03 14.4 C 7.29 g/m*3 14.4 C 0 km/h
2475 16-09-2005 15:13:03 15.6 C 7.05 g/m*3 15.6 C 0 km/h
Sensor: Nr:Datum:Temp:Abs-Feuchte:Windchill:Wind:
Aussen-T/F 2476 16-09-2005 15:25:02 16.1 C 6.85 g/m*3 16.1 C 0 km/h
2477 16-09-2005 15:37:03 16.1 C 6.99 g/m*3 16.1 C 0 km/h
2478 16-09-2005 16:01:02 17.3 C 6.48 g/m*3 17.3 C 0 km/h
2479 16-09-2005 16:13:02 17.5 C 6.71 g/m*3 17.5 C 0 km/h
2480 16-09-2005 16:25:02 16.8 C 6.29 g/m*3 16.8 C 0 km/h
2481 16-09-2005 16:37:01 16.4 C 6.7 g/m*3 16.4 C 0 km/h
2482 16-09-2005 16:49:02 16.1 C 6.58 g/m*3 16.1 C 0 km/h
2483 16-09-2005 17:01:02 15.9 C 6.77 g/m*3 15.9 C 0 km/h
2484 16-09-2005 17:13:02 15.7 C 6.42 g/m*3 15.7 C 0 km/h
2485 16-09-2005 17:25:02 15.8 C 6.6 g/m*3 15.8 C 0 km/h
2486 16-09-2005 17:37:02 15.6 C 6.65 g/m*3 15.6 C 0 km/h
2487 16-09-2005 17:49:02 14.3 C 7.25 g/m*3 14.3 C 0 km/h
2488 16-09-2005 18:01:02 13.5 C 7.25 g/m*3 13.5 C 0 km/h
2489 16-09-2005 18:13:02 12.8 C 7.39 g/m*3 12.8 C 0 km/h
2490 16-09-2005 18:25:02 13.6 C 7.53 g/m*3 13.6 C 0 km/h
2491 16-09-2005 18:37:03 15 C 7.18 g/m*3 15 C 0 km/h
2492 16-09-2005 18:49:03 15.3 C 6.4 g/m*3 15.3 C 0 km/h
2493 16-09-2005 19:01:04 14.2 C 6.59 g/m*3 14.2 C 0 km/h
2494 16-09-2005 19:13:04 13.6 C 6.94 g/m*3 13.6 C 0 km/h
2495 16-09-2005 19:25:03 13.2 C 7.35 g/m*3 13.2 C 0 km/h
2496 16-09-2005 19:37:03 13.2 C 7.35 g/m*3 13.2 C 0 km/h
2497 16-09-2005 19:49:01 13.1 C 7.19 g/m*3 13.1 C 0 km/h
2498 16-09-2005 20:01:02 13 C 7.37 g/m*3 13 C 0 km/h
2499 16-09-2005 20:13:02 12.6 C 7.3 g/m*3 12.6 C 0 km/h
2500 16-09-2005 20:25:02 12.4 C 7.21 g/m*3 12.4 C 0 km/h
Sensor: Nr:Datum:Temp:Abs-Feuchte:Windchill:Wind:
Aussen-T/F 2501 16-09-2005 20:37:01 12.2 C 7.23 g/m*3 12.2 C 0 km/h
2502 16-09-2005 20:49:02 11.9 C 7.31 g/m*3 11.9 C 0 km/h
2503 16-09-2005 21:01:01 11.7 C 7.22 g/m*3 11.7 C 0 km/h
2504 16-09-2005 21:13:01 11.7 C 7.22 g/m*3 11.7 C 0 km/h
2505 16-09-2005 21:25:01 11.7 C 7.22 g/m*3 11.7 C 0 km/h
2506 16-09-2005 21:37:02 12 C 6.82 g/m*3 12 C 0 km/h
2507 16-09-2005 21:49:03 11.7 C 6.9 g/m*3 11.7 C 0 km/h
2508 16-09-2005 22:01:02 11.6 C 6.96 g/m*3 11.6 C 0 km/h
2509 16-09-2005 22:13:02 11.5 C 7.02 g/m*3 11.5 C 0 km/h
2510 16-09-2005 22:25:02 11.3 C 7.04 g/m*3 11.3 C 0 km/h
2511 16-09-2005 22:37:02 11.2 C 7.1 g/m*3 11.2 C 0 km/h
2512 16-09-2005 22:49:02 11 C 7.21 g/m*3 11 C 0 km/h
2513 16-09-2005 23:01:02 11.1 C 7.15 g/m*3 11.1 C 0 km/h
2514 16-09-2005 23:13:03 11.3 C 7.24 g/m*3 11.3 C 0 km/h
2515 16-09-2005 23:25:02 11.4 C 7.29 g/m*3 11.4 C 0 km/h
2516 16-09-2005 23:37:02 11.3 C 7.24 g/m*3 11.3 C 0 km/h
2517 16-09-2005 23:49:02 11.1 C 7.25 g/m*3 11.1 C 0 km/h
2518 17-09-2005 00:01:02 11 C 7.31 g/m*3 11 C 0 km/h
2519 17-09-2005 00:13:02 10.9 C 7.36 g/m*3 10.9 C 0 km/h
2520 17-09-2005 00:25:03 11 C 7.31 g/m*3 11 C 0 km/h
2521 17-09-2005 00:37:03 11.1 C 7.25 g/m*3 11.1 C 0 km/h
2522 17-09-2005 00:49:02 11.2 C 7.3 g/m*3 11.2 C 0 km/h
2523 17-09-2005 01:01:02 11.1 C 7.25 g/m*3 11.1 C 0 km/h
2524 17-09-2005 01:13:02 11.1 C 7.25 g/m*3 11.1 C 0 km/h
2525 17-09-2005 01:25:02 11.2 C 7.2 g/m*3 11.2 C 0 km/h
Sensor: Nr:Datum:Temp:Abs-Feuchte:Windchill:Wind:
Aussen-T/F 2526 17-09-2005 01:37:02 11.1 C 6.95 g/m*3 11.1 C 0 km/h
2527 17-09-2005 01:49:02 11.1 C 6.95 g/m*3 11.1 C 0 km/h
2528 17-09-2005 02:01:02 11.1 C 6.75 g/m*3 11.1 C 0 km/h
2529 17-09-2005 02:13:02 10.8 C 6.62 g/m*3 10.8 C 0 km/h
2530 17-09-2005 02:25:02 10.6 C 6.54 g/m*3 10.6 C 0 km/h
2531 17-09-2005 02:37:02 10.7 C 6.68 g/m*3 10.7 C 0 km/h
2532 17-09-2005 02:50:04 10.5 C 6.5 g/m*3 10.5 C 0 km/h
2533 17-09-2005 03:02:04 10.5 C 6.5 g/m*3 10.5 C 0 km/h
2534 17-09-2005 03:14:04 9.9 C 6.54 g/m*3 9.9 C 0 km/h
2535 17-09-2005 03:26:04 9.6 C 6.5 g/m*3 9.6 C 0 km/h
2536 17-09-2005 03:38:01 9.6 C 6.6 g/m*3 9.6 C 0 km/h
2537 17-09-2005 03:50:01 9.6 C 6.69 g/m*3 9.6 C 0 km/h
2538 17-09-2005 04:02:02 9.6 C 6.69 g/m*3 9.6 C 0 km/h
2539 17-09-2005 04:14:02 9.6 C 6.78 g/m*3 9.6 C 0 km/h
2540 17-09-2005 04:26:02 9.4 C 6.78 g/m*3 9.4 C 0 km/h
2541 17-09-2005 04:38:01 9.2 C 6.79 g/m*3 9.2 C 0 km/h
2542 17-09-2005 04:50:02 9 C 6.79 g/m*3 9 C 0 km/h
2543 17-09-2005 05:02:02 8.7 C 6.83 g/m*3 8.7 C 0 km/h
2544 17-09-2005 05:14:02 8.5 C 6.83 g/m*3 8.5 C 0 km/h
2545 17-09-2005 05:26:02 8.3 C 6.83 g/m*3 8.3 C 0 km/h
2546 17-09-2005 05:38:02 8.2 C 6.87 g/m*3 8.2 C 0 km/h
2547 17-09-2005 05:50:03 8.3 C 6.91 g/m*3 8.3 C 0 km/h
2548 17-09-2005 06:02:02 8.5 C 7 g/m*3 8.5 C 0 km/h
2549 17-09-2005 06:14:02 8.4 C 6.96 g/m*3 8.4 C 0 km/h
2550 17-09-2005 06:26:02 8.2 C 6.95 g/m*3 8.2 C 0 km/h
Sensor: Nr:Datum:Temp:Abs-Feuchte:Windchill:Wind:
Aussen-T/F 2551 17-09-2005 06:38:03 7.9 C 6.9 g/m*3 7.9 C 0 km/h
2552 17-09-2005 06:50:02 7.6 C 6.85 g/m*3 7.6 C 0 km/h
2553 17-09-2005 07:02:02 7.6 C 6.93 g/m*3 7.6 C 0 km/h
2554 17-09-2005 07:14:02 7.6 C 6.93 g/m*3 7.6 C 0 km/h
2555 17-09-2005 07:26:02 7.4 C 6.92 g/m*3 7.4 C 0 km/h
2556 17-09-2005 07:38:02 7.4 C 6.92 g/m*3 7.4 C 0 km/h
2557 17-09-2005 07:50:02 7.4 C 6.92 g/m*3 7.4 C 0 km/h
2558 17-09-2005 08:02:01 7.4 C 6.92 g/m*3 7.4 C 0 km/h
2559 17-09-2005 08:14:01 7.4 C 6.92 g/m*3 7.4 C 0 km/h
2560 17-09-2005 08:26:02 8.2 C 7.2 g/m*3 8.2 C 0 km/h
2561 17-09-2005 08:38:02 8.4 C 7.3 g/m*3 8.4 C 0 km/h
2562 17-09-2005 08:50:02 9.1 C 7.28 g/m*3 9.1 C 0 km/h
2563 17-09-2005 09:02:02 9.1 C 7.01 g/m*3 9.1 C 0 km/h
2564 17-09-2005 09:14:02 9.6 C 7.15 g/m*3 9.6 C 0 km/h
2565 17-09-2005 09:26:02 9.9 C 7.1 g/m*3 9.9 C 0 km/h
2566 17-09-2005 09:38:02 10.3 C 7.09 g/m*3 10.3 C 0 km/h
2567 17-09-2005 09:50:02 10.3 C 7.09 g/m*3 10.3 C 0 km/h
2568 17-09-2005 10:02:02 11 C 7.01 g/m*3 11 C 0 km/h
2569 17-09-2005 10:14:02 11.5 C 6.92 g/m*3 11.5 C 0 km/h
2570 17-09-2005 10:26:01 11.8 C 6.95 g/m*3 11.8 C 0 km/h
2571 17-09-2005 10:38:02 11.4 C 6.67 g/m*3 11.4 C 0 km/h
2572 17-09-2005 10:50:02 11.5 C 6.61 g/m*3 11.5 C 0 km/h
2573 17-09-2005 11:02:02 11.6 C 6.65 g/m*3 11.6 C 0 km/h
2574 17-09-2005 11:14:02 11.8 C 6.63 g/m*3 11.8 C 0 km/h
2575 17-09-2005 11:26:03 12 C 6.39 g/m*3 12 C 0 km/h
Sensor: Nr:Datum:Temp:Abs-Feuchte:Windchill:Wind:
Aussen-T/F 2576 17-09-2005 11:38:02 12.9 C 6.99 g/m*3 12.9 C 0 km/h
2577 17-09-2005 11:50:02 12.6 C 6.75 g/m*3 12.6 C 0 km/h
2578 17-09-2005 12:02:01 13.8 C 6.79 g/m*3 13.8 C 0 km/h
2579 17-09-2005 12:14:01 13.7 C 6.51 g/m*3 13.7 C 0 km/h
2580 17-09-2005 12:26:02 14.5 C 6.47 g/m*3 14.5 C 0 km/h
2581 17-09-2005 12:38:02 14.4 C 6.06 g/m*3 14.4 C 0 km/h
2582 17-09-2005 12:50:02 14.3 C 5.9 g/m*3 14.3 C 0 km/h
2583 17-09-2005 13:02:04 13.9 C 5.99 g/m*3 13.9 C 0 km/h
2584 17-09-2005 13:14:04 14.7 C 5.41 g/m*3 14.7 C 0 km/h
2585 17-09-2005 13:26:02 14.8 C 5.83 g/m*3 14.8 C 0 km/h
2586 17-09-2005 13:38:02 15.4 C 5.78 g/m*3 15.4 C 0 km/h
2587 17-09-2005 13:50:02 16.3 C 5.69 g/m*3 16.3 C 0 km/h
2588 17-09-2005 14:02:02 16 C 5.45 g/m*3 16 C 0 km/h
2589 17-09-2005 14:14:02 17.1 C 5.24 g/m*3 17.1 C 0 km/h
2590 17-09-2005 14:26:01 16.1 C 5.35 g/m*3 16.1 C 0 km/h
2591 17-09-2005 14:38:02 17.3 C 5.89 g/m*3 17.3 C 0 km/h
2592 17-09-2005 14:50:02 14.2 C 5.01 g/m*3 14.2 C 0 km/h
2593 17-09-2005 15:02:02 13.5 C 5.5 g/m*3 13.5 C 0 km/h
2594 17-09-2005 15:14:02 14.1 C 5.7 g/m*3 14.1 C 0 km/h
2595 17-09-2005 15:26:01 14.7 C 6.17 g/m*3 14.7 C 0 km/h
2596 17-09-2005 15:38:01 14.6 C 5.88 g/m*3 14.6 C 0 km/h
2597 17-09-2005 15:50:01 15.1 C 5.55 g/m*3 15.1 C 0 km/h
2598 17-09-2005 16:02:01 17.4 C 5.19 g/m*3 17.4 C 0 km/h
2599 17-09-2005 16:14:01 18 C 5.22 g/m*3 18 C 0 km/h
2600 17-09-2005 16:26:02 18.7 C 5.12 g/m*3 18.7 C 0 km/h
Sensor: Nr:Datum:Temp:Abs-Feuchte:Windchill:Wind:
Aussen-T/F 2601 17-09-2005 16:38:01 17.4 C 4.74 g/m*3 17.4 C 0 km/h
2602 17-09-2005 16:50:02 19.5 C 5.37 g/m*3 19.5 C 0 km/h
2603 17-09-2005 17:02:01 17.7 C 4.98 g/m*3 17.7 C 0 km/h
2604 17-09-2005 17:14:01 16.5 C 5.34 g/m*3 16.5 C 0 km/h
2605 17-09-2005 17:26:02 18.5 C 5.38 g/m*3 18.5 C 0 km/h
2606 17-09-2005 17:38:02 18.9 C 5.02 g/m*3 18.9 C 0 km/h
2607 17-09-2005 17:50:02 18.9 C 5.02 g/m*3 18.9 C 0 km/h
2608 17-09-2005 18:02:02 18.7 C 5.28 g/m*3 18.7 C 0 km/h
2609 17-09-2005 18:14:02 17.6 C 5.25 g/m*3 17.6 C 0 km/h
2610 17-09-2005 18:26:03 16.9 C 5.32 g/m*3 16.9 C 0 km/h
2611 17-09-2005 18:38:02 17 C 5.21 g/m*3 17 C 0 km/h
2612 17-09-2005 18:50:02 15.9 C 6.09 g/m*3 15.9 C 0 km/h
2613 17-09-2005 19:02:01 14.8 C 6.08 g/m*3 14.8 C 0 km/h
2614 17-09-2005 19:14:01 13.8 C 6.08 g/m*3 13.8 C 0 km/h
2615 17-09-2005 19:26:02 13.2 C 6.32 g/m*3 13.2 C 0 km/h
2616 17-09-2005 19:38:02 12.8 C 6.61 g/m*3 12.8 C 0 km/h
2617 17-09-2005 19:50:02 12.5 C 6.49 g/m*3 12.5 C 0 km/h
2618 17-09-2005 20:02:02 11.9 C 6.46 g/m*3 11.9 C 0 km/h
2619 17-09-2005 20:14:02 11.6 C 6.44 g/m*3 11.6 C 0 km/h
2620 17-09-2005 20:26:02 11.3 C 6.43 g/m*3 11.3 C 0 km/h
2621 17-09-2005 20:38:02 10.9 C 6.47 g/m*3 10.9 C 0 km/h
2622 17-09-2005 20:50:01 10.7 C 6.48 g/m*3 10.7 C 0 km/h
2623 17-09-2005 21:02:01 10.4 C 6.36 g/m*3 10.4 C 0 km/h
2624 17-09-2005 21:14:01 10.3 C 6.32 g/m*3 10.3 C 0 km/h
2625 17-09-2005 21:26:02 10.2 C 6.38 g/m*3 10.2 C 0 km/h
Sensor: Nr:Datum:Temp:Abs-Feuchte:Windchill:Wind:
Aussen-T/F 2626 17-09-2005 21:38:01 10 C 6.39 g/m*3 10 C 0 km/h
2627 17-09-2005 21:50:02 9.9 C 6.44 g/m*3 9.9 C 0 km/h
2628 17-09-2005 22:02:01 9.7 C 6.55 g/m*3 9.7 C 0 km/h
2629 17-09-2005 22:14:01 9.5 C 6.46 g/m*3 9.5 C 0 km/h
2630 17-09-2005 22:26:02 9.3 C 6.56 g/m*3 9.3 C 0 km/h
2631 17-09-2005 22:38:02 9.1 C 6.48 g/m*3 9.1 C 0 km/h
2632 17-09-2005 22:50:02 9.1 C 6.74 g/m*3 9.1 C 0 km/h
2633 17-09-2005 23:02:02 8.9 C 6.75 g/m*3 8.9 C 0 km/h
2634 17-09-2005 23:14:02 8.7 C 6.75 g/m*3 8.7 C 0 km/h
2635 17-09-2005 23:26:03 8.4 C 6.62 g/m*3 8.4 C 0 km/h
2636 17-09-2005 23:38:02 8.4 C 6.7 g/m*3 8.4 C 0 km/h
2637 17-09-2005 23:50:02 8.2 C 6.62 g/m*3 8.2 C 0 km/h
2638 18-09-2005 00:02:01 8 C 6.61 g/m*3 8 C 0 km/h
2639 18-09-2005 00:14:01 7.9 C 6.74 g/m*3 7.9 C 0 km/h
2640 18-09-2005 00:26:02 7.8 C 6.77 g/m*3 7.8 C 0 km/h
2641 18-09-2005 00:38:01 7.5 C 6.64 g/m*3 7.5 C 0 km/h
2642 18-09-2005 00:50:02 7.4 C 6.6 g/m*3 7.4 C 0 km/h
2643 18-09-2005 01:02:02 7.3 C 6.64 g/m*3 7.3 C 0 km/h
2644 18-09-2005 01:14:02 7.3 C 6.72 g/m*3 7.3 C 0 km/h
2645 18-09-2005 01:26:02 7.2 C 6.75 g/m*3 7.2 C 0 km/h
2646 18-09-2005 01:38:02 7 C 6.66 g/m*3 7 C 0 km/h
2647 18-09-2005 01:50:02 7 C 6.74 g/m*3 7 C 0 km/h
2648 18-09-2005 02:02:02 6.8 C 6.73 g/m*3 6.8 C 0 km/h
2649 18-09-2005 02:14:02 6.7 C 6.69 g/m*3 6.7 C 0 km/h
2650 18-09-2005 02:26:02 6.7 C 6.76 g/m*3 6.7 C 0 km/h
Sensor: Nr:Datum:Temp:Abs-Feuchte:Windchill:Wind:
Aussen-T/F 2651 18-09-2005 02:38:02 6.6 C 6.72 g/m*3 6.6 C 0 km/h
2652 18-09-2005 02:51:04 6.4 C 6.63 g/m*3 6.4 C 0 km/h
2653 18-09-2005 03:03:04 6.3 C 6.59 g/m*3 6.3 C 0 km/h
2654 18-09-2005 03:15:04 6.1 C 6.5 g/m*3 6.1 C 0 km/h
2655 18-09-2005 03:27:04 6.1 C 6.58 g/m*3 6.1 C 0 km/h
2656 18-09-2005 03:39:02 5.9 C 6.56 g/m*3 5.9 C 0 km/h
2657 18-09-2005 03:51:02 5.9 C 6.56 g/m*3 5.9 C 0 km/h
2658 18-09-2005 04:03:02 5.8 C 6.52 g/m*3 5.8 C 0 km/h
2659 18-09-2005 04:15:02 5.7 C 6.55 g/m*3 5.7 C 0 km/h
2660 18-09-2005 04:27:03 5.5 C 6.46 g/m*3 5.5 C 0 km/h
2661 18-09-2005 04:39:02 5.4 C 6.42 g/m*3 5.4 C 0 km/h
2662 18-09-2005 04:51:02 5.4 C 6.42 g/m*3 5.4 C 0 km/h
2663 18-09-2005 05:03:01 5.4 C 6.49 g/m*3 5.4 C 0 km/h
2664 18-09-2005 05:15:02 5.6 C 6.57 g/m*3 5.6 C 0 km/h
2665 18-09-2005 05:27:02 5.7 C 6.69 g/m*3 5.7 C 0 km/h
2666 18-09-2005 05:39:02 6 C 6.82 g/m*3 6 C 0 km/h
2667 18-09-2005 05:51:02 5.9 C 6.85 g/m*3 5.9 C 0 km/h
2668 18-09-2005 06:03:01 6 C 6.82 g/m*3 6 C 0 km/h
2669 18-09-2005 06:15:02 6 C 6.82 g/m*3 6 C 0 km/h
2670 18-09-2005 06:27:02 5.9 C 6.85 g/m*3 5.9 C 0 km/h
2671 18-09-2005 06:39:02 5.8 C 6.73 g/m*3 5.8 C 0 km/h
2672 18-09-2005 06:51:02 6 C 6.75 g/m*3 6 C 0 km/h
2673 18-09-2005 07:03:02 5.8 C 6.73 g/m*3 5.8 C 0 km/h
2674 18-09-2005 07:15:01 5.8 C 6.73 g/m*3 5.8 C 0 km/h
2675 18-09-2005 07:27:01 6 C 6.75 g/m*3 6 C 0 km/h
Sensor: Nr:Datum:Temp:Abs-Feuchte:Windchill:Wind:
Aussen-T/F 2676 18-09-2005 07:39:02 6 C 6.75 g/m*3 6 C 0 km/h
2677 18-09-2005 07:51:02 6.2 C 6.77 g/m*3 6.2 C 0 km/h
2678 18-09-2005 08:03:01 6.4 C 6.85 g/m*3 6.4 C 0 km/h
2679 18-09-2005 08:15:02 6.6 C 6.95 g/m*3 6.6 C 0 km/h
2680 18-09-2005 08:27:02 6.6 C 6.87 g/m*3 6.6 C 0 km/h
2681 18-09-2005 08:39:02 6.7 C 6.84 g/m*3 6.7 C 0 km/h
2682 18-09-2005 08:51:02 6.9 C 6.85 g/m*3 6.9 C 0 km/h
2683 18-09-2005 09:03:01 7.1 C 6.86 g/m*3 7.1 C 0 km/h
2684 18-09-2005 09:15:02 7.3 C 6.87 g/m*3 7.3 C 0 km/h
2685 18-09-2005 09:27:02 7.4 C 6.92 g/m*3 7.4 C 0 km/h
2686 18-09-2005 09:39:02 7.8 C 7.02 g/m*3 7.8 C 0 km/h
2687 18-09-2005 09:51:01 8.3 C 7 g/m*3 8.3 C 0 km/h
2688 18-09-2005 10:03:01 8.4 C 6.96 g/m*3 8.4 C 0 km/h
2689 18-09-2005 10:15:02 8.6 C 7.05 g/m*3 8.6 C 0 km/h
2690 18-09-2005 10:27:02 8.7 C 7.01 g/m*3 8.7 C 0 km/h
2691 18-09-2005 10:39:01 9.1 C 7.01 g/m*3 9.1 C 0 km/h
2692 18-09-2005 10:51:02 9.3 C 6.92 g/m*3 9.3 C 0 km/h
2693 18-09-2005 11:03:01 9.6 C 7.05 g/m*3 9.6 C 0 km/h
2694 18-09-2005 11:15:02 9.3 C 7.19 g/m*3 9.3 C 0 km/h
2695 18-09-2005 11:27:02 9.8 C 7.42 g/m*3 9.8 C 0 km/h
2696 18-09-2005 11:39:02 10.6 C 7.52 g/m*3 10.6 C 0 km/h
2697 18-09-2005 11:51:02 11.2 C 7.5 g/m*3 11.2 C 0 km/h
2698 18-09-2005 12:03:02 11.8 C 7.47 g/m*3 11.8 C 0 km/h
2699 18-09-2005 12:15:03 12.4 C 7.54 g/m*3 12.4 C 0 km/h
2700 18-09-2005 12:27:03 13.2 C 7.58 g/m*3 13.2 C 0 km/h
Sensor: Nr:Datum:Temp:Abs-Feuchte:Windchill:Wind:
Aussen-T/F 2701 18-09-2005 12:39:02 13.8 C 7.39 g/m*3 13.8 C 0 km/h
2702 18-09-2005 12:51:02 14.1 C 7.4 g/m*3 14.1 C 0 km/h
2703 18-09-2005 13:03:01 14.8 C 6.97 g/m*3 14.8 C 0 km/h
2704 18-09-2005 13:15:01 15.3 C 6.79 g/m*3 15.3 C 0 km/h
2705 18-09-2005 13:27:01 15.5 C 6.61 g/m*3 15.5 C 0 km/h
2706 18-09-2005 13:39:02 15.8 C 6.46 g/m*3 15.8 C 0 km/h
2707 18-09-2005 13:51:02 16.6 C 6.64 g/m*3 16.6 C 0 km/h
2708 18-09-2005 14:03:02 17.5 C 5.67 g/m*3 17.5 C 0 km/h
2709 18-09-2005 14:15:02 17.9 C 5.19 g/m*3 17.9 C 0 km/h
2710 18-09-2005 14:27:02 18.6 C 4.93 g/m*3 18.6 C 0 km/h
2711 18-09-2005 14:39:02 19 C 4.24 g/m*3 19 C 0 km/h
2712 18-09-2005 14:51:02 19.6 C 4.39 g/m*3 19.6 C 0 km/h
2713 18-09-2005 15:03:01 20.2 C 4.9 g/m*3 20.2 C 0 km/h
2714 18-09-2005 15:15:02 20.4 C 4.42 g/m*3 20.4 C 0 km/h
2715 18-09-2005 15:27:02 20.4 C 4.42 g/m*3 20.4 C 0 km/h
2716 18-09-2005 15:39:02 20.9 C 4.55 g/m*3 20.9 C 0 km/h
2717 18-09-2005 15:51:02 21.5 C 4.15 g/m*3 21.5 C 0 km/h
2718 18-09-2005 16:03:03 21.5 C 3.96 g/m*3 21.5 C 0 km/h
2719 18-09-2005 16:15:02 21.7 C 4.2 g/m*3 21.7 C 0 km/h
2720 18-09-2005 16:27:03 21.9 C 4.05 g/m*3 21.9 C 0 km/h
2721 18-09-2005 16:39:02 22.3 C 3.95 g/m*3 22.3 C 0 km/h
2722 18-09-2005 16:51:02 22.4 C 3.97 g/m*3 22.4 C 0 km/h
2723 18-09-2005 17:03:02 22.5 C 3.99 g/m*3 22.5 C 0 km/h
2724 18-09-2005 17:15:02 23.1 C 4.34 g/m*3 23.1 C 0 km/h
2725 18-09-2005 17:27:02 22.6 C 4.02 g/m*3 22.6 C 0 km/h
Sensor: Nr:Datum:Temp:Abs-Feuchte:Windchill:Wind:
Aussen-T/F 2726 18-09-2005 17:39:02 22.4 C 4.17 g/m*3 22.4 C 0 km/h
2727 18-09-2005 17:51:01 22.4 C 3.97 g/m*3 22.4 C 0 km/h
2728 18-09-2005 18:03:01 21.8 C 4.22 g/m*3 21.8 C 0 km/h
2729 18-09-2005 18:15:02 21.5 C 5.47 g/m*3 21.5 C 0 km/h
2730 18-09-2005 18:27:02 21.1 C 5.16 g/m*3 21.1 C 0 km/h
2731 18-09-2005 18:39:02 21.2 C 5.56 g/m*3 21.2 C 0 km/h
2732 18-09-2005 18:51:02 20.2 C 5.25 g/m*3 20.2 C 0 km/h
2733 18-09-2005 19:03:03 19.3 C 5.47 g/m*3 19.3 C 0 km/h
2734 18-09-2005 19:15:02 18.4 C 5.35 g/m*3 18.4 C 0 km/h
2735 18-09-2005 19:27:02 17 C 5.06 g/m*3 17 C 0 km/h
2736 18-09-2005 19:39:02 15.7 C 5.08 g/m*3 15.7 C 0 km/h
2737 18-09-2005 19:51:02 14.9 C 5.1 g/m*3 14.9 C 0 km/h
2738 18-09-2005 20:03:03 14.5 C 5.22 g/m*3 14.5 C 0 km/h
2739 18-09-2005 20:15:02 14.4 C 5.07 g/m*3 14.4 C 0 km/h
2740 18-09-2005 20:27:02 14.2 C 5.01 g/m*3 14.2 C 0 km/h
2741 18-09-2005 20:39:02 14.1 C 4.98 g/m*3 14.1 C 0 km/h
2742 18-09-2005 20:51:01 13.9 C 5.39 g/m*3 13.9 C 0 km/h
2743 18-09-2005 21:03:01 13.5 C 5.38 g/m*3 13.5 C 0 km/h
2744 18-09-2005 21:15:02 13.1 C 5.82 g/m*3 13.1 C 0 km/h
2745 18-09-2005 21:27:02 12.8 C 6.05 g/m*3 12.8 C 0 km/h
2746 18-09-2005 21:39:01 12.4 C 5.9 g/m*3 12.4 C 0 km/h
2747 18-09-2005 21:51:02 12.1 C 6.01 g/m*3 12.1 C 0 km/h
2748 18-09-2005 22:03:02 12 C 6.39 g/m*3 12 C 0 km/h
2749 18-09-2005 22:15:01 11.7 C 6.59 g/m*3 11.7 C 0 km/h
2750 18-09-2005 22:27:01 11.4 C 6.47 g/m*3 11.4 C 0 km/h
Sensor: Nr:Datum:Temp:Abs-Feuchte:Windchill:Wind:
Aussen-T/F 2751 18-09-2005 22:39:02 11 C 6.51 g/m*3 11 C 0 km/h
2752 18-09-2005 22:51:01 10.7 C 6.48 g/m*3 10.7 C 0 km/h
2753 18-09-2005 23:03:01 10.5 C 6.4 g/m*3 10.5 C 0 km/h
2754 18-09-2005 23:15:02 10.3 C 6.42 g/m*3 10.3 C 0 km/h
2755 18-09-2005 23:27:02 10 C 6.48 g/m*3 10 C 0 km/h
2756 18-09-2005 23:39:01 9.7 C 6.55 g/m*3 9.7 C 0 km/h
2757 18-09-2005 23:51:02 9.5 C 6.37 g/m*3 9.5 C 0 km/h
2758 19-09-2005 00:03:01 9.3 C 6.29 g/m*3 9.3 C 0 km/h
2759 19-09-2005 00:15:03 9.2 C 6.34 g/m*3 9.2 C 0 km/h
2760 19-09-2005 00:27:04 9 C 6.26 g/m*3 9 C 0 km/h
2761 19-09-2005 00:39:02 8.7 C 6.31 g/m*3 8.7 C 0 km/h
2762 19-09-2005 00:51:03 8.5 C 6.32 g/m*3 8.5 C 0 km/h
2763 19-09-2005 01:03:02 8.4 C 6.28 g/m*3 8.4 C 0 km/h
2764 19-09-2005 01:15:02 8.2 C 6.28 g/m*3 8.2 C 0 km/h
2765 19-09-2005 01:27:02 8.1 C 6.32 g/m*3 8.1 C 0 km/h
2766 19-09-2005 01:39:02 7.9 C 6.32 g/m*3 7.9 C 0 km/h
2767 19-09-2005 01:51:03 7.8 C 6.28 g/m*3 7.8 C 0 km/h
2768 19-09-2005 02:03:03 7.6 C 6.28 g/m*3 7.6 C 0 km/h
2769 19-09-2005 02:15:02 7.5 C 6.24 g/m*3 7.5 C 0 km/h
2770 19-09-2005 02:27:02 7.5 C 6.24 g/m*3 7.5 C 0 km/h
2771 19-09-2005 02:39:02 7.3 C 6.24 g/m*3 7.3 C 0 km/h
2772 19-09-2005 02:52:03 7.2 C 6.2 g/m*3 7.2 C 0 km/h
2773 19-09-2005 03:04:03 7 C 6.12 g/m*3 7 C 0 km/h
2774 19-09-2005 03:16:03 6.9 C 6.31 g/m*3 6.9 C 0 km/h
2775 19-09-2005 03:28:03 6.8 C 6.42 g/m*3 6.8 C 0 km/h
Sensor: Nr:Datum:Temp:Abs-Feuchte:Windchill:Wind:
Aussen-T/F 2776 19-09-2005 03:40:03 6.7 C 6.38 g/m*3 6.7 C 0 km/h
2777 19-09-2005 03:52:03 6.6 C 6.27 g/m*3 6.6 C 0 km/h
2778 19-09-2005 04:04:02 6.4 C 6.18 g/m*3 6.4 C 0 km/h
2779 19-09-2005 04:16:02 6.3 C 6.22 g/m*3 6.3 C 0 km/h
2780 19-09-2005 04:28:02 6.1 C 6.14 g/m*3 6.1 C 0 km/h
2781 19-09-2005 04:40:02 6 C 6.1 g/m*3 6 C 0 km/h
2782 19-09-2005 04:52:01 5.9 C 6.2 g/m*3 5.9 C 0 km/h
2783 19-09-2005 05:04:01 5.9 C 6.27 g/m*3 5.9 C 0 km/h
2784 19-09-2005 05:16:02 5.6 C 6.15 g/m*3 5.6 C 0 km/h
2785 19-09-2005 05:28:02 5.4 C 6.07 g/m*3 5.4 C 0 km/h
2786 19-09-2005 05:40:01 5.4 C 6.07 g/m*3 5.4 C 0 km/h
2787 19-09-2005 05:52:02 5.3 C 6.1 g/m*3 5.3 C 0 km/h
2788 19-09-2005 06:04:02 5.2 C 6.06 g/m*3 5.2 C 0 km/h
2789 19-09-2005 06:16:02 5.2 C 6.13 g/m*3 5.2 C 0 km/h
2790 19-09-2005 06:28:03 5.1 C 6.09 g/m*3 5.1 C 0 km/h
2791 19-09-2005 06:40:02 4.8 C 6.04 g/m*3 4.8 C 0 km/h
2792 19-09-2005 06:52:02 4.8 C 6.04 g/m*3 4.8 C 0 km/h
2793 19-09-2005 07:04:02 4.6 C 5.96 g/m*3 4.6 C 0 km/h
2794 19-09-2005 07:16:03 4.5 C 5.92 g/m*3 4.5 C 0 km/h
2795 19-09-2005 07:28:03 4.6 C 5.96 g/m*3 4.6 C 0 km/h
2796 19-09-2005 07:40:02 4.8 C 6.1 g/m*3 4.8 C 0 km/h
2797 19-09-2005 07:52:02 4.9 C 6.21 g/m*3 4.9 C 0 km/h
2798 19-09-2005 08:04:01 5 C 6.25 g/m*3 5 C 0 km/h
2799 19-09-2005 08:16:02 5.1 C 6.29 g/m*3 5.1 C 0 km/h
2800 19-09-2005 08:28:02 5.2 C 6.33 g/m*3 5.2 C 0 km/h
Sensor: Nr:Datum:Temp:Abs-Feuchte:Windchill:Wind:
Aussen-T/F 2801 19-09-2005 08:40:02 5.3 C 6.38 g/m*3 5.3 C 0 km/h
2802 19-09-2005 08:52:02 5.4 C 6.42 g/m*3 5.4 C 0 km/h
2803 19-09-2005 09:04:02 5.8 C 6.59 g/m*3 5.8 C 0 km/h
2804 19-09-2005 09:16:02 5.7 C 6.48 g/m*3 5.7 C 0 km/h
2805 19-09-2005 09:28:02 5.9 C 6.56 g/m*3 5.9 C 0 km/h
2806 19-09-2005 09:40:02 6.2 C 6.69 g/m*3 6.2 C 0 km/h
2807 19-09-2005 09:52:02 6.7 C 6.99 g/m*3 6.7 C 0 km/h
2808 19-09-2005 10:04:02 7.3 C 7.19 g/m*3 7.3 C 0 km/h
2809 19-09-2005 10:16:03 7.9 C 7.39 g/m*3 7.9 C 0 km/h
2810 19-09-2005 10:28:03 8.2 C 7.37 g/m*3 8.2 C 0 km/h
2811 19-09-2005 10:40:02 8.8 C 7.4 g/m*3 8.8 C 0 km/h
2812 19-09-2005 10:52:02 9.5 C 7.28 g/m*3 9.5 C 0 km/h
2813 19-09-2005 11:04:01 10.2 C 7.33 g/m*3 10.2 C 0 km/h
2814 19-09-2005 11:16:02 11 C 7.31 g/m*3 11 C 0 km/h
2815 19-09-2005 11:28:02 11.6 C 7.17 g/m*3 11.6 C 0 km/h
2816 19-09-2005 11:40:02 12.2 C 7.23 g/m*3 12.2 C 0 km/h
2817 19-09-2005 11:52:02 12.5 C 7.37 g/m*3 12.5 C 0 km/h
2818 19-09-2005 12:04:02 13.2 C 7.12 g/m*3 13.2 C 0 km/h
2819 19-09-2005 12:16:02 13.6 C 7.3 g/m*3 13.6 C 0 km/h
2820 19-09-2005 12:28:02 14.2 C 6.72 g/m*3 14.2 C 0 km/h
2821 19-09-2005 12:40:02 14.8 C 5.83 g/m*3 14.8 C 0 km/h
2822 19-09-2005 12:52:01 15.5 C 5.68 g/m*3 15.5 C 0 km/h
2823 19-09-2005 13:04:01 16.2 C 5.38 g/m*3 16.2 C 0 km/h
2824 19-09-2005 13:16:02 16.6 C 5.65 g/m*3 16.6 C 0 km/h
2825 19-09-2005 13:28:02 16.9 C 5.61 g/m*3 16.9 C 0 km/h
Sensor: Nr:Datum:Temp:Abs-Feuchte:Windchill:Wind:
Aussen-T/F 2826 19-09-2005 13:40:01 17.4 C 5.48 g/m*3 17.4 C 0 km/h
2827 19-09-2005 13:52:02 18 C 5.53 g/m*3 18 C 0 km/h
2828 19-09-2005 14:04:01 18.7 C 5.28 g/m*3 18.7 C 0 km/h
2829 19-09-2005 14:16:02 19.1 C 5.08 g/m*3 19.1 C 0 km/h
2830 19-09-2005 14:28:02 19.5 C 5.37 g/m*3 19.5 C 0 km/h
2831 19-09-2005 14:40:02 20 C 5.18 g/m*3 20 C 0 km/h
2832 19-09-2005 14:52:02 20.5 C 5.16 g/m*3 20.5 C 0 km/h
2833 19-09-2005 15:04:02 21.2 C 5 g/m*3 21.2 C 0 km/h
2834 19-09-2005 15:16:03 21.4 C 4.69 g/m*3 21.4 C 0 km/h
2835 19-09-2005 15:28:03 21.5 C 4.53 g/m*3 21.5 C 0 km/h
2836 19-09-2005 15:40:02 21.6 C 4.55 g/m*3 21.6 C 0 km/h
2837 19-09-2005 15:52:02 22 C 4.27 g/m*3 22 C 0 km/h
2838 19-09-2005 16:04:01 22.2 C 4.71 g/m*3 22.2 C 0 km/h
2839 19-09-2005 16:16:02 22.9 C 4.7 g/m*3 22.9 C 0 km/h
2840 19-09-2005 16:28:02 22.9 C 4.29 g/m*3 22.9 C 0 km/h
2841 19-09-2005 16:40:02 23.1 C 4.55 g/m*3 23.1 C 0 km/h
2842 19-09-2005 16:52:03 23.5 C 4.44 g/m*3 23.5 C 0 km/h
2843 19-09-2005 17:04:02 23.5 C 4.44 g/m*3 23.5 C 0 km/h
2844 19-09-2005 17:16:03 23.4 C 4.42 g/m*3 23.4 C 0 km/h
2845 19-09-2005 17:28:03 23.4 C 4.63 g/m*3 23.4 C 0 km/h
2846 19-09-2005 17:40:02 23.1 C 4.55 g/m*3 23.1 C 0 km/h
2847 19-09-2005 17:52:01 23.1 C 5.79 g/m*3 23.1 C 0 km/h
2848 19-09-2005 18:04:02 23 C 4.52 g/m*3 23 C 0 km/h
2849 19-09-2005 18:16:02 22.7 C 5.86 g/m*3 22.7 C 0 km/h
2850 19-09-2005 18:28:02 21.9 C 5.4 g/m*3 21.9 C 0 km/h
Sensor: Nr:Datum:Temp:Abs-Feuchte:Windchill:Wind:
Aussen-T/F 2851 19-09-2005 18:40:01 21.2 C 5.37 g/m*3 21.2 C 0 km/h
2852 19-09-2005 18:52:02 20.5 C 5.69 g/m*3 20.5 C 0 km/h
2853 19-09-2005 19:04:02 19.6 C 5.57 g/m*3 19.6 C 0 km/h
2854 19-09-2005 19:16:01 19 C 5.54 g/m*3 19 C 0 km/h
2855 19-09-2005 19:28:01 17.9 C 5.5 g/m*3 17.9 C 0 km/h
2856 19-09-2005 19:40:02 16.6 C 5.65 g/m*3 16.6 C 0 km/h
2857 19-09-2005 19:52:03 15.9 C 6.09 g/m*3 15.9 C 0 km/h
2858 19-09-2005 20:04:04 15 C 5.9 g/m*3 15 C 0 km/h
2859 19-09-2005 20:16:02 14.5 C 5.72 g/m*3 14.5 C 0 km/h
2860 19-09-2005 20:28:02 14.2 C 5.86 g/m*3 14.2 C 0 km/h
2861 19-09-2005 20:40:02 13.8 C 6.2 g/m*3 13.8 C 0 km/h
2862 19-09-2005 20:52:03 13.6 C 6 g/m*3 13.6 C 0 km/h
2863 19-09-2005 21:04:02 13.2 C 6.09 g/m*3 13.2 C 0 km/h
2864 19-09-2005 21:16:02 12.8 C 6.16 g/m*3 12.8 C 0 km/h
2865 19-09-2005 21:28:02 12.6 C 6.2 g/m*3 12.6 C 0 km/h
2866 19-09-2005 21:40:03 12.1 C 6.22 g/m*3 12.1 C 0 km/h
2867 19-09-2005 21:52:12 11.9 C 6.46 g/m*3 11.9 C 0 km/h
2868 19-09-2005 21:56:03 11.8 C 6.42 g/m*3 11.8 C 0 km/h
2869 19-09-2005 22:08:02 11.5 C 6.4 g/m*3 11.5 C 0 km/h
2870 19-09-2005 22:20:03 11.3 C 6.43 g/m*3 11.3 C 0 km/h
2871 19-09-2005 22:32:02 11.3 C 6.43 g/m*3 11.3 C 0 km/h
2872 19-09-2005 22:44:02 11 C 6.41 g/m*3 11 C 0 km/h
2873 19-09-2005 22:56:02 10.7 C 6.38 g/m*3 10.7 C 0 km/h
2874 19-09-2005 23:08:01 10.5 C 6.5 g/m*3 10.5 C 0 km/h
2875 19-09-2005 23:20:02 10.1 C 6.62 g/m*3 10.1 C 0 km/h
Sensor: Nr:Datum:Temp:Abs-Feuchte:Windchill:Wind:
Aussen-T/F 2876 19-09-2005 23:32:02 9.8 C 6.68 g/m*3 9.8 C 0 km/h
2877 19-09-2005 23:44:02 9.7 C 6.64 g/m*3 9.7 C 0 km/h
2878 19-09-2005 23:56:02 9.5 C 6.74 g/m*3 9.5 C 0 km/h
2879 20-09-2005 00:08:02 9.3 C 6.65 g/m*3 9.3 C 0 km/h
2880 20-09-2005 00:20:03 9.1 C 6.57 g/m*3 9.1 C 0 km/h
2881 20-09-2005 00:32:02 8.9 C 6.57 g/m*3 8.9 C 0 km/h
2882 20-09-2005 00:44:02 8.7 C 6.57 g/m*3 8.7 C 0 km/h
2883 20-09-2005 00:56:02 8.6 C 6.53 g/m*3 8.6 C 0 km/h
2884 20-09-2005 01:08:03 8.4 C 6.53 g/m*3 8.4 C 0 km/h
2885 20-09-2005 01:20:03 8.3 C 6.49 g/m*3 8.3 C 0 km/h
2886 20-09-2005 01:32:03 8.2 C 6.53 g/m*3 8.2 C 0 km/h
2887 20-09-2005 01:44:03 8.1 C 6.49 g/m*3 8.1 C 0 km/h
2888 20-09-2005 01:56:03 7.9 C 6.65 g/m*3 7.9 C 0 km/h
2889 20-09-2005 02:08:03 7.8 C 6.61 g/m*3 7.8 C 0 km/h
2890 20-09-2005 02:20:02 7.5 C 6.48 g/m*3 7.5 C 0 km/h
2891 20-09-2005 02:32:02 7.4 C 6.44 g/m*3 7.4 C 0 km/h
2892 20-09-2005 02:44:02 7.3 C 6.64 g/m*3 7.3 C 0 km/h
2893 20-09-2005 02:57:04 7.2 C 6.59 g/m*3 7.2 C 0 km/h
2894 20-09-2005 03:09:04 7 C 6.51 g/m*3 7 C 0 km/h
2895 20-09-2005 03:21:04 6.9 C 6.62 g/m*3 6.9 C 0 km/h
2896 20-09-2005 03:33:03 6.7 C 6.46 g/m*3 6.7 C 0 km/h
2897 20-09-2005 03:45:03 6.7 C 6.53 g/m*3 6.7 C 0 km/h
2898 20-09-2005 03:57:03 6.5 C 6.45 g/m*3 6.5 C 0 km/h
2899 20-09-2005 04:09:03 6.4 C 6.41 g/m*3 6.4 C 0 km/h
2900 20-09-2005 04:21:03 6.2 C 6.32 g/m*3 6.2 C 0 km/h
Sensor: Nr:Datum:Temp:Abs-Feuchte:Windchill:Wind:
Aussen-T/F 2901 20-09-2005 04:33:03 6 C 6.24 g/m*3 6 C 0 km/h
2902 20-09-2005 04:45:02 6 C 6.24 g/m*3 6 C 0 km/h
2903 20-09-2005 04:57:02 5.8 C 6.23 g/m*3 5.8 C 0 km/h
2904 20-09-2005 05:09:01 5.7 C 6.19 g/m*3 5.7 C 0 km/h
2905 20-09-2005 05:21:02 5.7 C 6.19 g/m*3 5.7 C 0 km/h
2906 20-09-2005 05:33:02 5.6 C 6.22 g/m*3 5.6 C 0 km/h
2907 20-09-2005 05:45:02 5.3 C 6.1 g/m*3 5.3 C 0 km/h
2908 20-09-2005 05:57:03 5.3 C 6.1 g/m*3 5.3 C 0 km/h
2909 20-09-2005 06:09:02 5.2 C 6.13 g/m*3 5.2 C 0 km/h
2910 20-09-2005 06:21:02 5.1 C 6.09 g/m*3 5.1 C 0 km/h
2911 20-09-2005 06:33:02 5 C 6.12 g/m*3 5 C 0 km/h
2912 20-09-2005 06:45:01 5.2 C 6.27 g/m*3 5.2 C 0 km/h
2913 20-09-2005 06:57:02 5.3 C 6.31 g/m*3 5.3 C 0 km/h
2914 20-09-2005 07:09:01 5.3 C 6.31 g/m*3 5.3 C 0 km/h
2915 20-09-2005 07:21:02 5.3 C 6.31 g/m*3 5.3 C 0 km/h
2916 20-09-2005 07:33:01 5.4 C 6.28 g/m*3 5.4 C 0 km/h
2917 20-09-2005 07:45:02 5.4 C 6.28 g/m*3 5.4 C 0 km/h
2918 20-09-2005 07:57:02 5.6 C 6.29 g/m*3 5.6 C 0 km/h
2919 20-09-2005 08:09:01 5.5 C 6.25 g/m*3 5.5 C 0 km/h
2920 20-09-2005 08:21:01 5.8 C 6.38 g/m*3 5.8 C 0 km/h
2921 20-09-2005 08:33:02 5.7 C 6.33 g/m*3 5.7 C 0 km/h
2922 20-09-2005 08:45:02 5.6 C 6.22 g/m*3 5.6 C 0 km/h
2923 20-09-2005 08:57:03 5.7 C 6.33 g/m*3 5.7 C 0 km/h
2924 20-09-2005 09:09:02 6.1 C 6.43 g/m*3 6.1 C 0 km/h
2925 20-09-2005 09:21:02 6.2 C 6.4 g/m*3 6.2 C 0 km/h
Sensor: Nr:Datum:Temp:Abs-Feuchte:Windchill:Wind:
Aussen-T/F 2926 20-09-2005 09:33:02 6.4 C 6.48 g/m*3 6.4 C 0 km/h
2927 20-09-2005 09:45:02 6.7 C 6.61 g/m*3 6.7 C 0 km/h
2928 20-09-2005 09:57:03 7.3 C 6.72 g/m*3 7.3 C 0 km/h
2929 20-09-2005 10:09:02 7.5 C 6.56 g/m*3 7.5 C 0 km/h
2930 20-09-2005 10:21:02 7.6 C 6.61 g/m*3 7.6 C 0 km/h
2931 20-09-2005 10:33:02 7.9 C 6.9 g/m*3 7.9 C 0 km/h
2932 20-09-2005 10:45:02 8.3 C 6.91 g/m*3 8.3 C 0 km/h
2933 20-09-2005 10:57:02 8.8 C 7.05 g/m*3 8.8 C 0 km/h
2934 20-09-2005 11:09:02 9.3 C 7.01 g/m*3 9.3 C 0 km/h
2935 20-09-2005 11:21:02 10.1 C 7 g/m*3 10.1 C 0 km/h
2936 20-09-2005 11:33:03 10.7 C 7.17 g/m*3 10.7 C 0 km/h
2937 20-09-2005 11:45:02 11.1 C 7.35 g/m*3 11.1 C 0 km/h
2938 20-09-2005 11:57:02 12.1 C 7.51 g/m*3 12.1 C 0 km/h
2939 20-09-2005 12:09:02 12.5 C 7.59 g/m*3 12.5 C 0 km/h
2940 20-09-2005 12:21:02 13.1 C 7.53 g/m*3 13.1 C 0 km/h
2941 20-09-2005 12:33:02 13.7 C 7.7 g/m*3 13.7 C 0 km/h
2942 20-09-2005 12:45:02 14.3 C 7.62 g/m*3 14.3 C 0 km/h
2943 20-09-2005 12:57:03 15.2 C 7.27 g/m*3 15.2 C 0 km/h
2944 20-09-2005 13:09:02 15.5 C 7.53 g/m*3 15.5 C 0 km/h
2945 20-09-2005 13:21:03 16.5 C 7.3 g/m*3 16.5 C 0 km/h
2946 20-09-2005 13:33:02 17 C 7.09 g/m*3 17 C 0 km/h
2947 20-09-2005 13:45:02 17.4 C 7.11 g/m*3 17.4 C 0 km/h
2948 20-09-2005 13:57:02 18.1 C 7.26 g/m*3 18.1 C 0 km/h
2949 20-09-2005 14:09:01 18.8 C 7.41 g/m*3 18.8 C 0 km/h
2950 20-09-2005 14:21:02 19.3 C 7.46 g/m*3 19.3 C 0 km/h
Sensor: Nr:Datum:Temp:Abs-Feuchte:Windchill:Wind:
Aussen-T/F 2951 20-09-2005 14:33:02 20 C 6.39 g/m*3 20 C 0 km/h
2952 20-09-2005 14:45:02 20.5 C 7.12 g/m*3 20.5 C 0 km/h
2953 20-09-2005 14:57:02 21.2 C 6.67 g/m*3 21.2 C 0 km/h
2954 20-09-2005 15:09:02 21.7 C 6.1 g/m*3 21.7 C 0 km/h
2955 20-09-2005 15:21:02 22 C 6.02 g/m*3 22 C 0 km/h
2956 20-09-2005 15:33:02 21.4 C 5.81 g/m*3 21.4 C 0 km/h
2957 20-09-2005 15:45:02 22.3 C 6.52 g/m*3 22.3 C 0 km/h
2958 20-09-2005 15:57:02 22.8 C 6.1 g/m*3 22.8 C 0 km/h
2959 20-09-2005 16:09:02 23.2 C 6.44 g/m*3 23.2 C 0 km/h
2960 20-09-2005 16:21:02 23.7 C 5.78 g/m*3 23.7 C 0 km/h
2961 20-09-2005 16:33:02 23.5 C 5.71 g/m*3 23.5 C 0 km/h
2962 20-09-2005 16:45:02 23.4 C 5.89 g/m*3 23.4 C 0 km/h
2963 20-09-2005 16:57:02 23.3 C 5.23 g/m*3 23.3 C 0 km/h
2964 20-09-2005 17:09:01 23.2 C 6.03 g/m*3 23.2 C 0 km/h
2965 20-09-2005 17:21:02 23.7 C 6.63 g/m*3 23.7 C 0 km/h
2966 20-09-2005 17:33:02 23.7 C 6.63 g/m*3 23.7 C 0 km/h
2967 20-09-2005 17:45:02 23.4 C 6.52 g/m*3 23.4 C 0 km/h
2968 20-09-2005 17:57:02 23.5 C 5.92 g/m*3 23.5 C 0 km/h
2969 20-09-2005 18:09:03 23.5 C 6.34 g/m*3 23.5 C 0 km/h
2970 20-09-2005 18:21:03 22.7 C 6.47 g/m*3 22.7 C 0 km/h
2971 20-09-2005 18:33:03 21.3 C 6.34 g/m*3 21.3 C 0 km/h
2972 20-09-2005 18:45:03 20.3 C 6.68 g/m*3 20.3 C 0 km/h
2973 20-09-2005 18:57:03 19.7 C 6.62 g/m*3 19.7 C 0 km/h
2974 20-09-2005 19:09:04 18.7 C 6.56 g/m*3 18.7 C 0 km/h
2975 20-09-2005 19:21:03 17.5 C 6.71 g/m*3 17.5 C 0 km/h
Sensor: Nr:Datum:Temp:Abs-Feuchte:Windchill:Wind:
Aussen-T/F 2976 20-09-2005 19:33:03 16.4 C 6.56 g/m*3 16.4 C 0 km/h
2977 20-09-2005 19:45:03 15.7 C 6.69 g/m*3 15.7 C 0 km/h
2978 20-09-2005 19:57:03 15.3 C 6.66 g/m*3 15.3 C 0 km/h
2979 20-09-2005 20:09:02 15 C 6.92 g/m*3 15 C 0 km/h
2980 20-09-2005 20:21:02 14.7 C 7.05 g/m*3 14.7 C 0 km/h
2981 20-09-2005 20:33:03 14.5 C 6.96 g/m*3 14.5 C 0 km/h
2982 20-09-2005 20:45:02 14.1 C 6.92 g/m*3 14.1 C 0 km/h
2983 20-09-2005 20:57:02 13.9 C 7.07 g/m*3 13.9 C 0 km/h
2984 20-09-2005 21:09:02 13.7 C 6.99 g/m*3 13.7 C 0 km/h
2985 20-09-2005 21:21:03 13.5 C 7.02 g/m*3 13.5 C 0 km/h
2986 20-09-2005 21:33:02 13.3 C 7.05 g/m*3 13.3 C 0 km/h
2987 20-09-2005 21:45:02 12.9 C 7.1 g/m*3 12.9 C 0 km/h
2988 20-09-2005 21:57:02 12.6 C 7.19 g/m*3 12.6 C 0 km/h
2989 20-09-2005 22:09:03 12.5 C 7.26 g/m*3 12.5 C 0 km/h
2990 20-09-2005 22:21:02 12.4 C 7.21 g/m*3 12.4 C 0 km/h
2991 20-09-2005 22:33:02 12 C 7.14 g/m*3 12 C 0 km/h
2992 20-09-2005 22:45:02 11.7 C 7.22 g/m*3 11.7 C 0 km/h
2993 20-09-2005 22:57:02 11.5 C 7.23 g/m*3 11.5 C 0 km/h
2994 20-09-2005 23:09:02 11.3 C 7.24 g/m*3 11.3 C 0 km/h
2995 20-09-2005 23:21:03 11.1 C 7.35 g/m*3 11.1 C 0 km/h
2996 20-09-2005 23:33:02 10.9 C 7.36 g/m*3 10.9 C 0 km/h
2997 20-09-2005 23:45:02 10.7 C 7.27 g/m*3 10.7 C 0 km/h
2998 20-09-2005 23:57:03 10.5 C 7.27 g/m*3 10.5 C 0 km/h
2999 21-09-2005 00:09:02 10.4 C 7.23 g/m*3 10.4 C 0 km/h
3000 21-09-2005 00:21:03 10.2 C 7.33 g/m*3 10.2 C 0 km/h
Sensor: Nr:Datum:Temp:Abs-Feuchte:Windchill:Wind:
Aussen-T/F 3001 21-09-2005 00:33:02 10 C 7.24 g/m*3 10 C 0 km/h
3002 21-09-2005 00:45:02 9.9 C 7.38 g/m*3 9.9 C 0 km/h
3003 21-09-2005 00:57:02 9.7 C 7.38 g/m*3 9.7 C 0 km/h
3004 21-09-2005 01:09:02 9.6 C 7.42 g/m*3 9.6 C 0 km/h
3005 21-09-2005 01:21:02 9.4 C 7.33 g/m*3 9.4 C 0 km/h
3006 21-09-2005 01:33:02 9.3 C 7.28 g/m*3 9.3 C 0 km/h
3007 21-09-2005 01:45:02 9 C 7.14 g/m*3 9 C 0 km/h
3008 21-09-2005 01:57:02 8.9 C 7.18 g/m*3 8.9 C 0 km/h
3009 21-09-2005 02:09:02 8.8 C 7.22 g/m*3 8.8 C 0 km/h
3010 21-09-2005 02:21:02 8.6 C 7.13 g/m*3 8.6 C 0 km/h
3011 21-09-2005 02:33:02 8.4 C 7.04 g/m*3 8.4 C 0 km/h
3012 21-09-2005 02:46:03 8.3 C 7 g/m*3 8.3 C 0 km/h
3013 21-09-2005 02:58:03 8.1 C 6.99 g/m*3 8.1 C 0 km/h
3014 21-09-2005 03:10:03 8.1 C 7.07 g/m*3 8.1 C 0 km/h
3015 21-09-2005 03:22:03 7.9 C 7.06 g/m*3 7.9 C 0 km/h
3016 21-09-2005 03:34:02 7.8 C 7.1 g/m*3 7.8 C 0 km/h
3017 21-09-2005 03:46:02 7.6 C 7.01 g/m*3 7.6 C 0 km/h
3018 21-09-2005 03:58:02 7.5 C 6.96 g/m*3 7.5 C 0 km/h
3019 21-09-2005 04:10:03 7.3 C 6.87 g/m*3 7.3 C 0 km/h
3020 21-09-2005 04:22:02 7.2 C 6.83 g/m*3 7.2 C 0 km/h
3021 21-09-2005 04:34:02 7.1 C 6.79 g/m*3 7.1 C 0 km/h
3022 21-09-2005 04:46:02 7 C 6.74 g/m*3 7 C 0 km/h
3023 21-09-2005 04:58:02 6.9 C 6.77 g/m*3 6.9 C 0 km/h
3024 21-09-2005 05:10:02 6.8 C 6.73 g/m*3 6.8 C 0 km/h
3025 21-09-2005 05:22:02 6.7 C 6.69 g/m*3 6.7 C 0 km/h
Sensor: Nr:Datum:Temp:Abs-Feuchte:Windchill:Wind:
Aussen-T/F 3026 21-09-2005 05:34:02 6.6 C 6.64 g/m*3 6.6 C 0 km/h
3027 21-09-2005 05:46:02 6.5 C 6.6 g/m*3 6.5 C 0 km/h
3028 21-09-2005 05:58:02 6.4 C 6.56 g/m*3 6.4 C 0 km/h
3029 21-09-2005 06:10:01 6.5 C 6.6 g/m*3 6.5 C 0 km/h
3030 21-09-2005 06:22:01 6.7 C 6.84 g/m*3 6.7 C 0 km/h
3031 21-09-2005 06:34:02 6.8 C 6.96 g/m*3 6.8 C 0 km/h
3032 21-09-2005 06:46:02 6.8 C 6.96 g/m*3 6.8 C 0 km/h
3033 21-09-2005 06:58:02 6.8 C 6.96 g/m*3 6.8 C 0 km/h
3034 21-09-2005 07:10:02 7 C 6.97 g/m*3 7 C 0 km/h
3035 21-09-2005 07:22:02 7.2 C 6.99 g/m*3 7.2 C 0 km/h
3036 21-09-2005 07:34:03 7.2 C 6.99 g/m*3 7.2 C 0 km/h
3037 21-09-2005 07:46:02 7.3 C 7.03 g/m*3 7.3 C 0 km/h
3038 21-09-2005 07:58:02 7.4 C 7 g/m*3 7.4 C 0 km/h
3039 21-09-2005 08:10:02 7.2 C 6.91 g/m*3 7.2 C 0 km/h
3040 21-09-2005 08:22:01 7.3 C 6.87 g/m*3 7.3 C 0 km/h
3041 21-09-2005 08:34:02 7.2 C 6.91 g/m*3 7.2 C 0 km/h
3042 21-09-2005 08:46:02 7.1 C 6.79 g/m*3 7.1 C 0 km/h
3043 21-09-2005 08:58:02 7.2 C 6.83 g/m*3 7.2 C 0 km/h
3044 21-09-2005 09:10:02 7.5 C 7.04 g/m*3 7.5 C 0 km/h
3045 21-09-2005 09:22:03 8.1 C 7.16 g/m*3 8.1 C 0 km/h
3046 21-09-2005 09:34:02 8.6 C 7.22 g/m*3 8.6 C 0 km/h
3047 21-09-2005 09:46:02 9 C 7.14 g/m*3 9 C 0 km/h
3048 21-09-2005 09:58:02 9.3 C 7.19 g/m*3 9.3 C 0 km/h
3049 21-09-2005 10:10:01 9.7 C 7.28 g/m*3 9.7 C 0 km/h
3050 21-09-2005 10:22:01 9.9 C 7.19 g/m*3 9.9 C 0 km/h
Sensor: Nr:Datum:Temp:Abs-Feuchte:Windchill:Wind:
Aussen-T/F 3051 21-09-2005 10:34:02 10.2 C 7.23 g/m*3 10.2 C 0 km/h
3052 21-09-2005 10:46:02 10.2 C 7.23 g/m*3 10.2 C 0 km/h
3053 21-09-2005 10:58:03 10.4 C 7.32 g/m*3 10.4 C 0 km/h
3054 21-09-2005 11:10:02 10.5 C 7.37 g/m*3 10.5 C 0 km/h
3055 21-09-2005 11:22:02 10.4 C 7.61 g/m*3 10.4 C 0 km/h
3056 21-09-2005 11:34:02 11 C 7.91 g/m*3 11 C 0 km/h
3057 21-09-2005 11:46:01 11.8 C 8.1 g/m*3 11.8 C 0 km/h
3058 21-09-2005 11:58:01 12.4 C 8.19 g/m*3 12.4 C 0 km/h
3059 21-09-2005 12:10:01 13.4 C 8.14 g/m*3 13.4 C 0 km/h
3060 21-09-2005 12:22:02 13.8 C 8.46 g/m*3 13.8 C 0 km/h
3061 21-09-2005 12:34:02 14.3 C 8.48 g/m*3 14.3 C 0 km/h
3062 21-09-2005 12:46:02 15 C 8.33 g/m*3 15 C 0 km/h
3063 21-09-2005 12:58:03 15.5 C 8.33 g/m*3 15.5 C 0 km/h
3064 21-09-2005 13:10:02 16.1 C 8.36 g/m*3 16.1 C 0 km/h
3065 21-09-2005 13:22:02 16.5 C 8.43 g/m*3 16.5 C 0 km/h
3066 21-09-2005 13:34:02 17.5 C 7.9 g/m*3 17.5 C 0 km/h
3067 21-09-2005 13:46:02 18.1 C 7.73 g/m*3 18.1 C 0 km/h
3068 21-09-2005 13:58:02 18.7 C 8.01 g/m*3 18.7 C 0 km/h
3069 21-09-2005 14:10:02 19.6 C 6.25 g/m*3 19.6 C 0 km/h
3070 21-09-2005 14:22:02 20.2 C 6.29 g/m*3 20.2 C 0 km/h
3071 21-09-2005 14:34:02 21.2 C 6.49 g/m*3 21.2 C 0 km/h
3072 21-09-2005 14:46:02 21.7 C 7.06 g/m*3 21.7 C 0 km/h
3073 21-09-2005 14:58:02 22.4 C 6.36 g/m*3 22.4 C 0 km/h
3074 21-09-2005 15:10:02 22.8 C 6.3 g/m*3 22.8 C 0 km/h
3075 21-09-2005 15:22:02 23.1 C 6.2 g/m*3 23.1 C 0 km/h
Sensor: Nr:Datum:Temp:Abs-Feuchte:Windchill:Wind:
Aussen-T/F 3076 21-09-2005 15:34:02 23.4 C 5.89 g/m*3 23.4 C 0 km/h
3077 21-09-2005 15:46:01 24.1 C 6.13 g/m*3 24.1 C 0 km/h
3078 21-09-2005 15:58:01 24.4 C 5.56 g/m*3 24.4 C 0 km/h
3079 21-09-2005 16:10:01 24.7 C 5.88 g/m*3 24.7 C 0 km/h
3080 21-09-2005 16:22:02 24.5 C 5.6 g/m*3 24.5 C 0 km/h
3081 21-09-2005 16:34:01 24.7 C 5.43 g/m*3 24.7 C 0 km/h
3082 21-09-2005 16:46:02 24.9 C 6.41 g/m*3 24.9 C 0 km/h
3083 21-09-2005 16:58:02 24.7 C 6.11 g/m*3 24.7 C 0 km/h
3084 21-09-2005 17:10:01 24.9 C 5.26 g/m*3 24.9 C 0 km/h
3085 21-09-2005 17:22:02 25.1 C 5.09 g/m*3 25.1 C 0 km/h
3086 21-09-2005 17:34:02 25.2 C 6.29 g/m*3 25.2 C 0 km/h
3087 21-09-2005 17:46:02 25 C 6.91 g/m*3 25 C 0 km/h
3088 21-09-2005 17:58:02 24.5 C 6.71 g/m*3 24.5 C 0 km/h
3089 21-09-2005 18:10:02 23.9 C 7.14 g/m*3 23.9 C 0 km/h
3090 21-09-2005 18:22:02 23.7 C 6.84 g/m*3 23.7 C 0 km/h
3091 21-09-2005 18:34:02 23.1 C 6.82 g/m*3 23.1 C 0 km/h
3092 21-09-2005 18:46:02 22.2 C 6.87 g/m*3 22.2 C 0 km/h
3093 21-09-2005 18:58:03 21.5 C 6.98 g/m*3 21.5 C 0 km/h
3094 21-09-2005 19:10:02 20.4 C 7.08 g/m*3 20.4 C 0 km/h
3095 21-09-2005 19:22:02 19.1 C 6.88 g/m*3 19.1 C 0 km/h
3096 21-09-2005 19:34:02 18.3 C 6.88 g/m*3 18.3 C 0 km/h
3097 21-09-2005 19:46:02 17.5 C 7.31 g/m*3 17.5 C 0 km/h
3098 21-09-2005 19:58:02 16.8 C 7.29 g/m*3 16.8 C 0 km/h
3099 21-09-2005 20:10:02 16.3 C 7.35 g/m*3 16.3 C 0 km/h
3100 21-09-2005 20:22:03 16 C 7.22 g/m*3 16 C 0 km/h
Sensor: Nr:Datum:Temp:Abs-Feuchte:Windchill:Wind:
Aussen-T/F 3101 21-09-2005 20:34:02 15.5 C 7.27 g/m*3 15.5 C 0 km/h
3102 21-09-2005 20:46:02 15.2 C 7.4 g/m*3 15.2 C 0 km/h
3103 21-09-2005 20:58:02 14.9 C 7.39 g/m*3 14.9 C 0 km/h
3104 21-09-2005 21:10:01 14.5 C 7.46 g/m*3 14.5 C 0 km/h
3105 21-09-2005 21:22:02 14.3 C 7.37 g/m*3 14.3 C 0 km/h
3106 21-09-2005 21:34:02 14 C 7.36 g/m*3 14 C 0 km/h
3107 21-09-2005 21:46:02 13.8 C 7.51 g/m*3 13.8 C 0 km/h
3108 21-09-2005 21:58:02 13.6 C 7.41 g/m*3 13.6 C 0 km/h
3109 21-09-2005 22:10:02 13.3 C 7.39 g/m*3 13.3 C 0 km/h
3110 21-09-2005 22:22:02 13.1 C 7.42 g/m*3 13.1 C 0 km/h
3111 21-09-2005 22:34:02 12.9 C 7.44 g/m*3 12.9 C 0 km/h
3112 21-09-2005 22:46:02 12.7 C 7.46 g/m*3 12.7 C 0 km/h
3113 21-09-2005 22:58:02 12.5 C 7.48 g/m*3 12.5 C 0 km/h
3114 21-09-2005 23:10:02 12.2 C 7.45 g/m*3 12.2 C 0 km/h
3115 21-09-2005 23:22:03 12.1 C 7.61 g/m*3 12.1 C 0 km/h
3116 21-09-2005 23:34:02 11.8 C 7.58 g/m*3 11.8 C 0 km/h
3117 21-09-2005 23:46:02 11.6 C 7.59 g/m*3 11.6 C 0 km/h
3118 21-09-2005 23:58:02 11.3 C 7.45 g/m*3 11.3 C 0 km/h
3119 22-09-2005 00:10:02 11.2 C 7.5 g/m*3 11.2 C 0 km/h
3120 22-09-2005 00:22:02 11 C 7.61 g/m*3 11 C 0 km/h
3121 22-09-2005 00:34:02 10.8 C 7.71 g/m*3 10.8 C 0 km/h
3122 22-09-2005 00:46:02 10.7 C 7.66 g/m*3 10.7 C 0 km/h
3123 22-09-2005 00:58:02 10.5 C 7.57 g/m*3 10.5 C 0 km/h
3124 22-09-2005 01:10:02 10.4 C 7.71 g/m*3 10.4 C 0 km/h
3125 22-09-2005 01:22:02 10.2 C 7.52 g/m*3 10.2 C 0 km/h
Sensor: Nr:Datum:Temp:Abs-Feuchte:Windchill:Wind:
Aussen-T/F 3126 22-09-2005 01:34:02 9.9 C 7.47 g/m*3 9.9 C 0 km/h
3127 22-09-2005 01:46:02 9.8 C 7.52 g/m*3 9.8 C 0 km/h
3128 22-09-2005 01:58:02 9.7 C 7.47 g/m*3 9.7 C 0 km/h
3129 22-09-2005 02:10:02 9.6 C 7.42 g/m*3 9.6 C 0 km/h
3130 22-09-2005 02:22:02 9.6 C 7.6 g/m*3 9.6 C 0 km/h
3131 22-09-2005 02:34:02 9.3 C 7.37 g/m*3 9.3 C 0 km/h
3132 22-09-2005 02:47:04 9.3 C 7.46 g/m*3 9.3 C 0 km/h
3133 22-09-2005 02:59:04 9.1 C 7.28 g/m*3 9.1 C 0 km/h
3134 22-09-2005 03:11:05 9 C 7.32 g/m*3 9 C 0 km/h
3135 22-09-2005 03:23:05 9 C 7.32 g/m*3 9 C 0 km/h
3136 22-09-2005 03:35:02 8.8 C 7.31 g/m*3 8.8 C 0 km/h
3137 22-09-2005 03:47:02 8.7 C 7.26 g/m*3 8.7 C 0 km/h
3138 22-09-2005 03:59:02 8.5 C 7.26 g/m*3 8.5 C 0 km/h
3139 22-09-2005 04:11:02 8.4 C 7.21 g/m*3 8.4 C 0 km/h
3140 22-09-2005 04:23:02 8.4 C 7.21 g/m*3 8.4 C 0 km/h
3141 22-09-2005 04:35:02 8.3 C 7.25 g/m*3 8.3 C 0 km/h
3142 22-09-2005 04:47:03 8.1 C 7.16 g/m*3 8.1 C 0 km/h
3143 22-09-2005 04:59:03 8.1 C 7.07 g/m*3 8.1 C 0 km/h
3144 22-09-2005 05:11:03 7.9 C 7.06 g/m*3 7.9 C 0 km/h
3145 22-09-2005 05:23:03 7.8 C 7.1 g/m*3 7.8 C 0 km/h
3146 22-09-2005 05:35:03 7.8 C 7.1 g/m*3 7.8 C 0 km/h
3147 22-09-2005 05:47:02 7.6 C 7.09 g/m*3 7.6 C 0 km/h
3148 22-09-2005 05:59:02 7.5 C 7.04 g/m*3 7.5 C 0 km/h
3149 22-09-2005 06:11:02 7.4 C 7 g/m*3 7.4 C 0 km/h
3150 22-09-2005 06:23:02 7.1 C 6.86 g/m*3 7.1 C 0 km/h
Sensor: Nr:Datum:Temp:Abs-Feuchte:Windchill:Wind:
Aussen-T/F 3151 22-09-2005 06:35:02 7.1 C 6.86 g/m*3 7.1 C 0 km/h
3152 22-09-2005 06:47:02 7 C 6.82 g/m*3 7 C 0 km/h
3153 22-09-2005 06:59:03 6.9 C 6.85 g/m*3 6.9 C 0 km/h
3154 22-09-2005 07:11:02 6.8 C 6.81 g/m*3 6.8 C 0 km/h
3155 22-09-2005 07:23:03 6.7 C 6.76 g/m*3 6.7 C 0 km/h
3156 22-09-2005 07:35:02 6.8 C 6.88 g/m*3 6.8 C 0 km/h
3157 22-09-2005 07:47:02 6.8 C 6.96 g/m*3 6.8 C 0 km/h
3158 22-09-2005 07:59:03 6.9 C 7.01 g/m*3 6.9 C 0 km/h
3159 22-09-2005 08:11:01 7.1 C 7.1 g/m*3 7.1 C 0 km/h
3160 22-09-2005 08:23:01 7.4 C 7.24 g/m*3 7.4 C 0 km/h
3161 22-09-2005 08:35:02 7.5 C 7.2 g/m*3 7.5 C 0 km/h
3162 22-09-2005 08:47:02 7.6 C 7.25 g/m*3 7.6 C 0 km/h
3163 22-09-2005 08:59:02 7.8 C 7.35 g/m*3 7.8 C 0 km/h
3164 22-09-2005 09:11:02 7.9 C 7.39 g/m*3 7.9 C 0 km/h
3165 22-09-2005 09:23:02 8.1 C 7.41 g/m*3 8.1 C 0 km/h
3166 22-09-2005 09:35:02 8.6 C 7.56 g/m*3 8.6 C 0 km/h
3167 22-09-2005 09:47:02 8.8 C 7.49 g/m*3 8.8 C 0 km/h
3168 22-09-2005 09:59:02 9.2 C 7.5 g/m*3 9.2 C 0 km/h
3169 22-09-2005 10:11:02 9.8 C 7.79 g/m*3 9.8 C 0 km/h
3170 22-09-2005 10:23:03 10.2 C 7.61 g/m*3 10.2 C 0 km/h
3171 22-09-2005 10:35:02 10.6 C 7.81 g/m*3 10.6 C 0 km/h
3172 22-09-2005 10:47:02 10.5 C 7.86 g/m*3 10.5 C 0 km/h
3173 22-09-2005 10:59:02 10.8 C 8.2 g/m*3 10.8 C 0 km/h
3174 22-09-2005 11:11:01 11.4 C 8.31 g/m*3 11.4 C 0 km/h
3175 22-09-2005 11:23:02 12.1 C 8.47 g/m*3 12.1 C 0 km/h
Sensor: Nr:Datum:Temp:Abs-Feuchte:Windchill:Wind:
Aussen-T/F 3176 22-09-2005 11:35:02 12.8 C 8.62 g/m*3 12.8 C 0 km/h
3177 22-09-2005 11:47:02 13.7 C 8.64 g/m*3 13.7 C 0 km/h
3178 22-09-2005 11:59:03 14.3 C 8.72 g/m*3 14.3 C 0 km/h
3179 22-09-2005 12:11:01 14.7 C 8.81 g/m*3 14.7 C 0 km/h
3180 22-09-2005 12:23:02 15.4 C 8.8 g/m*3 15.4 C 0 km/h
3181 22-09-2005 12:35:01 15.6 C 8.78 g/m*3 15.6 C 0 km/h
3182 22-09-2005 12:47:02 16.2 C 8.83 g/m*3 16.2 C 0 km/h
3183 22-09-2005 12:59:02 16.7 C 8.67 g/m*3 16.7 C 0 km/h
3184 22-09-2005 13:11:01 17.3 C 8.4 g/m*3 17.3 C 0 km/h
3185 22-09-2005 13:23:02 18.2 C 7.62 g/m*3 18.2 C 0 km/h
3186 22-09-2005 13:35:02 19 C 7.66 g/m*3 19 C 0 km/h
3187 22-09-2005 13:47:02 19.4 C 7.67 g/m*3 19.4 C 0 km/h
3188 22-09-2005 13:59:02 19.6 C 7.6 g/m*3 19.6 C 0 km/h
3189 22-09-2005 14:11:02 20.5 C 7.65 g/m*3 20.5 C 0 km/h
3190 22-09-2005 14:23:03 20.7 C 7.92 g/m*3 20.7 C 0 km/h
3191 22-09-2005 14:35:02 21.3 C 7.46 g/m*3 21.3 C 0 km/h
3192 22-09-2005 14:47:02 22 C 7.18 g/m*3 22 C 0 km/h
3193 22-09-2005 14:59:02 22.3 C 7.31 g/m*3 22.3 C 0 km/h
3194 22-09-2005 15:11:01 22.4 C 7.15 g/m*3 22.4 C 0 km/h
3195 22-09-2005 15:23:02 22.9 C 7.36 g/m*3 22.9 C 0 km/h
3196 22-09-2005 15:35:02 23.1 C 7.44 g/m*3 23.1 C 0 km/h
3197 22-09-2005 15:47:02 23.6 C 7.02 g/m*3 23.6 C 0 km/h
3198 22-09-2005 15:59:02 24.3 C 6.86 g/m*3 24.3 C 0 km/h
3199 22-09-2005 16:11:02 24.5 C 6.94 g/m*3 24.5 C 0 km/h
3200 22-09-2005 16:23:03 24.5 C 6.94 g/m*3 24.5 C 0 km/h
Sensor: Nr:Datum:Temp:Abs-Feuchte:Windchill:Wind:
Aussen-T/F 3201 22-09-2005 16:35:56 24.7 C 7.02 g/m*3 24.7 C 0 km/h
3202 22-09-2005 16:43:02 24.8 C 6.83 g/m*3 24.8 C 0 km/h
3203 22-09-2005 16:55:02 24.8 C 6.83 g/m*3 24.8 C 0 km/h
3204 22-09-2005 17:07:01 24.8 C 7.28 g/m*3 24.8 C 0 km/h
3205 22-09-2005 17:19:02 25.1 C 7.18 g/m*3 25.1 C 0 km/h
3206 22-09-2005 17:31:02 24.9 C 7.32 g/m*3 24.9 C 0 km/h
3207 22-09-2005 17:43:02 24.8 C 7.51 g/m*3 24.8 C 0 km/h
3208 22-09-2005 17:55:02 24.3 C 7.75 g/m*3 24.3 C 0 km/h
3209 22-09-2005 18:07:02 24.1 C 7.66 g/m*3 24.1 C 0 km/h
3210 22-09-2005 18:19:02 23.3 C 7.95 g/m*3 23.3 C 0 km/h
3211 22-09-2005 18:31:02 22.8 C 7.92 g/m*3 22.8 C 0 km/h
3212 22-09-2005 18:43:02 21.9 C 7.91 g/m*3 21.9 C 0 km/h
3213 22-09-2005 18:55:02 21.1 C 7.92 g/m*3 21.1 C 0 km/h
3214 22-09-2005 19:07:01 20.2 C 8.04 g/m*3 20.2 C 0 km/h
3215 22-09-2005 19:19:02 18.9 C 7.94 g/m*3 18.9 C 0 km/h
3216 22-09-2005 19:31:02 18.5 C 8.07 g/m*3 18.5 C 0 km/h
3217 22-09-2005 19:43:03 17.7 C 8 g/m*3 17.7 C 0 km/h
3218 22-09-2005 19:55:02 17 C 7.96 g/m*3 17 C 0 km/h
3219 22-09-2005 20:07:02 16.7 C 7.96 g/m*3 16.7 C 0 km/h
3220 22-09-2005 20:19:02 16.7 C 7.96 g/m*3 16.7 C 0 km/h
3221 22-09-2005 20:31:02 15.8 C 8.08 g/m*3 15.8 C 0 km/h
3222 22-09-2005 20:43:02 15.7 C 8.03 g/m*3 15.7 C 0 km/h
3223 22-09-2005 20:55:02 15.3 C 7.97 g/m*3 15.3 C 0 km/h
3224 22-09-2005 21:07:02 15.2 C 8.05 g/m*3 15.2 C 0 km/h
3225 22-09-2005 21:19:03 14.9 C 8.03 g/m*3 14.9 C 0 km/h
Sensor: Nr:Datum:Temp:Abs-Feuchte:Windchill:Wind:
Aussen-T/F 3226 22-09-2005 21:31:02 14.7 C 8.06 g/m*3 14.7 C 0 km/h
3227 22-09-2005 21:43:02 14.4 C 8.03 g/m*3 14.4 C 0 km/h
3228 22-09-2005 21:55:02 14.2 C 8.06 g/m*3